<?xml version="1.0" encoding="UTF-8" standalone="no" ?>
<gpx xmlns="http://www.topografix.com/GPX/1/1" xmlns:xsi="http://www.w3.org/2001/XMLSchema-instance" xsi:schemaLocation="http://www.topografix.com/GPX/1/1 http://www.topografix.com/GPX/1/1/gpx.xsd" version="1.1" creator="VisuGPX - https://www.visugpx.com">
  <metadata>
    <name>Pernes 30k</name>
    <desc><![CDATA[Une boucle classique sur Pernes ]]></desc>
  </metadata>
  <trk>
    <name><![CDATA[ACTIVE LOG]]></name>
    <trkseg>
      <trkpt lat="43.99016" lon="5.05637">
        <ele>90.0206299</ele>
        <time>2015-11-11T07:23:39Z</time>
      </trkpt>
      <trkpt lat="43.99017" lon="5.05637">
        <ele>93.3851318</ele>
        <time>2015-11-11T07:24:12Z</time>
      </trkpt>
      <trkpt lat="43.99016" lon="5.05636">
        <ele>94.3465576</ele>
        <time>2015-11-11T07:25:31Z</time>
      </trkpt>
      <trkpt lat="43.99011" lon="5.05603">
        <ele>97.2304688</ele>
        <time>2015-11-11T07:25:45Z</time>
      </trkpt>
      <trkpt lat="43.98996" lon="5.0558">
        <ele>101.0756836</ele>
        <time>2015-11-11T07:25:56Z</time>
      </trkpt>
      <trkpt lat="43.98965" lon="5.05577">
        <ele>103.4790039</ele>
        <time>2015-11-11T07:26:07Z</time>
      </trkpt>
      <trkpt lat="43.98921" lon="5.0556">
        <ele>104.9210205</ele>
        <time>2015-11-11T07:26:21Z</time>
      </trkpt>
      <trkpt lat="43.98887" lon="5.05537">
        <ele>105.8824463</ele>
        <time>2015-11-11T07:26:33Z</time>
      </trkpt>
      <trkpt lat="43.98855" lon="5.0552">
        <ele>105.8824463</ele>
        <time>2015-11-11T07:26:43Z</time>
      </trkpt>
      <trkpt lat="43.98829" lon="5.0553">
        <ele>103.9597168</ele>
        <time>2015-11-11T07:26:49Z</time>
      </trkpt>
      <trkpt lat="43.98814" lon="5.05548">
        <ele>103.4790039</ele>
        <time>2015-11-11T07:26:53Z</time>
      </trkpt>
      <trkpt lat="43.98778" lon="5.05606">
        <ele>101.5563965</ele>
        <time>2015-11-11T07:27:05Z</time>
      </trkpt>
      <trkpt lat="43.98767" lon="5.05619">
        <ele>102.0371094</ele>
        <time>2015-11-11T07:27:08Z</time>
      </trkpt>
      <trkpt lat="43.98748" lon="5.05638">
        <ele>102.998291</ele>
        <time>2015-11-11T07:27:13Z</time>
      </trkpt>
      <trkpt lat="43.98713" lon="5.05654">
        <ele>101.0756836</ele>
        <time>2015-11-11T07:27:20Z</time>
      </trkpt>
      <trkpt lat="43.98672" lon="5.05649">
        <ele>99.1530762</ele>
        <time>2015-11-11T07:27:26Z</time>
      </trkpt>
      <trkpt lat="43.98643" lon="5.05651">
        <ele>97.7111816</ele>
        <time>2015-11-11T07:27:30Z</time>
      </trkpt>
      <trkpt lat="43.98623" lon="5.05652">
        <ele>97.7111816</ele>
        <time>2015-11-11T07:27:33Z</time>
      </trkpt>
      <trkpt lat="43.98601" lon="5.05667">
        <ele>96.7498779</ele>
        <time>2015-11-11T07:27:37Z</time>
      </trkpt>
      <trkpt lat="43.98593" lon="5.05676">
        <ele>96.2692871</ele>
        <time>2015-11-11T07:27:39Z</time>
      </trkpt>
      <trkpt lat="43.98572" lon="5.05701">
        <ele>95.7884521</ele>
        <time>2015-11-11T07:27:45Z</time>
      </trkpt>
      <trkpt lat="43.9856" lon="5.05726">
        <ele>95.7884521</ele>
        <time>2015-11-11T07:27:50Z</time>
      </trkpt>
      <trkpt lat="43.98528" lon="5.0575">
        <ele>94.8271484</ele>
        <time>2015-11-11T07:27:57Z</time>
      </trkpt>
      <trkpt lat="43.98519" lon="5.05745">
        <ele>95.7884521</ele>
        <time>2015-11-11T07:27:59Z</time>
      </trkpt>
      <trkpt lat="43.98496" lon="5.05725">
        <ele>95.3077393</ele>
        <time>2015-11-11T07:28:05Z</time>
      </trkpt>
      <trkpt lat="43.98477" lon="5.05728">
        <ele>96.2692871</ele>
        <time>2015-11-11T07:28:11Z</time>
      </trkpt>
      <trkpt lat="43.98455" lon="5.05768">
        <ele>98.1918945</ele>
        <time>2015-11-11T07:28:22Z</time>
      </trkpt>
      <trkpt lat="43.98423" lon="5.05815">
        <ele>98.6724854</ele>
        <time>2015-11-11T07:28:35Z</time>
      </trkpt>
      <trkpt lat="43.98401" lon="5.05842">
        <ele>101.0756836</ele>
        <time>2015-11-11T07:28:45Z</time>
      </trkpt>
      <trkpt lat="43.98377" lon="5.05871">
        <ele>102.5177002</ele>
        <time>2015-11-11T07:28:56Z</time>
      </trkpt>
      <trkpt lat="43.98351" lon="5.05888">
        <ele>104.4404297</ele>
        <time>2015-11-11T07:29:05Z</time>
      </trkpt>
      <trkpt lat="43.98318" lon="5.05924">
        <ele>105.4017334</ele>
        <time>2015-11-11T07:29:16Z</time>
      </trkpt>
      <trkpt lat="43.98295" lon="5.05953">
        <ele>105.8824463</ele>
        <time>2015-11-11T07:29:25Z</time>
      </trkpt>
      <trkpt lat="43.9828" lon="5.05982">
        <ele>108.2856445</ele>
        <time>2015-11-11T07:29:33Z</time>
      </trkpt>
      <trkpt lat="43.98263" lon="5.06002">
        <ele>112.1309814</ele>
        <time>2015-11-11T07:29:40Z</time>
      </trkpt>
      <trkpt lat="43.98247" lon="5.06021">
        <ele>113.572998</ele>
        <time>2015-11-11T07:29:50Z</time>
      </trkpt>
      <trkpt lat="43.9823" lon="5.06051">
        <ele>115.9761963</ele>
        <time>2015-11-11T07:30:00Z</time>
      </trkpt>
      <trkpt lat="43.98214" lon="5.06081">
        <ele>117.4182129</ele>
        <time>2015-11-11T07:30:10Z</time>
      </trkpt>
      <trkpt lat="43.98202" lon="5.06119">
        <ele>115.0148926</ele>
        <time>2015-11-11T07:30:19Z</time>
      </trkpt>
      <trkpt lat="43.982" lon="5.06139">
        <ele>113.0922852</ele>
        <time>2015-11-11T07:30:22Z</time>
      </trkpt>
      <trkpt lat="43.9819" lon="5.06156">
        <ele>111.6502686</ele>
        <time>2015-11-11T07:30:26Z</time>
      </trkpt>
      <trkpt lat="43.98153" lon="5.06193">
        <ele>110.208252</ele>
        <time>2015-11-11T07:30:38Z</time>
      </trkpt>
      <trkpt lat="43.98157" lon="5.06208">
        <ele>109.7276611</ele>
        <time>2015-11-11T07:30:42Z</time>
      </trkpt>
      <trkpt lat="43.98159" lon="5.06235">
        <ele>107.8050537</ele>
        <time>2015-11-11T07:30:49Z</time>
      </trkpt>
      <trkpt lat="43.98156" lon="5.06241">
        <ele>107.3243408</ele>
        <time>2015-11-11T07:30:50Z</time>
      </trkpt>
      <trkpt lat="43.98136" lon="5.06258">
        <ele>105.8824463</ele>
        <time>2015-11-11T07:30:55Z</time>
      </trkpt>
      <trkpt lat="43.98117" lon="5.06284">
        <ele>104.4404297</ele>
        <time>2015-11-11T07:31:02Z</time>
      </trkpt>
      <trkpt lat="43.98114" lon="5.06287">
        <ele>104.4404297</ele>
        <time>2015-11-11T07:31:03Z</time>
      </trkpt>
      <trkpt lat="43.98101" lon="5.06301">
        <ele>103.9597168</ele>
        <time>2015-11-11T07:31:07Z</time>
      </trkpt>
      <trkpt lat="43.98092" lon="5.06322">
        <ele>102.998291</ele>
        <time>2015-11-11T07:31:11Z</time>
      </trkpt>
      <trkpt lat="43.98037" lon="5.06398">
        <ele>103.9597168</ele>
        <time>2015-11-11T07:31:29Z</time>
      </trkpt>
      <trkpt lat="43.97987" lon="5.0646">
        <ele>103.9597168</ele>
        <time>2015-11-11T07:31:45Z</time>
      </trkpt>
      <trkpt lat="43.97947" lon="5.0651">
        <ele>104.4404297</ele>
        <time>2015-11-11T07:31:59Z</time>
      </trkpt>
      <trkpt lat="43.97902" lon="5.06566">
        <ele>105.4017334</ele>
        <time>2015-11-11T07:32:15Z</time>
      </trkpt>
      <trkpt lat="43.97867" lon="5.06612">
        <ele>108.7662354</ele>
        <time>2015-11-11T07:32:31Z</time>
      </trkpt>
      <trkpt lat="43.97866" lon="5.06647">
        <ele>109.2469482</ele>
        <time>2015-11-11T07:32:40Z</time>
      </trkpt>
      <trkpt lat="43.97866" lon="5.06663">
        <ele>109.7276611</ele>
        <time>2015-11-11T07:32:48Z</time>
      </trkpt>
      <trkpt lat="43.97862" lon="5.06663">
        <ele>110.6888428</ele>
        <time>2015-11-11T07:32:51Z</time>
      </trkpt>
      <trkpt lat="43.97847" lon="5.06677">
        <ele>110.6888428</ele>
        <time>2015-11-11T07:33:02Z</time>
      </trkpt>
      <trkpt lat="43.97839" lon="5.06683">
        <ele>111.1695557</ele>
        <time>2015-11-11T07:33:09Z</time>
      </trkpt>
      <trkpt lat="43.97826" lon="5.06701">
        <ele>111.1695557</ele>
        <time>2015-11-11T07:33:19Z</time>
      </trkpt>
      <trkpt lat="43.97808" lon="5.0672">
        <ele>113.0922852</ele>
        <time>2015-11-11T07:33:31Z</time>
      </trkpt>
      <trkpt lat="43.97787" lon="5.06741">
        <ele>117.8988037</ele>
        <time>2015-11-11T07:33:41Z</time>
      </trkpt>
      <trkpt lat="43.97766" lon="5.06758">
        <ele>117.8988037</ele>
        <time>2015-11-11T07:33:50Z</time>
      </trkpt>
      <trkpt lat="43.9773" lon="5.06779">
        <ele>120.7828369</ele>
        <time>2015-11-11T07:34:04Z</time>
      </trkpt>
      <trkpt lat="43.97701" lon="5.06791">
        <ele>121.7441406</ele>
        <time>2015-11-11T07:34:16Z</time>
      </trkpt>
      <trkpt lat="43.97667" lon="5.06802">
        <ele>122.7054443</ele>
        <time>2015-11-11T07:34:29Z</time>
      </trkpt>
      <trkpt lat="43.97629" lon="5.06806">
        <ele>124.6280518</ele>
        <time>2015-11-11T07:34:43Z</time>
      </trkpt>
      <trkpt lat="43.97594" lon="5.06803">
        <ele>127.5119629</ele>
        <time>2015-11-11T07:34:56Z</time>
      </trkpt>
      <trkpt lat="43.9759" lon="5.06804">
        <ele>128.4733887</ele>
        <time>2015-11-11T07:34:58Z</time>
      </trkpt>
      <trkpt lat="43.97595" lon="5.06816">
        <ele>127.0313721</ele>
        <time>2015-11-11T07:35:02Z</time>
      </trkpt>
      <trkpt lat="43.97603" lon="5.06825">
        <ele>125.1087646</ele>
        <time>2015-11-11T07:35:04Z</time>
      </trkpt>
      <trkpt lat="43.97614" lon="5.06869">
        <ele>122.7054443</ele>
        <time>2015-11-11T07:35:11Z</time>
      </trkpt>
      <trkpt lat="43.97607" lon="5.06877">
        <ele>120.7828369</ele>
        <time>2015-11-11T07:35:13Z</time>
      </trkpt>
      <trkpt lat="43.97593" lon="5.0689">
        <ele>119.3408203</ele>
        <time>2015-11-11T07:35:16Z</time>
      </trkpt>
      <trkpt lat="43.97578" lon="5.06926">
        <ele>117.8988037</ele>
        <time>2015-11-11T07:35:22Z</time>
      </trkpt>
      <trkpt lat="43.97584" lon="5.06938">
        <ele>117.8988037</ele>
        <time>2015-11-11T07:35:24Z</time>
      </trkpt>
      <trkpt lat="43.97614" lon="5.06983">
        <ele>114.5341797</ele>
        <time>2015-11-11T07:35:33Z</time>
      </trkpt>
      <trkpt lat="43.97621" lon="5.06991">
        <ele>115.0148926</ele>
        <time>2015-11-11T07:35:35Z</time>
      </trkpt>
      <trkpt lat="43.97632" lon="5.07">
        <ele>114.5341797</ele>
        <time>2015-11-11T07:35:38Z</time>
      </trkpt>
      <trkpt lat="43.97645" lon="5.07021">
        <ele>114.0535889</ele>
        <time>2015-11-11T07:35:43Z</time>
      </trkpt>
      <trkpt lat="43.97649" lon="5.07044">
        <ele>115.4956055</ele>
        <time>2015-11-11T07:35:48Z</time>
      </trkpt>
      <trkpt lat="43.97661" lon="5.07049">
        <ele>116.4567871</ele>
        <time>2015-11-11T07:35:53Z</time>
      </trkpt>
      <trkpt lat="43.97727" lon="5.07032">
        <ele>116.4567871</ele>
        <time>2015-11-11T07:36:09Z</time>
      </trkpt>
      <trkpt lat="43.97759" lon="5.0702">
        <ele>115.9761963</ele>
        <time>2015-11-11T07:36:17Z</time>
      </trkpt>
      <trkpt lat="43.97803" lon="5.06997">
        <ele>115.0148926</ele>
        <time>2015-11-11T07:36:29Z</time>
      </trkpt>
      <trkpt lat="43.97814" lon="5.07016">
        <ele>116.4567871</ele>
        <time>2015-11-11T07:36:36Z</time>
      </trkpt>
      <trkpt lat="43.97824" lon="5.0707">
        <ele>114.5341797</ele>
        <time>2015-11-11T07:36:49Z</time>
      </trkpt>
      <trkpt lat="43.97838" lon="5.0712">
        <ele>118.8601074</ele>
        <time>2015-11-11T07:37:02Z</time>
      </trkpt>
      <trkpt lat="43.97838" lon="5.07158">
        <ele>120.7828369</ele>
        <time>2015-11-11T07:37:13Z</time>
      </trkpt>
      <trkpt lat="43.97816" lon="5.07188">
        <ele>120.302124</ele>
        <time>2015-11-11T07:37:24Z</time>
      </trkpt>
      <trkpt lat="43.97802" lon="5.07217">
        <ele>121.7441406</ele>
        <time>2015-11-11T07:37:34Z</time>
      </trkpt>
      <trkpt lat="43.97802" lon="5.0722">
        <ele>121.7441406</ele>
        <time>2015-11-11T07:37:35Z</time>
      </trkpt>
      <trkpt lat="43.9779" lon="5.07238">
        <ele>123.666748</ele>
        <time>2015-11-11T07:37:43Z</time>
      </trkpt>
      <trkpt lat="43.97789" lon="5.07249">
        <ele>125.1087646</ele>
        <time>2015-11-11T07:37:47Z</time>
      </trkpt>
      <trkpt lat="43.97803" lon="5.07281">
        <ele>125.1087646</ele>
        <time>2015-11-11T07:37:59Z</time>
      </trkpt>
      <trkpt lat="43.97803" lon="5.07315">
        <ele>125.5893555</ele>
        <time>2015-11-11T07:38:08Z</time>
      </trkpt>
      <trkpt lat="43.97795" lon="5.07364">
        <ele>125.1087646</ele>
        <time>2015-11-11T07:38:20Z</time>
      </trkpt>
      <trkpt lat="43.97799" lon="5.0738">
        <ele>126.0699463</ele>
        <time>2015-11-11T07:38:24Z</time>
      </trkpt>
      <trkpt lat="43.97807" lon="5.07434">
        <ele>127.9925537</ele>
        <time>2015-11-11T07:38:37Z</time>
      </trkpt>
      <trkpt lat="43.97815" lon="5.07457">
        <ele>129.4346924</ele>
        <time>2015-11-11T07:38:45Z</time>
      </trkpt>
      <trkpt lat="43.97834" lon="5.07491">
        <ele>130.3959961</ele>
        <time>2015-11-11T07:38:57Z</time>
      </trkpt>
      <trkpt lat="43.97849" lon="5.07484">
        <ele>131.3572998</ele>
        <time>2015-11-11T07:39:03Z</time>
      </trkpt>
      <trkpt lat="43.97852" lon="5.07471">
        <ele>132.3186035</ele>
        <time>2015-11-11T07:39:07Z</time>
      </trkpt>
      <trkpt lat="43.97852" lon="5.07464">
        <ele>131.8378906</ele>
        <time>2015-11-11T07:39:09Z</time>
      </trkpt>
      <trkpt lat="43.97869" lon="5.07442">
        <ele>134.2412109</ele>
        <time>2015-11-11T07:39:20Z</time>
      </trkpt>
      <trkpt lat="43.97888" lon="5.07411">
        <ele>137.605835</ele>
        <time>2015-11-11T07:39:32Z</time>
      </trkpt>
      <trkpt lat="43.97922" lon="5.07382">
        <ele>139.5284424</ele>
        <time>2015-11-11T07:39:45Z</time>
      </trkpt>
      <trkpt lat="43.97937" lon="5.07364">
        <ele>140.4898682</ele>
        <time>2015-11-11T07:39:52Z</time>
      </trkpt>
      <trkpt lat="43.97945" lon="5.07358">
        <ele>140.4898682</ele>
        <time>2015-11-11T07:39:55Z</time>
      </trkpt>
      <trkpt lat="43.97959" lon="5.07327">
        <ele>141.9317627</ele>
        <time>2015-11-11T07:40:05Z</time>
      </trkpt>
      <trkpt lat="43.97966" lon="5.07318">
        <ele>142.4124756</ele>
        <time>2015-11-11T07:40:08Z</time>
      </trkpt>
      <trkpt lat="43.98005" lon="5.07302">
        <ele>143.3736572</ele>
        <time>2015-11-11T07:40:20Z</time>
      </trkpt>
      <trkpt lat="43.98036" lon="5.0729">
        <ele>144.3352051</ele>
        <time>2015-11-11T07:40:31Z</time>
      </trkpt>
      <trkpt lat="43.98076" lon="5.0731">
        <ele>142.4124756</ele>
        <time>2015-11-11T07:40:45Z</time>
      </trkpt>
      <trkpt lat="43.98089" lon="5.07315">
        <ele>143.8543701</ele>
        <time>2015-11-11T07:40:49Z</time>
      </trkpt>
      <trkpt lat="43.98109" lon="5.07353">
        <ele>146.7384033</ele>
        <time>2015-11-11T07:41:01Z</time>
      </trkpt>
      <trkpt lat="43.98103" lon="5.07393">
        <ele>150.1030273</ele>
        <time>2015-11-11T07:41:12Z</time>
      </trkpt>
      <trkpt lat="43.98092" lon="5.07453">
        <ele>147.2189941</ele>
        <time>2015-11-11T07:41:27Z</time>
      </trkpt>
      <trkpt lat="43.98079" lon="5.07488">
        <ele>145.2963867</ele>
        <time>2015-11-11T07:41:39Z</time>
      </trkpt>
      <trkpt lat="43.98052" lon="5.07524">
        <ele>145.7770996</ele>
        <time>2015-11-11T07:41:50Z</time>
      </trkpt>
      <trkpt lat="43.98042" lon="5.07533">
        <ele>143.8543701</ele>
        <time>2015-11-11T07:41:53Z</time>
      </trkpt>
      <trkpt lat="43.9802" lon="5.0756">
        <ele>144.3352051</ele>
        <time>2015-11-11T07:41:59Z</time>
      </trkpt>
      <trkpt lat="43.98002" lon="5.07579">
        <ele>143.8543701</ele>
        <time>2015-11-11T07:42:03Z</time>
      </trkpt>
      <trkpt lat="43.97988" lon="5.076">
        <ele>142.8930664</ele>
        <time>2015-11-11T07:42:07Z</time>
      </trkpt>
      <trkpt lat="43.97976" lon="5.0762">
        <ele>142.8930664</ele>
        <time>2015-11-11T07:42:11Z</time>
      </trkpt>
      <trkpt lat="43.97962" lon="5.0764">
        <ele>140.970459</ele>
        <time>2015-11-11T07:42:15Z</time>
      </trkpt>
      <trkpt lat="43.97904" lon="5.07705">
        <ele>141.4510498</ele>
        <time>2015-11-11T07:42:30Z</time>
      </trkpt>
      <trkpt lat="43.97889" lon="5.07725">
        <ele>142.4124756</ele>
        <time>2015-11-11T07:42:34Z</time>
      </trkpt>
      <trkpt lat="43.97842" lon="5.07759">
        <ele>142.4124756</ele>
        <time>2015-11-11T07:42:45Z</time>
      </trkpt>
      <trkpt lat="43.97826" lon="5.0779">
        <ele>145.2963867</ele>
        <time>2015-11-11T07:42:54Z</time>
      </trkpt>
      <trkpt lat="43.97825" lon="5.07794">
        <ele>144.3352051</ele>
        <time>2015-11-11T07:42:55Z</time>
      </trkpt>
      <trkpt lat="43.97834" lon="5.07806">
        <ele>145.2963867</ele>
        <time>2015-11-11T07:42:59Z</time>
      </trkpt>
      <trkpt lat="43.97882" lon="5.07818">
        <ele>145.2963867</ele>
        <time>2015-11-11T07:43:15Z</time>
      </trkpt>
      <trkpt lat="43.97923" lon="5.07825">
        <ele>147.2189941</ele>
        <time>2015-11-11T07:43:29Z</time>
      </trkpt>
      <trkpt lat="43.97949" lon="5.07828">
        <ele>149.6223145</ele>
        <time>2015-11-11T07:43:38Z</time>
      </trkpt>
      <trkpt lat="43.97957" lon="5.07834">
        <ele>150.1030273</ele>
        <time>2015-11-11T07:43:43Z</time>
      </trkpt>
      <trkpt lat="43.97967" lon="5.07859">
        <ele>151.064209</ele>
        <time>2015-11-11T07:43:53Z</time>
      </trkpt>
      <trkpt lat="43.97976" lon="5.07889">
        <ele>152.5063477</ele>
        <time>2015-11-11T07:44:03Z</time>
      </trkpt>
      <trkpt lat="43.97978" lon="5.07896">
        <ele>154.4289551</ele>
        <time>2015-11-11T07:44:13Z</time>
      </trkpt>
      <trkpt lat="43.9798" lon="5.07902">
        <ele>153.9483643</ele>
        <time>2015-11-11T07:52:54Z</time>
      </trkpt>
      <trkpt lat="43.97984" lon="5.0791">
        <ele>155.8709717</ele>
        <time>2015-11-11T07:53:28Z</time>
      </trkpt>
      <trkpt lat="43.97989" lon="5.07919">
        <ele>156.3515625</ele>
        <time>2015-11-11T07:53:37Z</time>
      </trkpt>
      <trkpt lat="43.97994" lon="5.07929">
        <ele>156.3515625</ele>
        <time>2015-11-11T07:53:53Z</time>
      </trkpt>
      <trkpt lat="43.98009" lon="5.0796">
        <ele>156.8321533</ele>
        <time>2015-11-11T07:54:03Z</time>
      </trkpt>
      <trkpt lat="43.98038" lon="5.07999">
        <ele>156.8321533</ele>
        <time>2015-11-11T07:54:18Z</time>
      </trkpt>
      <trkpt lat="43.98066" lon="5.08045">
        <ele>158.7547607</ele>
        <time>2015-11-11T07:54:35Z</time>
      </trkpt>
      <trkpt lat="43.98084" lon="5.08103">
        <ele>165.9647217</ele>
        <time>2015-11-11T07:54:52Z</time>
      </trkpt>
      <trkpt lat="43.98108" lon="5.08152">
        <ele>165.4841309</ele>
        <time>2015-11-11T07:55:06Z</time>
      </trkpt>
      <trkpt lat="43.98136" lon="5.08212">
        <ele>168.368042</ele>
        <time>2015-11-11T07:55:21Z</time>
      </trkpt>
      <trkpt lat="43.98147" lon="5.08251">
        <ele>167.8873291</ele>
        <time>2015-11-11T07:55:28Z</time>
      </trkpt>
      <trkpt lat="43.98178" lon="5.0832">
        <ele>165.4841309</ele>
        <time>2015-11-11T07:55:42Z</time>
      </trkpt>
      <trkpt lat="43.98187" lon="5.08347">
        <ele>166.4453125</ele>
        <time>2015-11-11T07:55:49Z</time>
      </trkpt>
      <trkpt lat="43.98208" lon="5.08369">
        <ele>165.9647217</ele>
        <time>2015-11-11T07:55:58Z</time>
      </trkpt>
      <trkpt lat="43.98221" lon="5.08383">
        <ele>165.9647217</ele>
        <time>2015-11-11T07:56:02Z</time>
      </trkpt>
      <trkpt lat="43.98235" lon="5.08385">
        <ele>166.4453125</ele>
        <time>2015-11-11T07:56:06Z</time>
      </trkpt>
      <trkpt lat="43.98247" lon="5.08381">
        <ele>165.4841309</ele>
        <time>2015-11-11T07:56:13Z</time>
      </trkpt>
      <trkpt lat="43.98281" lon="5.08358">
        <ele>166.4453125</ele>
        <time>2015-11-11T07:56:22Z</time>
      </trkpt>
      <trkpt lat="43.98299" lon="5.08348">
        <ele>166.9260254</ele>
        <time>2015-11-11T07:56:26Z</time>
      </trkpt>
      <trkpt lat="43.98316" lon="5.08335">
        <ele>167.8873291</ele>
        <time>2015-11-11T07:56:30Z</time>
      </trkpt>
      <trkpt lat="43.98335" lon="5.08277">
        <ele>171.2520752</ele>
        <time>2015-11-11T07:56:39Z</time>
      </trkpt>
      <trkpt lat="43.98343" lon="5.08255">
        <ele>172.6939697</ele>
        <time>2015-11-11T07:56:43Z</time>
      </trkpt>
      <trkpt lat="43.98355" lon="5.08228">
        <ele>175.09729</ele>
        <time>2015-11-11T07:56:49Z</time>
      </trkpt>
      <trkpt lat="43.98376" lon="5.08209">
        <ele>180.3845215</ele>
        <time>2015-11-11T07:56:57Z</time>
      </trkpt>
      <trkpt lat="43.98384" lon="5.08188">
        <ele>182.3071289</ele>
        <time>2015-11-11T07:57:01Z</time>
      </trkpt>
      <trkpt lat="43.984" lon="5.08144">
        <ele>187.5943604</ele>
        <time>2015-11-11T07:57:09Z</time>
      </trkpt>
      <trkpt lat="43.98403" lon="5.08134">
        <ele>188.0750732</ele>
        <time>2015-11-11T07:57:10Z</time>
      </trkpt>
      <trkpt lat="43.98417" lon="5.08097">
        <ele>193.3623047</ele>
        <time>2015-11-11T07:57:18Z</time>
      </trkpt>
      <trkpt lat="43.98432" lon="5.08061">
        <ele>194.3237305</ele>
        <time>2015-11-11T07:57:26Z</time>
      </trkpt>
      <trkpt lat="43.98448" lon="5.08005">
        <ele>192.8817139</ele>
        <time>2015-11-11T07:57:36Z</time>
      </trkpt>
      <trkpt lat="43.9844" lon="5.07978">
        <ele>192.8817139</ele>
        <time>2015-11-11T07:57:42Z</time>
      </trkpt>
      <trkpt lat="43.98439" lon="5.07973">
        <ele>191.9202881</ele>
        <time>2015-11-11T07:57:43Z</time>
      </trkpt>
      <trkpt lat="43.98442" lon="5.07951">
        <ele>188.0750732</ele>
        <time>2015-11-11T07:57:48Z</time>
      </trkpt>
      <trkpt lat="43.98444" lon="5.07943">
        <ele>188.0750732</ele>
        <time>2015-11-11T07:57:50Z</time>
      </trkpt>
      <trkpt lat="43.98441" lon="5.07897">
        <ele>186.6331787</ele>
        <time>2015-11-11T07:57:58Z</time>
      </trkpt>
      <trkpt lat="43.98441" lon="5.07891">
        <ele>186.1524658</ele>
        <time>2015-11-11T07:57:59Z</time>
      </trkpt>
      <trkpt lat="43.98447" lon="5.07833">
        <ele>178.4619141</ele>
        <time>2015-11-11T07:58:07Z</time>
      </trkpt>
      <trkpt lat="43.98452" lon="5.07817">
        <ele>178.4619141</ele>
        <time>2015-11-11T07:58:10Z</time>
      </trkpt>
      <trkpt lat="43.98464" lon="5.07781">
        <ele>175.5778809</ele>
        <time>2015-11-11T07:58:18Z</time>
      </trkpt>
      <trkpt lat="43.9847" lon="5.07752">
        <ele>170.7713623</ele>
        <time>2015-11-11T07:58:24Z</time>
      </trkpt>
      <trkpt lat="43.98476" lon="5.07739">
        <ele>164.5227051</ele>
        <time>2015-11-11T07:58:27Z</time>
      </trkpt>
      <trkpt lat="43.98478" lon="5.0773">
        <ele>163.0808105</ele>
        <time>2015-11-11T07:58:30Z</time>
      </trkpt>
      <trkpt lat="43.9847" lon="5.07703">
        <ele>162.1195068</ele>
        <time>2015-11-11T07:58:36Z</time>
      </trkpt>
      <trkpt lat="43.98467" lon="5.07686">
        <ele>157.3128662</ele>
        <time>2015-11-11T07:58:41Z</time>
      </trkpt>
      <trkpt lat="43.98482" lon="5.07669">
        <ele>150.1030273</ele>
        <time>2015-11-11T07:58:51Z</time>
      </trkpt>
      <trkpt lat="43.98504" lon="5.07639">
        <ele>149.6223145</ele>
        <time>2015-11-11T07:59:01Z</time>
      </trkpt>
      <trkpt lat="43.98506" lon="5.07637">
        <ele>149.1416016</ele>
        <time>2015-11-11T07:59:03Z</time>
      </trkpt>
      <trkpt lat="43.9851" lon="5.07643">
        <ele>148.6610107</ele>
        <time>2015-11-11T07:59:07Z</time>
      </trkpt>
      <trkpt lat="43.98519" lon="5.0768">
        <ele>145.7770996</ele>
        <time>2015-11-11T07:59:20Z</time>
      </trkpt>
      <trkpt lat="43.9853" lon="5.07722">
        <ele>140.0091553</ele>
        <time>2015-11-11T07:59:33Z</time>
      </trkpt>
      <trkpt lat="43.98534" lon="5.07752">
        <ele>141.4510498</ele>
        <time>2015-11-11T07:59:42Z</time>
      </trkpt>
      <trkpt lat="43.98518" lon="5.07777">
        <ele>139.0478516</ele>
        <time>2015-11-11T07:59:52Z</time>
      </trkpt>
      <trkpt lat="43.985" lon="5.07806">
        <ele>135.2025146</ele>
        <time>2015-11-11T08:00:03Z</time>
      </trkpt>
      <trkpt lat="43.98483" lon="5.07841">
        <ele>134.7219238</ele>
        <time>2015-11-11T08:00:15Z</time>
      </trkpt>
      <trkpt lat="43.98478" lon="5.07881">
        <ele>136.1639404</ele>
        <time>2015-11-11T08:00:27Z</time>
      </trkpt>
      <trkpt lat="43.98487" lon="5.07929">
        <ele>141.9317627</ele>
        <time>2015-11-11T08:00:41Z</time>
      </trkpt>
      <trkpt lat="43.98487" lon="5.0795">
        <ele>144.8157959</ele>
        <time>2015-11-11T08:00:48Z</time>
      </trkpt>
      <trkpt lat="43.98496" lon="5.07978">
        <ele>149.6223145</ele>
        <time>2015-11-11T08:00:58Z</time>
      </trkpt>
      <trkpt lat="43.985" lon="5.07984">
        <ele>149.6223145</ele>
        <time>2015-11-11T08:01:01Z</time>
      </trkpt>
      <trkpt lat="43.98494" lon="5.08003">
        <ele>150.5836182</ele>
        <time>2015-11-11T08:01:09Z</time>
      </trkpt>
      <trkpt lat="43.98487" lon="5.0804">
        <ele>155.3902588</ele>
        <time>2015-11-11T08:01:22Z</time>
      </trkpt>
      <trkpt lat="43.9848" lon="5.08078">
        <ele>156.8321533</ele>
        <time>2015-11-11T08:01:33Z</time>
      </trkpt>
      <trkpt lat="43.98474" lon="5.08113">
        <ele>157.7935791</ele>
        <time>2015-11-11T08:01:42Z</time>
      </trkpt>
      <trkpt lat="43.98457" lon="5.08146">
        <ele>159.2354736</ele>
        <time>2015-11-11T08:01:51Z</time>
      </trkpt>
      <trkpt lat="43.98454" lon="5.08153">
        <ele>159.7161865</ele>
        <time>2015-11-11T08:01:54Z</time>
      </trkpt>
      <trkpt lat="43.98468" lon="5.08177">
        <ele>160.1968994</ele>
        <time>2015-11-11T08:02:05Z</time>
      </trkpt>
      <trkpt lat="43.98491" lon="5.08213">
        <ele>160.1968994</ele>
        <time>2015-11-11T08:02:18Z</time>
      </trkpt>
      <trkpt lat="43.98506" lon="5.08235">
        <ele>159.7161865</ele>
        <time>2015-11-11T08:02:27Z</time>
      </trkpt>
      <trkpt lat="43.98509" lon="5.08259">
        <ele>160.6774902</ele>
        <time>2015-11-11T08:02:35Z</time>
      </trkpt>
      <trkpt lat="43.98503" lon="5.08267">
        <ele>161.1582031</ele>
        <time>2015-11-11T08:02:39Z</time>
      </trkpt>
      <trkpt lat="43.98501" lon="5.08271">
        <ele>161.638916</ele>
        <time>2015-11-11T08:02:41Z</time>
      </trkpt>
      <trkpt lat="43.98494" lon="5.08286">
        <ele>161.638916</ele>
        <time>2015-11-11T08:02:46Z</time>
      </trkpt>
      <trkpt lat="43.98488" lon="5.08293">
        <ele>162.1195068</ele>
        <time>2015-11-11T08:02:50Z</time>
      </trkpt>
      <trkpt lat="43.98466" lon="5.08323">
        <ele>164.0421143</ele>
        <time>2015-11-11T08:03:03Z</time>
      </trkpt>
      <trkpt lat="43.98466" lon="5.08334">
        <ele>166.4453125</ele>
        <time>2015-11-11T08:03:07Z</time>
      </trkpt>
      <trkpt lat="43.98471" lon="5.08356">
        <ele>165.4841309</ele>
        <time>2015-11-11T08:03:15Z</time>
      </trkpt>
      <trkpt lat="43.9847" lon="5.08362">
        <ele>166.4453125</ele>
        <time>2015-11-11T08:03:18Z</time>
      </trkpt>
      <trkpt lat="43.98466" lon="5.08369">
        <ele>169.8100586</ele>
        <time>2015-11-11T08:03:27Z</time>
      </trkpt>
      <trkpt lat="43.98466" lon="5.0837">
        <ele>170.7713623</ele>
        <time>2015-11-11T08:03:31Z</time>
      </trkpt>
      <trkpt lat="43.98481" lon="5.08394">
        <ele>171.732666</ele>
        <time>2015-11-11T08:03:42Z</time>
      </trkpt>
      <trkpt lat="43.98485" lon="5.08413">
        <ele>170.7713623</ele>
        <time>2015-11-11T08:03:48Z</time>
      </trkpt>
      <trkpt lat="43.98482" lon="5.08421">
        <ele>170.7713623</ele>
        <time>2015-11-11T08:03:52Z</time>
      </trkpt>
      <trkpt lat="43.98479" lon="5.08437">
        <ele>170.7713623</ele>
        <time>2015-11-11T08:04:00Z</time>
      </trkpt>
      <trkpt lat="43.98481" lon="5.0846">
        <ele>171.2520752</ele>
        <time>2015-11-11T08:04:07Z</time>
      </trkpt>
      <trkpt lat="43.98483" lon="5.08468">
        <ele>171.2520752</ele>
        <time>2015-11-11T08:04:10Z</time>
      </trkpt>
      <trkpt lat="43.98484" lon="5.08481">
        <ele>172.6939697</ele>
        <time>2015-11-11T08:04:15Z</time>
      </trkpt>
      <trkpt lat="43.98483" lon="5.08486">
        <ele>172.6939697</ele>
        <time>2015-11-11T08:04:18Z</time>
      </trkpt>
      <trkpt lat="43.98477" lon="5.08491">
        <ele>173.6552734</ele>
        <time>2015-11-11T08:04:24Z</time>
      </trkpt>
      <trkpt lat="43.98472" lon="5.08492">
        <ele>174.6165771</ele>
        <time>2015-11-11T08:04:27Z</time>
      </trkpt>
      <trkpt lat="43.98467" lon="5.08498">
        <ele>174.6165771</ele>
        <time>2015-11-11T08:04:30Z</time>
      </trkpt>
      <trkpt lat="43.98459" lon="5.08513">
        <ele>174.1358643</ele>
        <time>2015-11-11T08:04:35Z</time>
      </trkpt>
      <trkpt lat="43.98449" lon="5.08525">
        <ele>175.09729</ele>
        <time>2015-11-11T08:04:40Z</time>
      </trkpt>
      <trkpt lat="43.98437" lon="5.08529">
        <ele>175.09729</ele>
        <time>2015-11-11T08:04:44Z</time>
      </trkpt>
      <trkpt lat="43.98422" lon="5.08541">
        <ele>175.5778809</ele>
        <time>2015-11-11T08:04:51Z</time>
      </trkpt>
      <trkpt lat="43.98413" lon="5.08542">
        <ele>174.6165771</ele>
        <time>2015-11-11T08:04:55Z</time>
      </trkpt>
      <trkpt lat="43.98407" lon="5.08551">
        <ele>174.6165771</ele>
        <time>2015-11-11T08:05:03Z</time>
      </trkpt>
      <trkpt lat="43.98393" lon="5.08559">
        <ele>173.1746826</ele>
        <time>2015-11-11T08:05:09Z</time>
      </trkpt>
      <trkpt lat="43.98383" lon="5.08573">
        <ele>170.7713623</ele>
        <time>2015-11-11T08:05:14Z</time>
      </trkpt>
      <trkpt lat="43.98374" lon="5.08592">
        <ele>171.732666</ele>
        <time>2015-11-11T08:05:25Z</time>
      </trkpt>
      <trkpt lat="43.98374" lon="5.08593">
        <ele>172.2132568</ele>
        <time>2015-11-11T08:09:17Z</time>
      </trkpt>
      <trkpt lat="43.98359" lon="5.08626">
        <ele>173.1746826</ele>
        <time>2015-11-11T08:09:27Z</time>
      </trkpt>
      <trkpt lat="43.9834" lon="5.08655">
        <ele>177.0200195</ele>
        <time>2015-11-11T08:09:38Z</time>
      </trkpt>
      <trkpt lat="43.98334" lon="5.08678">
        <ele>176.0585938</ele>
        <time>2015-11-11T08:09:47Z</time>
      </trkpt>
      <trkpt lat="43.98332" lon="5.08705">
        <ele>177.5006104</ele>
        <time>2015-11-11T08:09:59Z</time>
      </trkpt>
      <trkpt lat="43.98332" lon="5.08706">
        <ele>177.5006104</ele>
        <time>2015-11-11T08:10:00Z</time>
      </trkpt>
      <trkpt lat="43.98333" lon="5.08717">
        <ele>180.8652344</ele>
        <time>2015-11-11T08:10:12Z</time>
      </trkpt>
      <trkpt lat="43.98332" lon="5.08731">
        <ele>181.3458252</ele>
        <time>2015-11-11T08:10:22Z</time>
      </trkpt>
      <trkpt lat="43.98328" lon="5.0874">
        <ele>182.7878418</ele>
        <time>2015-11-11T08:10:31Z</time>
      </trkpt>
      <trkpt lat="43.98317" lon="5.08753">
        <ele>182.7878418</ele>
        <time>2015-11-11T08:10:42Z</time>
      </trkpt>
      <trkpt lat="43.98304" lon="5.0877">
        <ele>184.2298584</ele>
        <time>2015-11-11T08:10:51Z</time>
      </trkpt>
      <trkpt lat="43.98291" lon="5.08793">
        <ele>187.1137695</ele>
        <time>2015-11-11T08:11:01Z</time>
      </trkpt>
      <trkpt lat="43.98261" lon="5.08809">
        <ele>188.5557861</ele>
        <time>2015-11-11T08:11:15Z</time>
      </trkpt>
      <trkpt lat="43.98236" lon="5.08838">
        <ele>190.9589844</ele>
        <time>2015-11-11T08:11:29Z</time>
      </trkpt>
      <trkpt lat="43.98229" lon="5.08851">
        <ele>189.036377</ele>
        <time>2015-11-11T08:11:35Z</time>
      </trkpt>
      <trkpt lat="43.98232" lon="5.08865">
        <ele>189.5169678</ele>
        <time>2015-11-11T08:11:40Z</time>
      </trkpt>
      <trkpt lat="43.98229" lon="5.08869">
        <ele>189.036377</ele>
        <time>2015-11-11T08:11:44Z</time>
      </trkpt>
      <trkpt lat="43.98225" lon="5.08877">
        <ele>189.036377</ele>
        <time>2015-11-11T08:11:48Z</time>
      </trkpt>
      <trkpt lat="43.98213" lon="5.08889">
        <ele>188.0750732</ele>
        <time>2015-11-11T08:11:55Z</time>
      </trkpt>
      <trkpt lat="43.98194" lon="5.08897">
        <ele>187.1137695</ele>
        <time>2015-11-11T08:12:06Z</time>
      </trkpt>
      <trkpt lat="43.98189" lon="5.08897">
        <ele>188.0750732</ele>
        <time>2015-11-11T08:12:17Z</time>
      </trkpt>
      <trkpt lat="43.98186" lon="5.08899">
        <ele>189.036377</ele>
        <time>2015-11-11T08:12:28Z</time>
      </trkpt>
      <trkpt lat="43.98183" lon="5.089">
        <ele>190.4783936</ele>
        <time>2015-11-11T08:14:53Z</time>
      </trkpt>
      <trkpt lat="43.98164" lon="5.08913">
        <ele>196.2463379</ele>
        <time>2015-11-11T08:15:05Z</time>
      </trkpt>
      <trkpt lat="43.9816" lon="5.08916">
        <ele>196.7269287</ele>
        <time>2015-11-11T08:15:07Z</time>
      </trkpt>
      <trkpt lat="43.98143" lon="5.08948">
        <ele>201.5335693</ele>
        <time>2015-11-11T08:15:20Z</time>
      </trkpt>
      <trkpt lat="43.98137" lon="5.08955">
        <ele>202.9754639</ele>
        <time>2015-11-11T08:15:23Z</time>
      </trkpt>
      <trkpt lat="43.98131" lon="5.08982">
        <ele>206.8206787</ele>
        <time>2015-11-11T08:15:32Z</time>
      </trkpt>
      <trkpt lat="43.9812" lon="5.09005">
        <ele>208.2628174</ele>
        <time>2015-11-11T08:15:42Z</time>
      </trkpt>
      <trkpt lat="43.98118" lon="5.09007">
        <ele>208.2628174</ele>
        <time>2015-11-11T08:15:43Z</time>
      </trkpt>
      <trkpt lat="43.98106" lon="5.09028">
        <ele>211.6274414</ele>
        <time>2015-11-11T08:15:52Z</time>
      </trkpt>
      <trkpt lat="43.98104" lon="5.09019">
        <ele>211.6274414</ele>
        <time>2015-11-11T08:15:58Z</time>
      </trkpt>
      <trkpt lat="43.98113" lon="5.0898">
        <ele>211.6274414</ele>
        <time>2015-11-11T08:16:09Z</time>
      </trkpt>
      <trkpt lat="43.98121" lon="5.08952">
        <ele>211.1467285</ele>
        <time>2015-11-11T08:16:16Z</time>
      </trkpt>
      <trkpt lat="43.98125" lon="5.0894">
        <ele>211.6274414</ele>
        <time>2015-11-11T08:16:18Z</time>
      </trkpt>
      <trkpt lat="43.98132" lon="5.08912">
        <ele>212.1080322</ele>
        <time>2015-11-11T08:16:22Z</time>
      </trkpt>
      <trkpt lat="43.98142" lon="5.08879">
        <ele>210.6660156</ele>
        <time>2015-11-11T08:16:26Z</time>
      </trkpt>
      <trkpt lat="43.98146" lon="5.08834">
        <ele>206.3400879</ele>
        <time>2015-11-11T08:16:33Z</time>
      </trkpt>
      <trkpt lat="43.98145" lon="5.08832">
        <ele>205.8594971</ele>
        <time>2015-11-11T08:16:34Z</time>
      </trkpt>
      <trkpt lat="43.98138" lon="5.08821">
        <ele>206.3400879</ele>
        <time>2015-11-11T08:16:38Z</time>
      </trkpt>
      <trkpt lat="43.98117" lon="5.08814">
        <ele>208.2628174</ele>
        <time>2015-11-11T08:16:46Z</time>
      </trkpt>
      <trkpt lat="43.98088" lon="5.0879">
        <ele>209.704834</ele>
        <time>2015-11-11T08:16:59Z</time>
      </trkpt>
      <trkpt lat="43.98062" lon="5.08769">
        <ele>210.1854248</ele>
        <time>2015-11-11T08:17:11Z</time>
      </trkpt>
      <trkpt lat="43.98036" lon="5.0876">
        <ele>212.588623</ele>
        <time>2015-11-11T08:17:24Z</time>
      </trkpt>
      <trkpt lat="43.98011" lon="5.08772">
        <ele>214.5112305</ele>
        <time>2015-11-11T08:17:37Z</time>
      </trkpt>
      <trkpt lat="43.97988" lon="5.08776">
        <ele>213.5500488</ele>
        <time>2015-11-11T08:17:47Z</time>
      </trkpt>
      <trkpt lat="43.97984" lon="5.08776">
        <ele>213.5500488</ele>
        <time>2015-11-11T08:17:48Z</time>
      </trkpt>
      <trkpt lat="43.97971" lon="5.08789">
        <ele>212.588623</ele>
        <time>2015-11-11T08:17:54Z</time>
      </trkpt>
      <trkpt lat="43.9795" lon="5.08799">
        <ele>213.0693359</ele>
        <time>2015-11-11T08:18:01Z</time>
      </trkpt>
      <trkpt lat="43.97937" lon="5.08792">
        <ele>212.1080322</ele>
        <time>2015-11-11T08:18:08Z</time>
      </trkpt>
      <trkpt lat="43.97937" lon="5.08787">
        <ele>211.6274414</ele>
        <time>2015-11-11T08:18:09Z</time>
      </trkpt>
      <trkpt lat="43.97936" lon="5.08774">
        <ele>211.1467285</ele>
        <time>2015-11-11T08:18:12Z</time>
      </trkpt>
      <trkpt lat="43.97933" lon="5.0877">
        <ele>211.1467285</ele>
        <time>2015-11-11T08:18:14Z</time>
      </trkpt>
      <trkpt lat="43.97919" lon="5.08758">
        <ele>212.1080322</ele>
        <time>2015-11-11T08:18:20Z</time>
      </trkpt>
      <trkpt lat="43.97906" lon="5.08742">
        <ele>207.7821045</ele>
        <time>2015-11-11T08:18:26Z</time>
      </trkpt>
      <trkpt lat="43.97897" lon="5.08741">
        <ele>208.7434082</ele>
        <time>2015-11-11T08:18:30Z</time>
      </trkpt>
      <trkpt lat="43.97876" lon="5.08729">
        <ele>208.7434082</ele>
        <time>2015-11-11T08:18:40Z</time>
      </trkpt>
      <trkpt lat="43.97869" lon="5.08719">
        <ele>208.2628174</ele>
        <time>2015-11-11T08:18:44Z</time>
      </trkpt>
      <trkpt lat="43.97855" lon="5.08714">
        <ele>210.1854248</ele>
        <time>2015-11-11T08:18:49Z</time>
      </trkpt>
      <trkpt lat="43.9785" lon="5.0872">
        <ele>212.588623</ele>
        <time>2015-11-11T08:18:55Z</time>
      </trkpt>
      <trkpt lat="43.97846" lon="5.08734">
        <ele>213.5500488</ele>
        <time>2015-11-11T08:19:03Z</time>
      </trkpt>
      <trkpt lat="43.97832" lon="5.0875">
        <ele>216.9146729</ele>
        <time>2015-11-11T08:19:13Z</time>
      </trkpt>
      <trkpt lat="43.97808" lon="5.08744">
        <ele>217.3953857</ele>
        <time>2015-11-11T08:19:22Z</time>
      </trkpt>
      <trkpt lat="43.97761" lon="5.08734">
        <ele>220.2791748</ele>
        <time>2015-11-11T08:19:38Z</time>
      </trkpt>
      <trkpt lat="43.97753" lon="5.08732">
        <ele>220.2791748</ele>
        <time>2015-11-11T08:19:40Z</time>
      </trkpt>
      <trkpt lat="43.97734" lon="5.08746">
        <ele>221.2406006</ele>
        <time>2015-11-11T08:19:46Z</time>
      </trkpt>
      <trkpt lat="43.97725" lon="5.08771">
        <ele>223.163208</ele>
        <time>2015-11-11T08:19:56Z</time>
      </trkpt>
      <trkpt lat="43.9771" lon="5.08796">
        <ele>227.0085449</ele>
        <time>2015-11-11T08:20:09Z</time>
      </trkpt>
      <trkpt lat="43.97696" lon="5.0882">
        <ele>228.4504395</ele>
        <time>2015-11-11T08:20:24Z</time>
      </trkpt>
      <trkpt lat="43.97693" lon="5.08823">
        <ele>229.4117432</ele>
        <time>2015-11-11T08:20:27Z</time>
      </trkpt>
      <trkpt lat="43.97691" lon="5.08823">
        <ele>228.9311523</ele>
        <time>2015-11-11T08:20:29Z</time>
      </trkpt>
      <trkpt lat="43.97676" lon="5.08851">
        <ele>234.2183838</ele>
        <time>2015-11-11T08:20:47Z</time>
      </trkpt>
      <trkpt lat="43.97669" lon="5.08865">
        <ele>233.2570801</ele>
        <time>2015-11-11T08:20:52Z</time>
      </trkpt>
      <trkpt lat="43.97669" lon="5.08897">
        <ele>232.7764893</ele>
        <time>2015-11-11T08:20:58Z</time>
      </trkpt>
      <trkpt lat="43.97676" lon="5.08919">
        <ele>233.7376709</ele>
        <time>2015-11-11T08:21:03Z</time>
      </trkpt>
      <trkpt lat="43.97662" lon="5.08944">
        <ele>235.1796875</ele>
        <time>2015-11-11T08:21:11Z</time>
      </trkpt>
      <trkpt lat="43.97656" lon="5.08945">
        <ele>234.6990967</ele>
        <time>2015-11-11T08:21:13Z</time>
      </trkpt>
      <trkpt lat="43.97631" lon="5.08955">
        <ele>236.1409912</ele>
        <time>2015-11-11T08:21:26Z</time>
      </trkpt>
      <trkpt lat="43.97622" lon="5.08978">
        <ele>239.9862061</ele>
        <time>2015-11-11T08:21:39Z</time>
      </trkpt>
      <trkpt lat="43.97622" lon="5.08981">
        <ele>239.5054932</ele>
        <time>2015-11-11T08:21:41Z</time>
      </trkpt>
      <trkpt lat="43.97616" lon="5.09006">
        <ele>241.4282227</ele>
        <time>2015-11-11T08:21:54Z</time>
      </trkpt>
      <trkpt lat="43.97613" lon="5.09023">
        <ele>240.9476318</ele>
        <time>2015-11-11T08:22:03Z</time>
      </trkpt>
      <trkpt lat="43.97605" lon="5.09045">
        <ele>243.3508301</ele>
        <time>2015-11-11T08:22:16Z</time>
      </trkpt>
      <trkpt lat="43.97601" lon="5.09075">
        <ele>247.1960449</ele>
        <time>2015-11-11T08:22:32Z</time>
      </trkpt>
      <trkpt lat="43.97594" lon="5.09101">
        <ele>252.9639893</ele>
        <time>2015-11-11T08:22:47Z</time>
      </trkpt>
      <trkpt lat="43.97585" lon="5.09127">
        <ele>254.4060059</ele>
        <time>2015-11-11T08:23:03Z</time>
      </trkpt>
      <trkpt lat="43.97583" lon="5.09128">
        <ele>251.5220947</ele>
        <time>2015-11-11T08:23:18Z</time>
      </trkpt>
      <trkpt lat="43.97583" lon="5.09128">
        <ele>251.5220947</ele>
        <time>2015-11-11T08:23:55Z</time>
      </trkpt>
      <trkpt lat="43.97565" lon="5.0912">
        <ele>251.5220947</ele>
        <time>2015-11-11T08:24:05Z</time>
      </trkpt>
      <trkpt lat="43.97547" lon="5.09097">
        <ele>250.0802002</ele>
        <time>2015-11-11T08:24:19Z</time>
      </trkpt>
      <trkpt lat="43.97532" lon="5.09081">
        <ele>250.560791</ele>
        <time>2015-11-11T08:24:30Z</time>
      </trkpt>
      <trkpt lat="43.97506" lon="5.09064">
        <ele>252.4833984</ele>
        <time>2015-11-11T08:24:45Z</time>
      </trkpt>
      <trkpt lat="43.9748" lon="5.09057">
        <ele>253.925415</ele>
        <time>2015-11-11T08:24:59Z</time>
      </trkpt>
      <trkpt lat="43.97454" lon="5.09046">
        <ele>256.8093262</ele>
        <time>2015-11-11T08:25:14Z</time>
      </trkpt>
      <trkpt lat="43.97431" lon="5.09044">
        <ele>258.2513428</ele>
        <time>2015-11-11T08:25:27Z</time>
      </trkpt>
      <trkpt lat="43.97423" lon="5.09049">
        <ele>259.6933594</ele>
        <time>2015-11-11T08:25:32Z</time>
      </trkpt>
      <trkpt lat="43.97397" lon="5.09065">
        <ele>264.9805908</ele>
        <time>2015-11-11T08:25:49Z</time>
      </trkpt>
      <trkpt lat="43.97373" lon="5.09064">
        <ele>268.3450928</ele>
        <time>2015-11-11T08:26:03Z</time>
      </trkpt>
      <trkpt lat="43.97362" lon="5.09069">
        <ele>268.8258057</ele>
        <time>2015-11-11T08:26:11Z</time>
      </trkpt>
      <trkpt lat="43.97361" lon="5.09081">
        <ele>269.7871094</ele>
        <time>2015-11-11T08:26:19Z</time>
      </trkpt>
      <trkpt lat="43.97389" lon="5.09103">
        <ele>269.7871094</ele>
        <time>2015-11-11T08:26:31Z</time>
      </trkpt>
      <trkpt lat="43.97421" lon="5.09123">
        <ele>270.7484131</ele>
        <time>2015-11-11T08:26:45Z</time>
      </trkpt>
      <trkpt lat="43.97438" lon="5.09119">
        <ele>273.6324463</ele>
        <time>2015-11-11T08:26:57Z</time>
      </trkpt>
      <trkpt lat="43.97448" lon="5.09108">
        <ele>276.0356445</ele>
        <time>2015-11-11T08:27:05Z</time>
      </trkpt>
      <trkpt lat="43.97461" lon="5.09115">
        <ele>275.0744629</ele>
        <time>2015-11-11T08:27:13Z</time>
      </trkpt>
      <trkpt lat="43.97481" lon="5.09139">
        <ele>277.958252</ele>
        <time>2015-11-11T08:27:25Z</time>
      </trkpt>
      <trkpt lat="43.97476" lon="5.09168">
        <ele>276.9970703</ele>
        <time>2015-11-11T08:27:36Z</time>
      </trkpt>
      <trkpt lat="43.97458" lon="5.09197">
        <ele>277.958252</ele>
        <time>2015-11-11T08:27:49Z</time>
      </trkpt>
      <trkpt lat="43.97442" lon="5.09236">
        <ele>278.4389648</ele>
        <time>2015-11-11T08:28:03Z</time>
      </trkpt>
      <trkpt lat="43.97417" lon="5.09274">
        <ele>280.3616943</ele>
        <time>2015-11-11T08:28:15Z</time>
      </trkpt>
      <trkpt lat="43.97387" lon="5.09312">
        <ele>282.2843018</ele>
        <time>2015-11-11T08:28:27Z</time>
      </trkpt>
      <trkpt lat="43.97378" lon="5.09322">
        <ele>283.2456055</ele>
        <time>2015-11-11T08:28:31Z</time>
      </trkpt>
      <trkpt lat="43.97365" lon="5.09322">
        <ele>283.7261963</ele>
        <time>2015-11-11T08:28:36Z</time>
      </trkpt>
      <trkpt lat="43.97355" lon="5.09326">
        <ele>284.2069092</ele>
        <time>2015-11-11T08:28:40Z</time>
      </trkpt>
      <trkpt lat="43.97352" lon="5.09329">
        <ele>284.2069092</ele>
        <time>2015-11-11T08:28:42Z</time>
      </trkpt>
      <trkpt lat="43.97348" lon="5.09329">
        <ele>284.2069092</ele>
        <time>2015-11-11T08:28:46Z</time>
      </trkpt>
      <trkpt lat="43.9733" lon="5.09315">
        <ele>286.1295166</ele>
        <time>2015-11-11T08:28:57Z</time>
      </trkpt>
      <trkpt lat="43.97323" lon="5.0931">
        <ele>287.0908203</ele>
        <time>2015-11-11T08:29:01Z</time>
      </trkpt>
      <trkpt lat="43.97316" lon="5.09314">
        <ele>287.0908203</ele>
        <time>2015-11-11T08:29:06Z</time>
      </trkpt>
      <trkpt lat="43.97297" lon="5.09334">
        <ele>289.4941406</ele>
        <time>2015-11-11T08:29:20Z</time>
      </trkpt>
      <trkpt lat="43.97295" lon="5.09339">
        <ele>289.4941406</ele>
        <time>2015-11-11T08:29:26Z</time>
      </trkpt>
      <trkpt lat="43.97294" lon="5.09351">
        <ele>289.4941406</ele>
        <time>2015-11-11T08:29:33Z</time>
      </trkpt>
      <trkpt lat="43.97292" lon="5.09354">
        <ele>290.4555664</ele>
        <time>2015-11-11T08:29:35Z</time>
      </trkpt>
      <trkpt lat="43.9729" lon="5.09357">
        <ele>290.9361572</ele>
        <time>2015-11-11T08:29:38Z</time>
      </trkpt>
      <trkpt lat="43.97288" lon="5.09364">
        <ele>291.8974609</ele>
        <time>2015-11-11T08:29:44Z</time>
      </trkpt>
      <trkpt lat="43.9729" lon="5.09381">
        <ele>292.3781738</ele>
        <time>2015-11-11T08:29:55Z</time>
      </trkpt>
      <trkpt lat="43.97314" lon="5.09406">
        <ele>292.8587646</ele>
        <time>2015-11-11T08:30:06Z</time>
      </trkpt>
      <trkpt lat="43.97341" lon="5.09434">
        <ele>293.3393555</ele>
        <time>2015-11-11T08:30:16Z</time>
      </trkpt>
      <trkpt lat="43.97365" lon="5.09456">
        <ele>296.2235107</ele>
        <time>2015-11-11T08:30:28Z</time>
      </trkpt>
      <trkpt lat="43.97391" lon="5.09472">
        <ele>296.2235107</ele>
        <time>2015-11-11T08:30:39Z</time>
      </trkpt>
      <trkpt lat="43.97402" lon="5.0948">
        <ele>296.2235107</ele>
        <time>2015-11-11T08:30:44Z</time>
      </trkpt>
      <trkpt lat="43.97424" lon="5.09465">
        <ele>296.7041016</ele>
        <time>2015-11-11T08:30:55Z</time>
      </trkpt>
      <trkpt lat="43.97428" lon="5.09463">
        <ele>297.6654053</ele>
        <time>2015-11-11T08:30:57Z</time>
      </trkpt>
      <trkpt lat="43.9745" lon="5.09476">
        <ele>298.626709</ele>
        <time>2015-11-11T08:31:08Z</time>
      </trkpt>
      <trkpt lat="43.97471" lon="5.09475">
        <ele>297.6654053</ele>
        <time>2015-11-11T08:31:17Z</time>
      </trkpt>
      <trkpt lat="43.97505" lon="5.09483">
        <ele>298.1461182</ele>
        <time>2015-11-11T08:31:31Z</time>
      </trkpt>
      <trkpt lat="43.97538" lon="5.09493">
        <ele>297.1846924</ele>
        <time>2015-11-11T08:31:43Z</time>
      </trkpt>
      <trkpt lat="43.97547" lon="5.09487">
        <ele>298.626709</ele>
        <time>2015-11-11T08:31:48Z</time>
      </trkpt>
      <trkpt lat="43.97558" lon="5.09483">
        <ele>301.5106201</ele>
        <time>2015-11-11T08:31:54Z</time>
      </trkpt>
      <trkpt lat="43.97596" lon="5.09493">
        <ele>303.9139404</ele>
        <time>2015-11-11T08:32:12Z</time>
      </trkpt>
      <trkpt lat="43.97618" lon="5.09503">
        <ele>304.8752441</ele>
        <time>2015-11-11T08:32:24Z</time>
      </trkpt>
      <trkpt lat="43.97648" lon="5.0951">
        <ele>301.991333</ele>
        <time>2015-11-11T08:32:33Z</time>
      </trkpt>
      <trkpt lat="43.97675" lon="5.09517">
        <ele>304.3946533</ele>
        <time>2015-11-11T08:32:42Z</time>
      </trkpt>
      <trkpt lat="43.97692" lon="5.09529">
        <ele>303.9139404</ele>
        <time>2015-11-11T08:32:52Z</time>
      </trkpt>
      <trkpt lat="43.97695" lon="5.09532">
        <ele>304.8752441</ele>
        <time>2015-11-11T08:33:04Z</time>
      </trkpt>
      <trkpt lat="43.97696" lon="5.09532">
        <ele>304.3946533</ele>
        <time>2015-11-11T08:37:28Z</time>
      </trkpt>
      <trkpt lat="43.97698" lon="5.09533">
        <ele>303.9139404</ele>
        <time>2015-11-11T08:40:31Z</time>
      </trkpt>
      <trkpt lat="43.97698" lon="5.09533">
        <ele>303.4332275</ele>
        <time>2015-11-11T08:41:16Z</time>
      </trkpt>
      <trkpt lat="43.97708" lon="5.09534">
        <ele>300.5493164</ele>
        <time>2015-11-11T08:41:22Z</time>
      </trkpt>
      <trkpt lat="43.97715" lon="5.09533">
        <ele>298.1461182</ele>
        <time>2015-11-11T08:41:26Z</time>
      </trkpt>
      <trkpt lat="43.97723" lon="5.09533">
        <ele>293.8200684</ele>
        <time>2015-11-11T08:41:31Z</time>
      </trkpt>
      <trkpt lat="43.97728" lon="5.09536">
        <ele>291.8974609</ele>
        <time>2015-11-11T08:41:34Z</time>
      </trkpt>
      <trkpt lat="43.97731" lon="5.09545">
        <ele>289.4941406</ele>
        <time>2015-11-11T08:41:43Z</time>
      </trkpt>
      <trkpt lat="43.97732" lon="5.09547">
        <ele>289.4941406</ele>
        <time>2015-11-11T08:41:47Z</time>
      </trkpt>
      <trkpt lat="43.97749" lon="5.09552">
        <ele>285.1682129</ele>
        <time>2015-11-11T08:41:55Z</time>
      </trkpt>
      <trkpt lat="43.97759" lon="5.09561">
        <ele>280.8424072</ele>
        <time>2015-11-11T08:42:03Z</time>
      </trkpt>
      <trkpt lat="43.9776" lon="5.09561">
        <ele>282.2843018</ele>
        <time>2015-11-11T08:42:29Z</time>
      </trkpt>
      <trkpt lat="43.97749" lon="5.09571">
        <ele>283.2456055</ele>
        <time>2015-11-11T08:42:36Z</time>
      </trkpt>
      <trkpt lat="43.97741" lon="5.09581">
        <ele>282.7650146</ele>
        <time>2015-11-11T08:42:39Z</time>
      </trkpt>
      <trkpt lat="43.97729" lon="5.09598">
        <ele>281.8035889</ele>
        <time>2015-11-11T08:42:43Z</time>
      </trkpt>
      <trkpt lat="43.97709" lon="5.09617">
        <ele>281.8035889</ele>
        <time>2015-11-11T08:42:50Z</time>
      </trkpt>
      <trkpt lat="43.97676" lon="5.09616">
        <ele>281.8035889</ele>
        <time>2015-11-11T08:43:00Z</time>
      </trkpt>
      <trkpt lat="43.97654" lon="5.09608">
        <ele>282.2843018</ele>
        <time>2015-11-11T08:43:09Z</time>
      </trkpt>
      <trkpt lat="43.97641" lon="5.09611">
        <ele>280.3616943</ele>
        <time>2015-11-11T08:43:12Z</time>
      </trkpt>
      <trkpt lat="43.97627" lon="5.09624">
        <ele>280.8424072</ele>
        <time>2015-11-11T08:43:17Z</time>
      </trkpt>
      <trkpt lat="43.9762" lon="5.09623">
        <ele>281.8035889</ele>
        <time>2015-11-11T08:43:19Z</time>
      </trkpt>
      <trkpt lat="43.97613" lon="5.09616">
        <ele>284.2069092</ele>
        <time>2015-11-11T08:43:22Z</time>
      </trkpt>
      <trkpt lat="43.97583" lon="5.09606">
        <ele>287.0908203</ele>
        <time>2015-11-11T08:43:34Z</time>
      </trkpt>
      <trkpt lat="43.9756" lon="5.09594">
        <ele>290.4555664</ele>
        <time>2015-11-11T08:43:45Z</time>
      </trkpt>
      <trkpt lat="43.97553" lon="5.09587">
        <ele>291.416748</ele>
        <time>2015-11-11T08:43:49Z</time>
      </trkpt>
      <trkpt lat="43.97522" lon="5.09583">
        <ele>291.8974609</ele>
        <time>2015-11-11T08:44:01Z</time>
      </trkpt>
      <trkpt lat="43.97514" lon="5.09576">
        <ele>292.8587646</ele>
        <time>2015-11-11T08:44:05Z</time>
      </trkpt>
      <trkpt lat="43.97486" lon="5.09565">
        <ele>293.8200684</ele>
        <time>2015-11-11T08:44:17Z</time>
      </trkpt>
      <trkpt lat="43.9748" lon="5.09563">
        <ele>293.3393555</ele>
        <time>2015-11-11T08:44:19Z</time>
      </trkpt>
      <trkpt lat="43.97471" lon="5.09553">
        <ele>293.3393555</ele>
        <time>2015-11-11T08:44:23Z</time>
      </trkpt>
      <trkpt lat="43.97467" lon="5.09544">
        <ele>295.7426758</ele>
        <time>2015-11-11T08:44:27Z</time>
      </trkpt>
      <trkpt lat="43.97457" lon="5.09535">
        <ele>296.7041016</ele>
        <time>2015-11-11T08:44:35Z</time>
      </trkpt>
      <trkpt lat="43.97453" lon="5.09532">
        <ele>297.1846924</ele>
        <time>2015-11-11T08:44:38Z</time>
      </trkpt>
      <trkpt lat="43.97451" lon="5.09527">
        <ele>298.626709</ele>
        <time>2015-11-11T08:44:41Z</time>
      </trkpt>
      <trkpt lat="43.97436" lon="5.09501">
        <ele>300.0687256</ele>
        <time>2015-11-11T08:44:56Z</time>
      </trkpt>
      <trkpt lat="43.97426" lon="5.09494">
        <ele>300.0687256</ele>
        <time>2015-11-11T08:45:02Z</time>
      </trkpt>
      <trkpt lat="43.97402" lon="5.09502">
        <ele>299.1072998</ele>
        <time>2015-11-11T08:45:10Z</time>
      </trkpt>
      <trkpt lat="43.97383" lon="5.09496">
        <ele>298.1461182</ele>
        <time>2015-11-11T08:45:17Z</time>
      </trkpt>
      <trkpt lat="43.97378" lon="5.09494">
        <ele>298.1461182</ele>
        <time>2015-11-11T08:45:19Z</time>
      </trkpt>
      <trkpt lat="43.97366" lon="5.09507">
        <ele>297.6654053</ele>
        <time>2015-11-11T08:45:27Z</time>
      </trkpt>
      <trkpt lat="43.97367" lon="5.0951">
        <ele>297.1846924</ele>
        <time>2015-11-11T08:45:28Z</time>
      </trkpt>
      <trkpt lat="43.97373" lon="5.09526">
        <ele>294.3007813</ele>
        <time>2015-11-11T08:45:34Z</time>
      </trkpt>
      <trkpt lat="43.97369" lon="5.0953">
        <ele>293.3393555</ele>
        <time>2015-11-11T08:45:38Z</time>
      </trkpt>
      <trkpt lat="43.97361" lon="5.0953">
        <ele>292.8587646</ele>
        <time>2015-11-11T08:45:48Z</time>
      </trkpt>
      <trkpt lat="43.97356" lon="5.0953">
        <ele>292.8587646</ele>
        <time>2015-11-11T08:45:55Z</time>
      </trkpt>
      <trkpt lat="43.97353" lon="5.09523">
        <ele>293.8200684</ele>
        <time>2015-11-11T08:45:59Z</time>
      </trkpt>
      <trkpt lat="43.9735" lon="5.09518">
        <ele>293.8200684</ele>
        <time>2015-11-11T08:46:02Z</time>
      </trkpt>
      <trkpt lat="43.97349" lon="5.0951">
        <ele>295.2619629</ele>
        <time>2015-11-11T08:46:08Z</time>
      </trkpt>
      <trkpt lat="43.97337" lon="5.09494">
        <ele>295.2619629</ele>
        <time>2015-11-11T08:46:18Z</time>
      </trkpt>
      <trkpt lat="43.97319" lon="5.09467">
        <ele>294.3007813</ele>
        <time>2015-11-11T08:46:28Z</time>
      </trkpt>
      <trkpt lat="43.97299" lon="5.09439">
        <ele>295.2619629</ele>
        <time>2015-11-11T08:46:38Z</time>
      </trkpt>
      <trkpt lat="43.97265" lon="5.09407">
        <ele>296.2235107</ele>
        <time>2015-11-11T08:46:52Z</time>
      </trkpt>
      <trkpt lat="43.97255" lon="5.09412">
        <ele>296.2235107</ele>
        <time>2015-11-11T08:46:56Z</time>
      </trkpt>
      <trkpt lat="43.9725" lon="5.09445">
        <ele>300.0687256</ele>
        <time>2015-11-11T08:47:08Z</time>
      </trkpt>
      <trkpt lat="43.97237" lon="5.09474">
        <ele>304.8752441</ele>
        <time>2015-11-11T08:47:21Z</time>
      </trkpt>
      <trkpt lat="43.97228" lon="5.09485">
        <ele>306.7978516</ele>
        <time>2015-11-11T08:47:34Z</time>
      </trkpt>
      <trkpt lat="43.9722" lon="5.09497">
        <ele>308.720459</ele>
        <time>2015-11-11T08:47:50Z</time>
      </trkpt>
      <trkpt lat="43.97206" lon="5.09516">
        <ele>311.6044922</ele>
        <time>2015-11-11T08:48:04Z</time>
      </trkpt>
      <trkpt lat="43.97201" lon="5.09525">
        <ele>312.0852051</ele>
        <time>2015-11-11T08:48:09Z</time>
      </trkpt>
      <trkpt lat="43.97195" lon="5.09548">
        <ele>314.4884033</ele>
        <time>2015-11-11T08:48:20Z</time>
      </trkpt>
      <trkpt lat="43.9718" lon="5.09578">
        <ele>315.4498291</ele>
        <time>2015-11-11T08:48:38Z</time>
      </trkpt>
      <trkpt lat="43.97172" lon="5.09607">
        <ele>318.8143311</ele>
        <time>2015-11-11T08:48:52Z</time>
      </trkpt>
      <trkpt lat="43.9717" lon="5.09615">
        <ele>319.2950439</ele>
        <time>2015-11-11T08:48:56Z</time>
      </trkpt>
      <trkpt lat="43.97163" lon="5.09625">
        <ele>318.8143311</ele>
        <time>2015-11-11T08:49:09Z</time>
      </trkpt>
      <trkpt lat="43.97151" lon="5.09634">
        <ele>317.8530273</ele>
        <time>2015-11-11T08:49:44Z</time>
      </trkpt>
      <trkpt lat="43.97122" lon="5.09659">
        <ele>316.8917236</ele>
        <time>2015-11-11T08:49:57Z</time>
      </trkpt>
      <trkpt lat="43.97099" lon="5.09677">
        <ele>320.2563477</ele>
        <time>2015-11-11T08:50:09Z</time>
      </trkpt>
      <trkpt lat="43.97091" lon="5.09686">
        <ele>321.6983643</ele>
        <time>2015-11-11T08:50:13Z</time>
      </trkpt>
      <trkpt lat="43.97075" lon="5.09717">
        <ele>323.1403809</ele>
        <time>2015-11-11T08:50:24Z</time>
      </trkpt>
      <trkpt lat="43.97061" lon="5.09749">
        <ele>324.5822754</ele>
        <time>2015-11-11T08:50:34Z</time>
      </trkpt>
      <trkpt lat="43.97061" lon="5.09752">
        <ele>324.5822754</ele>
        <time>2015-11-11T08:50:35Z</time>
      </trkpt>
      <trkpt lat="43.9706" lon="5.09765">
        <ele>323.6209717</ele>
        <time>2015-11-11T08:50:40Z</time>
      </trkpt>
      <trkpt lat="43.97056" lon="5.09782">
        <ele>324.1015625</ele>
        <time>2015-11-11T08:50:46Z</time>
      </trkpt>
      <trkpt lat="43.97052" lon="5.09795">
        <ele>324.5822754</ele>
        <time>2015-11-11T08:50:53Z</time>
      </trkpt>
      <trkpt lat="43.97052" lon="5.09799">
        <ele>325.0629883</ele>
        <time>2015-11-11T08:50:55Z</time>
      </trkpt>
      <trkpt lat="43.97051" lon="5.09811">
        <ele>326.5048828</ele>
        <time>2015-11-11T08:51:03Z</time>
      </trkpt>
      <trkpt lat="43.97052" lon="5.09815">
        <ele>326.9855957</ele>
        <time>2015-11-11T08:51:05Z</time>
      </trkpt>
      <trkpt lat="43.97043" lon="5.09827">
        <ele>326.9855957</ele>
        <time>2015-11-11T08:51:13Z</time>
      </trkpt>
      <trkpt lat="43.9704" lon="5.09832">
        <ele>326.9855957</ele>
        <time>2015-11-11T08:51:16Z</time>
      </trkpt>
      <trkpt lat="43.97035" lon="5.09843">
        <ele>330.8309326</ele>
        <time>2015-11-11T08:51:26Z</time>
      </trkpt>
      <trkpt lat="43.97029" lon="5.09846">
        <ele>333.2341309</ele>
        <time>2015-11-11T08:51:37Z</time>
      </trkpt>
      <trkpt lat="43.97025" lon="5.09849">
        <ele>333.2341309</ele>
        <time>2015-11-11T08:51:51Z</time>
      </trkpt>
      <trkpt lat="43.97022" lon="5.09856">
        <ele>335.1567383</ele>
        <time>2015-11-11T08:52:06Z</time>
      </trkpt>
      <trkpt lat="43.97024" lon="5.09862">
        <ele>336.598877</ele>
        <time>2015-11-11T08:52:21Z</time>
      </trkpt>
      <trkpt lat="43.97029" lon="5.09872">
        <ele>338.5214844</ele>
        <time>2015-11-11T08:52:34Z</time>
      </trkpt>
      <trkpt lat="43.97028" lon="5.09877">
        <ele>337.5600586</ele>
        <time>2015-11-11T08:52:44Z</time>
      </trkpt>
      <trkpt lat="43.97028" lon="5.09885">
        <ele>339.0020752</ele>
        <time>2015-11-11T08:52:54Z</time>
      </trkpt>
      <trkpt lat="43.97028" lon="5.09886">
        <ele>339.0020752</ele>
        <time>2015-11-11T08:52:56Z</time>
      </trkpt>
      <trkpt lat="43.97021" lon="5.09898">
        <ele>339.0020752</ele>
        <time>2015-11-11T08:53:03Z</time>
      </trkpt>
      <trkpt lat="43.97009" lon="5.09925">
        <ele>339.9633789</ele>
        <time>2015-11-11T08:53:12Z</time>
      </trkpt>
      <trkpt lat="43.96989" lon="5.09965">
        <ele>340.9246826</ele>
        <time>2015-11-11T08:53:23Z</time>
      </trkpt>
      <trkpt lat="43.96979" lon="5.09981">
        <ele>339.482666</ele>
        <time>2015-11-11T08:53:27Z</time>
      </trkpt>
      <trkpt lat="43.9695" lon="5.1006">
        <ele>337.0794678</ele>
        <time>2015-11-11T08:53:41Z</time>
      </trkpt>
      <trkpt lat="43.96908" lon="5.10102">
        <ele>335.6373291</ele>
        <time>2015-11-11T08:53:52Z</time>
      </trkpt>
      <trkpt lat="43.96905" lon="5.10107">
        <ele>335.1567383</ele>
        <time>2015-11-11T08:53:53Z</time>
      </trkpt>
      <trkpt lat="43.96872" lon="5.10156">
        <ele>332.75354</ele>
        <time>2015-11-11T08:54:05Z</time>
      </trkpt>
      <trkpt lat="43.9686" lon="5.10172">
        <ele>332.75354</ele>
        <time>2015-11-11T08:54:09Z</time>
      </trkpt>
      <trkpt lat="43.96851" lon="5.10183">
        <ele>332.2728271</ele>
        <time>2015-11-11T08:54:12Z</time>
      </trkpt>
      <trkpt lat="43.96842" lon="5.10197">
        <ele>333.7147217</ele>
        <time>2015-11-11T08:54:16Z</time>
      </trkpt>
      <trkpt lat="43.96811" lon="5.10229">
        <ele>334.1954346</ele>
        <time>2015-11-11T08:54:29Z</time>
      </trkpt>
      <trkpt lat="43.9679" lon="5.1024">
        <ele>335.1567383</ele>
        <time>2015-11-11T08:54:39Z</time>
      </trkpt>
      <trkpt lat="43.96776" lon="5.10246">
        <ele>336.598877</ele>
        <time>2015-11-11T08:54:46Z</time>
      </trkpt>
      <trkpt lat="43.9677" lon="5.10256">
        <ele>337.0794678</ele>
        <time>2015-11-11T08:54:53Z</time>
      </trkpt>
      <trkpt lat="43.96769" lon="5.1027">
        <ele>339.9633789</ele>
        <time>2015-11-11T08:55:00Z</time>
      </trkpt>
      <trkpt lat="43.96766" lon="5.10276">
        <ele>340.9246826</ele>
        <time>2015-11-11T08:55:02Z</time>
      </trkpt>
      <trkpt lat="43.96765" lon="5.10286">
        <ele>342.84729</ele>
        <time>2015-11-11T08:55:13Z</time>
      </trkpt>
      <trkpt lat="43.96762" lon="5.10294">
        <ele>344.2894287</ele>
        <time>2015-11-11T08:55:26Z</time>
      </trkpt>
      <trkpt lat="43.9676" lon="5.10303">
        <ele>344.7700195</ele>
        <time>2015-11-11T08:55:32Z</time>
      </trkpt>
      <trkpt lat="43.96756" lon="5.10313">
        <ele>345.7313232</ele>
        <time>2015-11-11T08:55:36Z</time>
      </trkpt>
      <trkpt lat="43.96757" lon="5.10339">
        <ele>347.6539307</ele>
        <time>2015-11-11T08:55:48Z</time>
      </trkpt>
      <trkpt lat="43.96761" lon="5.10348">
        <ele>351.0184326</ele>
        <time>2015-11-11T08:55:53Z</time>
      </trkpt>
      <trkpt lat="43.96759" lon="5.10358">
        <ele>351.4991455</ele>
        <time>2015-11-11T08:55:58Z</time>
      </trkpt>
      <trkpt lat="43.96752" lon="5.10377">
        <ele>351.9798584</ele>
        <time>2015-11-11T08:56:06Z</time>
      </trkpt>
      <trkpt lat="43.96748" lon="5.10384">
        <ele>351.9798584</ele>
        <time>2015-11-11T08:56:10Z</time>
      </trkpt>
      <trkpt lat="43.96728" lon="5.10415">
        <ele>351.9798584</ele>
        <time>2015-11-11T08:56:26Z</time>
      </trkpt>
      <trkpt lat="43.96726" lon="5.10419">
        <ele>351.9798584</ele>
        <time>2015-11-11T08:56:28Z</time>
      </trkpt>
      <trkpt lat="43.967" lon="5.10447">
        <ele>355.3444824</ele>
        <time>2015-11-11T08:56:45Z</time>
      </trkpt>
      <trkpt lat="43.9668" lon="5.10476">
        <ele>353.421875</ele>
        <time>2015-11-11T08:56:57Z</time>
      </trkpt>
      <trkpt lat="43.96666" lon="5.1049">
        <ele>353.421875</ele>
        <time>2015-11-11T08:57:02Z</time>
      </trkpt>
      <trkpt lat="43.96655" lon="5.10491">
        <ele>352.9411621</ele>
        <time>2015-11-11T08:57:08Z</time>
      </trkpt>
      <trkpt lat="43.96653" lon="5.1049">
        <ele>352.4605713</ele>
        <time>2015-11-11T08:57:09Z</time>
      </trkpt>
      <trkpt lat="43.96646" lon="5.10487">
        <ele>351.9798584</ele>
        <time>2015-11-11T08:57:11Z</time>
      </trkpt>
      <trkpt lat="43.96616" lon="5.10479">
        <ele>349.0958252</ele>
        <time>2015-11-11T08:57:18Z</time>
      </trkpt>
      <trkpt lat="43.96594" lon="5.10461">
        <ele>347.1732178</ele>
        <time>2015-11-11T08:57:23Z</time>
      </trkpt>
      <trkpt lat="43.96577" lon="5.10428">
        <ele>345.7313232</ele>
        <time>2015-11-11T08:57:29Z</time>
      </trkpt>
      <trkpt lat="43.96567" lon="5.10406">
        <ele>346.692627</ele>
        <time>2015-11-11T08:57:33Z</time>
      </trkpt>
      <trkpt lat="43.96542" lon="5.10389">
        <ele>346.692627</ele>
        <time>2015-11-11T08:57:42Z</time>
      </trkpt>
      <trkpt lat="43.96527" lon="5.10385">
        <ele>344.7700195</ele>
        <time>2015-11-11T08:57:49Z</time>
      </trkpt>
      <trkpt lat="43.96521" lon="5.10385">
        <ele>343.3278809</ele>
        <time>2015-11-11T08:57:51Z</time>
      </trkpt>
      <trkpt lat="43.96506" lon="5.10372">
        <ele>344.2894287</ele>
        <time>2015-11-11T08:57:58Z</time>
      </trkpt>
      <trkpt lat="43.96504" lon="5.10365">
        <ele>344.7700195</ele>
        <time>2015-11-11T08:58:00Z</time>
      </trkpt>
      <trkpt lat="43.96486" lon="5.10355">
        <ele>342.3666992</ele>
        <time>2015-11-11T08:58:07Z</time>
      </trkpt>
      <trkpt lat="43.96459" lon="5.1033">
        <ele>344.7700195</ele>
        <time>2015-11-11T08:58:17Z</time>
      </trkpt>
      <trkpt lat="43.96452" lon="5.10329">
        <ele>344.2894287</ele>
        <time>2015-11-11T08:58:19Z</time>
      </trkpt>
      <trkpt lat="43.96434" lon="5.10308">
        <ele>342.84729</ele>
        <time>2015-11-11T08:58:26Z</time>
      </trkpt>
      <trkpt lat="43.96424" lon="5.10299">
        <ele>341.4052734</ele>
        <time>2015-11-11T08:58:30Z</time>
      </trkpt>
      <trkpt lat="43.9641" lon="5.10302">
        <ele>339.0020752</ele>
        <time>2015-11-11T08:58:36Z</time>
      </trkpt>
      <trkpt lat="43.96396" lon="5.10313">
        <ele>337.0794678</ele>
        <time>2015-11-11T08:58:42Z</time>
      </trkpt>
      <trkpt lat="43.96393" lon="5.1031">
        <ele>337.0794678</ele>
        <time>2015-11-11T08:58:48Z</time>
      </trkpt>
      <trkpt lat="43.96382" lon="5.10297">
        <ele>335.1567383</ele>
        <time>2015-11-11T08:58:59Z</time>
      </trkpt>
      <trkpt lat="43.96378" lon="5.10294">
        <ele>334.6761475</ele>
        <time>2015-11-11T08:59:00Z</time>
      </trkpt>
      <trkpt lat="43.96346" lon="5.10251">
        <ele>327.9467773</ele>
        <time>2015-11-11T08:59:11Z</time>
      </trkpt>
      <trkpt lat="43.9634" lon="5.10242">
        <ele>326.9855957</ele>
        <time>2015-11-11T08:59:13Z</time>
      </trkpt>
      <trkpt lat="43.9632" lon="5.10198">
        <ele>319.7756348</ele>
        <time>2015-11-11T08:59:22Z</time>
      </trkpt>
      <trkpt lat="43.96302" lon="5.10183">
        <ele>318.3336182</ele>
        <time>2015-11-11T08:59:26Z</time>
      </trkpt>
      <trkpt lat="43.96288" lon="5.10143">
        <ele>318.8143311</ele>
        <time>2015-11-11T08:59:33Z</time>
      </trkpt>
      <trkpt lat="43.96286" lon="5.10136">
        <ele>318.3336182</ele>
        <time>2015-11-11T08:59:34Z</time>
      </trkpt>
      <trkpt lat="43.96285" lon="5.10113">
        <ele>320.2563477</ele>
        <time>2015-11-11T08:59:38Z</time>
      </trkpt>
      <trkpt lat="43.96292" lon="5.10107">
        <ele>320.7370605</ele>
        <time>2015-11-11T08:59:44Z</time>
      </trkpt>
      <trkpt lat="43.96292" lon="5.10106">
        <ele>321.2177734</ele>
        <time>2015-11-11T09:01:31Z</time>
      </trkpt>
      <trkpt lat="43.96298" lon="5.10102">
        <ele>320.7370605</ele>
        <time>2015-11-11T09:01:34Z</time>
      </trkpt>
      <trkpt lat="43.96315" lon="5.10086">
        <ele>320.2563477</ele>
        <time>2015-11-11T09:01:38Z</time>
      </trkpt>
      <trkpt lat="43.96324" lon="5.10079">
        <ele>319.7756348</ele>
        <time>2015-11-11T09:01:40Z</time>
      </trkpt>
      <trkpt lat="43.96355" lon="5.10047">
        <ele>317.3724365</ele>
        <time>2015-11-11T09:01:47Z</time>
      </trkpt>
      <trkpt lat="43.96365" lon="5.10033">
        <ele>317.8530273</ele>
        <time>2015-11-11T09:01:50Z</time>
      </trkpt>
      <trkpt lat="43.96388" lon="5.10034">
        <ele>315.4498291</ele>
        <time>2015-11-11T09:01:55Z</time>
      </trkpt>
      <trkpt lat="43.96397" lon="5.10023">
        <ele>314.9691162</ele>
        <time>2015-11-11T09:01:57Z</time>
      </trkpt>
      <trkpt lat="43.96405" lon="5.10011">
        <ele>314.4884033</ele>
        <time>2015-11-11T09:01:59Z</time>
      </trkpt>
      <trkpt lat="43.96415" lon="5.10001">
        <ele>314.4884033</ele>
        <time>2015-11-11T09:02:01Z</time>
      </trkpt>
      <trkpt lat="43.96445" lon="5.09952">
        <ele>316.4110107</ele>
        <time>2015-11-11T09:02:09Z</time>
      </trkpt>
      <trkpt lat="43.96432" lon="5.0994">
        <ele>312.5657959</ele>
        <time>2015-11-11T09:02:14Z</time>
      </trkpt>
      <trkpt lat="43.96417" lon="5.09919">
        <ele>309.6818848</ele>
        <time>2015-11-11T09:02:19Z</time>
      </trkpt>
      <trkpt lat="43.96435" lon="5.09896">
        <ele>304.8752441</ele>
        <time>2015-11-11T09:02:25Z</time>
      </trkpt>
      <trkpt lat="43.96446" lon="5.09889">
        <ele>304.8752441</ele>
        <time>2015-11-11T09:02:27Z</time>
      </trkpt>
      <trkpt lat="43.96466" lon="5.09894">
        <ele>305.8366699</ele>
        <time>2015-11-11T09:02:32Z</time>
      </trkpt>
      <trkpt lat="43.96467" lon="5.09896">
        <ele>306.7978516</ele>
        <time>2015-11-11T09:02:35Z</time>
      </trkpt>
      <trkpt lat="43.9648" lon="5.09844">
        <ele>297.1846924</ele>
        <time>2015-11-11T09:02:43Z</time>
      </trkpt>
      <trkpt lat="43.96482" lon="5.09819">
        <ele>296.2235107</ele>
        <time>2015-11-11T09:02:46Z</time>
      </trkpt>
      <trkpt lat="43.96487" lon="5.09809">
        <ele>293.3393555</ele>
        <time>2015-11-11T09:02:48Z</time>
      </trkpt>
      <trkpt lat="43.96504" lon="5.09791">
        <ele>289.9748535</ele>
        <time>2015-11-11T09:02:52Z</time>
      </trkpt>
      <trkpt lat="43.96517" lon="5.09774">
        <ele>287.5714111</ele>
        <time>2015-11-11T09:02:56Z</time>
      </trkpt>
      <trkpt lat="43.96522" lon="5.0976">
        <ele>286.1295166</ele>
        <time>2015-11-11T09:02:59Z</time>
      </trkpt>
      <trkpt lat="43.96526" lon="5.09729">
        <ele>283.7261963</ele>
        <time>2015-11-11T09:03:03Z</time>
      </trkpt>
      <trkpt lat="43.96532" lon="5.09705">
        <ele>280.8424072</ele>
        <time>2015-11-11T09:03:08Z</time>
      </trkpt>
      <trkpt lat="43.96527" lon="5.09678">
        <ele>280.3616943</ele>
        <time>2015-11-11T09:03:16Z</time>
      </trkpt>
      <trkpt lat="43.96527" lon="5.09676">
        <ele>278.4389648</ele>
        <time>2015-11-11T09:03:17Z</time>
      </trkpt>
      <trkpt lat="43.96516" lon="5.09675">
        <ele>273.6324463</ele>
        <time>2015-11-11T09:03:21Z</time>
      </trkpt>
      <trkpt lat="43.96486" lon="5.09679">
        <ele>272.1904297</ele>
        <time>2015-11-11T09:03:28Z</time>
      </trkpt>
      <trkpt lat="43.96472" lon="5.09685">
        <ele>272.6711426</ele>
        <time>2015-11-11T09:03:31Z</time>
      </trkpt>
      <trkpt lat="43.96458" lon="5.09686">
        <ele>272.6711426</ele>
        <time>2015-11-11T09:03:34Z</time>
      </trkpt>
      <trkpt lat="43.96445" lon="5.09688">
        <ele>274.1130371</ele>
        <time>2015-11-11T09:03:37Z</time>
      </trkpt>
      <trkpt lat="43.96439" lon="5.09687">
        <ele>273.6324463</ele>
        <time>2015-11-11T09:03:39Z</time>
      </trkpt>
      <trkpt lat="43.96424" lon="5.09705">
        <ele>273.6324463</ele>
        <time>2015-11-11T09:03:44Z</time>
      </trkpt>
      <trkpt lat="43.96415" lon="5.09737">
        <ele>274.1130371</ele>
        <time>2015-11-11T09:03:49Z</time>
      </trkpt>
      <trkpt lat="43.96412" lon="5.09748">
        <ele>274.1130371</ele>
        <time>2015-11-11T09:03:51Z</time>
      </trkpt>
      <trkpt lat="43.96402" lon="5.09789">
        <ele>276.5163574</ele>
        <time>2015-11-11T09:03:59Z</time>
      </trkpt>
      <trkpt lat="43.96393" lon="5.0981">
        <ele>276.9970703</ele>
        <time>2015-11-11T09:04:03Z</time>
      </trkpt>
      <trkpt lat="43.96382" lon="5.09818">
        <ele>277.4776611</ele>
        <time>2015-11-11T09:04:07Z</time>
      </trkpt>
      <trkpt lat="43.96351" lon="5.09807">
        <ele>274.1130371</ele>
        <time>2015-11-11T09:04:14Z</time>
      </trkpt>
      <trkpt lat="43.96328" lon="5.09775">
        <ele>273.1518555</ele>
        <time>2015-11-11T09:04:20Z</time>
      </trkpt>
      <trkpt lat="43.96317" lon="5.09771">
        <ele>274.1130371</ele>
        <time>2015-11-11T09:04:22Z</time>
      </trkpt>
      <trkpt lat="43.96285" lon="5.09748">
        <ele>268.8258057</ele>
        <time>2015-11-11T09:04:29Z</time>
      </trkpt>
      <trkpt lat="43.96265" lon="5.09735">
        <ele>263.5385742</ele>
        <time>2015-11-11T09:04:34Z</time>
      </trkpt>
      <trkpt lat="43.96242" lon="5.09717">
        <ele>259.2126465</ele>
        <time>2015-11-11T09:04:38Z</time>
      </trkpt>
      <trkpt lat="43.9622" lon="5.09698">
        <ele>258.7319336</ele>
        <time>2015-11-11T09:04:46Z</time>
      </trkpt>
      <trkpt lat="43.96196" lon="5.09666">
        <ele>259.2126465</ele>
        <time>2015-11-11T09:04:53Z</time>
      </trkpt>
      <trkpt lat="43.9618" lon="5.09661">
        <ele>262.0965576</ele>
        <time>2015-11-11T09:04:59Z</time>
      </trkpt>
      <trkpt lat="43.96172" lon="5.09667">
        <ele>262.0965576</ele>
        <time>2015-11-11T09:05:08Z</time>
      </trkpt>
      <trkpt lat="43.96164" lon="5.09671">
        <ele>262.5771484</ele>
        <time>2015-11-11T09:05:14Z</time>
      </trkpt>
      <trkpt lat="43.96161" lon="5.09677">
        <ele>262.5771484</ele>
        <time>2015-11-11T09:05:22Z</time>
      </trkpt>
      <trkpt lat="43.96145" lon="5.09681">
        <ele>264.4998779</ele>
        <time>2015-11-11T09:05:31Z</time>
      </trkpt>
      <trkpt lat="43.96139" lon="5.09681">
        <ele>264.9805908</ele>
        <time>2015-11-11T09:05:35Z</time>
      </trkpt>
      <trkpt lat="43.96126" lon="5.09682">
        <ele>264.9805908</ele>
        <time>2015-11-11T09:05:44Z</time>
      </trkpt>
      <trkpt lat="43.96119" lon="5.09684">
        <ele>265.9418945</ele>
        <time>2015-11-11T09:05:49Z</time>
      </trkpt>
      <trkpt lat="43.96103" lon="5.09693">
        <ele>270.2677002</ele>
        <time>2015-11-11T09:06:03Z</time>
      </trkpt>
      <trkpt lat="43.96099" lon="5.09696">
        <ele>270.7484131</ele>
        <time>2015-11-11T09:06:06Z</time>
      </trkpt>
      <trkpt lat="43.96079" lon="5.09713">
        <ele>268.8258057</ele>
        <time>2015-11-11T09:06:15Z</time>
      </trkpt>
      <trkpt lat="43.96073" lon="5.09721">
        <ele>268.3450928</ele>
        <time>2015-11-11T09:06:17Z</time>
      </trkpt>
      <trkpt lat="43.9605" lon="5.09736">
        <ele>268.3450928</ele>
        <time>2015-11-11T09:06:24Z</time>
      </trkpt>
      <trkpt lat="43.96025" lon="5.0976">
        <ele>269.7871094</ele>
        <time>2015-11-11T09:06:33Z</time>
      </trkpt>
      <trkpt lat="43.96009" lon="5.09783">
        <ele>268.3450928</ele>
        <time>2015-11-11T09:06:38Z</time>
      </trkpt>
      <trkpt lat="43.95996" lon="5.09821">
        <ele>264.4998779</ele>
        <time>2015-11-11T09:06:44Z</time>
      </trkpt>
      <trkpt lat="43.95984" lon="5.09876">
        <ele>265.9418945</ele>
        <time>2015-11-11T09:06:51Z</time>
      </trkpt>
      <trkpt lat="43.95976" lon="5.09921">
        <ele>266.9031982</ele>
        <time>2015-11-11T09:07:01Z</time>
      </trkpt>
      <trkpt lat="43.95965" lon="5.09942">
        <ele>262.5771484</ele>
        <time>2015-11-11T09:07:06Z</time>
      </trkpt>
      <trkpt lat="43.95961" lon="5.09952">
        <ele>257.770752</ele>
        <time>2015-11-11T09:07:08Z</time>
      </trkpt>
      <trkpt lat="43.95954" lon="5.09968">
        <ele>254.8865967</ele>
        <time>2015-11-11T09:07:14Z</time>
      </trkpt>
      <trkpt lat="43.95948" lon="5.09974">
        <ele>252.4833984</ele>
        <time>2015-11-11T09:07:24Z</time>
      </trkpt>
      <trkpt lat="43.95947" lon="5.09973">
        <ele>252.0028076</ele>
        <time>2015-11-11T09:07:33Z</time>
      </trkpt>
      <trkpt lat="43.95946" lon="5.09951">
        <ele>249.1187744</ele>
        <time>2015-11-11T09:07:39Z</time>
      </trkpt>
      <trkpt lat="43.95942" lon="5.09937">
        <ele>247.1960449</ele>
        <time>2015-11-11T09:07:43Z</time>
      </trkpt>
      <trkpt lat="43.95944" lon="5.09882">
        <ele>243.831543</ele>
        <time>2015-11-11T09:07:56Z</time>
      </trkpt>
      <trkpt lat="43.95949" lon="5.09818">
        <ele>243.3508301</ele>
        <time>2015-11-11T09:08:08Z</time>
      </trkpt>
      <trkpt lat="43.9595" lon="5.09786">
        <ele>243.3508301</ele>
        <time>2015-11-11T09:08:14Z</time>
      </trkpt>
      <trkpt lat="43.95955" lon="5.0971">
        <ele>243.831543</ele>
        <time>2015-11-11T09:08:28Z</time>
      </trkpt>
      <trkpt lat="43.9597" lon="5.09648">
        <ele>245.2734375</ele>
        <time>2015-11-11T09:08:41Z</time>
      </trkpt>
      <trkpt lat="43.9599" lon="5.09608">
        <ele>242.8702393</ele>
        <time>2015-11-11T09:08:48Z</time>
      </trkpt>
      <trkpt lat="43.96021" lon="5.09569">
        <ele>243.3508301</ele>
        <time>2015-11-11T09:08:57Z</time>
      </trkpt>
      <trkpt lat="43.96025" lon="5.09526">
        <ele>240.467041</ele>
        <time>2015-11-11T09:09:05Z</time>
      </trkpt>
      <trkpt lat="43.96017" lon="5.09517">
        <ele>239.0249023</ele>
        <time>2015-11-11T09:09:07Z</time>
      </trkpt>
      <trkpt lat="43.95994" lon="5.09498">
        <ele>236.1409912</ele>
        <time>2015-11-11T09:09:12Z</time>
      </trkpt>
      <trkpt lat="43.95972" lon="5.09468">
        <ele>233.2570801</ele>
        <time>2015-11-11T09:09:18Z</time>
      </trkpt>
      <trkpt lat="43.95938" lon="5.09427">
        <ele>226.527832</ele>
        <time>2015-11-11T09:09:28Z</time>
      </trkpt>
      <trkpt lat="43.95912" lon="5.09405">
        <ele>223.163208</ele>
        <time>2015-11-11T09:09:37Z</time>
      </trkpt>
      <trkpt lat="43.95893" lon="5.09351">
        <ele>221.2406006</ele>
        <time>2015-11-11T09:09:45Z</time>
      </trkpt>
      <trkpt lat="43.95884" lon="5.09278">
        <ele>214.9919434</ele>
        <time>2015-11-11T09:09:55Z</time>
      </trkpt>
      <trkpt lat="43.95876" lon="5.09255">
        <ele>212.588623</ele>
        <time>2015-11-11T09:09:59Z</time>
      </trkpt>
      <trkpt lat="43.95859" lon="5.09231">
        <ele>210.1854248</ele>
        <time>2015-11-11T09:10:04Z</time>
      </trkpt>
      <trkpt lat="43.95842" lon="5.0922">
        <ele>209.704834</ele>
        <time>2015-11-11T09:10:08Z</time>
      </trkpt>
      <trkpt lat="43.95825" lon="5.09228">
        <ele>208.7434082</ele>
        <time>2015-11-11T09:10:15Z</time>
      </trkpt>
      <trkpt lat="43.95826" lon="5.09228">
        <ele>208.2628174</ele>
        <time>2015-11-11T09:10:22Z</time>
      </trkpt>
      <trkpt lat="43.95823" lon="5.09204">
        <ele>208.7434082</ele>
        <time>2015-11-11T09:10:29Z</time>
      </trkpt>
      <trkpt lat="43.95807" lon="5.09172">
        <ele>206.3400879</ele>
        <time>2015-11-11T09:10:36Z</time>
      </trkpt>
      <trkpt lat="43.95789" lon="5.09136">
        <ele>202.494873</ele>
        <time>2015-11-11T09:10:41Z</time>
      </trkpt>
      <trkpt lat="43.95744" lon="5.09094">
        <ele>200.5722656</ele>
        <time>2015-11-11T09:10:50Z</time>
      </trkpt>
      <trkpt lat="43.95696" lon="5.0907">
        <ele>200.0916748</ele>
        <time>2015-11-11T09:10:58Z</time>
      </trkpt>
      <trkpt lat="43.95652" lon="5.09051">
        <ele>202.494873</ele>
        <time>2015-11-11T09:11:06Z</time>
      </trkpt>
      <trkpt lat="43.95629" lon="5.09039">
        <ele>202.0142822</ele>
        <time>2015-11-11T09:11:10Z</time>
      </trkpt>
      <trkpt lat="43.95558" lon="5.09006">
        <ele>202.494873</ele>
        <time>2015-11-11T09:11:22Z</time>
      </trkpt>
      <trkpt lat="43.95552" lon="5.09004">
        <ele>202.9754639</ele>
        <time>2015-11-11T09:11:23Z</time>
      </trkpt>
      <trkpt lat="43.95507" lon="5.08994">
        <ele>200.0916748</ele>
        <time>2015-11-11T09:11:30Z</time>
      </trkpt>
      <trkpt lat="43.9549" lon="5.08993">
        <ele>199.130127</ele>
        <time>2015-11-11T09:11:33Z</time>
      </trkpt>
      <trkpt lat="43.95473" lon="5.08994">
        <ele>198.1689453</ele>
        <time>2015-11-11T09:11:36Z</time>
      </trkpt>
      <trkpt lat="43.95456" lon="5.09">
        <ele>197.6882324</ele>
        <time>2015-11-11T09:11:39Z</time>
      </trkpt>
      <trkpt lat="43.95431" lon="5.08996">
        <ele>197.2075195</ele>
        <time>2015-11-11T09:11:43Z</time>
      </trkpt>
      <trkpt lat="43.95409" lon="5.08985">
        <ele>197.2075195</ele>
        <time>2015-11-11T09:11:47Z</time>
      </trkpt>
      <trkpt lat="43.9532" lon="5.0899">
        <ele>194.3237305</ele>
        <time>2015-11-11T09:12:01Z</time>
      </trkpt>
      <trkpt lat="43.95304" lon="5.08992">
        <ele>194.3237305</ele>
        <time>2015-11-11T09:12:04Z</time>
      </trkpt>
      <trkpt lat="43.95298" lon="5.08997">
        <ele>193.8430176</ele>
        <time>2015-11-11T09:12:06Z</time>
      </trkpt>
      <trkpt lat="43.9528" lon="5.09">
        <ele>192.401123</ele>
        <time>2015-11-11T09:12:10Z</time>
      </trkpt>
      <trkpt lat="43.95244" lon="5.09004">
        <ele>191.4395752</ele>
        <time>2015-11-11T09:12:16Z</time>
      </trkpt>
      <trkpt lat="43.95235" lon="5.08995">
        <ele>190.4783936</ele>
        <time>2015-11-11T09:12:20Z</time>
      </trkpt>
      <trkpt lat="43.9522" lon="5.08989">
        <ele>188.0750732</ele>
        <time>2015-11-11T09:12:24Z</time>
      </trkpt>
      <trkpt lat="43.95173" lon="5.08972">
        <ele>189.5169678</ele>
        <time>2015-11-11T09:12:32Z</time>
      </trkpt>
      <trkpt lat="43.95167" lon="5.08969">
        <ele>189.5169678</ele>
        <time>2015-11-11T09:12:33Z</time>
      </trkpt>
      <trkpt lat="43.95145" lon="5.08964">
        <ele>190.4783936</ele>
        <time>2015-11-11T09:12:37Z</time>
      </trkpt>
      <trkpt lat="43.95129" lon="5.08955">
        <ele>191.4395752</ele>
        <time>2015-11-11T09:12:41Z</time>
      </trkpt>
      <trkpt lat="43.95116" lon="5.08948">
        <ele>192.401123</ele>
        <time>2015-11-11T09:12:44Z</time>
      </trkpt>
      <trkpt lat="43.95088" lon="5.08955">
        <ele>190.4783936</ele>
        <time>2015-11-11T09:12:50Z</time>
      </trkpt>
      <trkpt lat="43.95065" lon="5.08966">
        <ele>189.5169678</ele>
        <time>2015-11-11T09:12:54Z</time>
      </trkpt>
      <trkpt lat="43.9504" lon="5.08973">
        <ele>188.5557861</ele>
        <time>2015-11-11T09:12:58Z</time>
      </trkpt>
      <trkpt lat="43.95008" lon="5.08986">
        <ele>185.6717529</ele>
        <time>2015-11-11T09:13:03Z</time>
      </trkpt>
      <trkpt lat="43.94971" lon="5.08996">
        <ele>184.7105713</ele>
        <time>2015-11-11T09:13:09Z</time>
      </trkpt>
      <trkpt lat="43.94939" lon="5.09022">
        <ele>185.1911621</ele>
        <time>2015-11-11T09:13:15Z</time>
      </trkpt>
      <trkpt lat="43.94931" lon="5.09035">
        <ele>184.7105713</ele>
        <time>2015-11-11T09:13:17Z</time>
      </trkpt>
      <trkpt lat="43.94896" lon="5.09065">
        <ele>183.2684326</ele>
        <time>2015-11-11T09:13:24Z</time>
      </trkpt>
      <trkpt lat="43.94901" lon="5.09077">
        <ele>181.826416</ele>
        <time>2015-11-11T09:13:28Z</time>
      </trkpt>
      <trkpt lat="43.94914" lon="5.09088">
        <ele>180.8652344</ele>
        <time>2015-11-11T09:13:32Z</time>
      </trkpt>
      <trkpt lat="43.94918" lon="5.0909">
        <ele>179.9038086</ele>
        <time>2015-11-11T09:13:41Z</time>
      </trkpt>
      <trkpt lat="43.94919" lon="5.09091">
        <ele>179.4232178</ele>
        <time>2015-11-11T09:14:10Z</time>
      </trkpt>
      <trkpt lat="43.94923" lon="5.09094">
        <ele>179.4232178</ele>
        <time>2015-11-11T09:14:13Z</time>
      </trkpt>
      <trkpt lat="43.94935" lon="5.09088">
        <ele>179.4232178</ele>
        <time>2015-11-11T09:14:18Z</time>
      </trkpt>
      <trkpt lat="43.94942" lon="5.09084">
        <ele>178.4619141</ele>
        <time>2015-11-11T09:14:20Z</time>
      </trkpt>
      <trkpt lat="43.94962" lon="5.09092">
        <ele>176.5393066</ele>
        <time>2015-11-11T09:14:26Z</time>
      </trkpt>
      <trkpt lat="43.94963" lon="5.09097">
        <ele>175.09729</ele>
        <time>2015-11-11T09:14:32Z</time>
      </trkpt>
      <trkpt lat="43.94956" lon="5.09101">
        <ele>175.09729</ele>
        <time>2015-11-11T09:14:34Z</time>
      </trkpt>
      <trkpt lat="43.94938" lon="5.0911">
        <ele>175.09729</ele>
        <time>2015-11-11T09:14:38Z</time>
      </trkpt>
      <trkpt lat="43.94915" lon="5.09116">
        <ele>176.5393066</ele>
        <time>2015-11-11T09:14:43Z</time>
      </trkpt>
      <trkpt lat="43.9488" lon="5.09111">
        <ele>181.3458252</ele>
        <time>2015-11-11T09:14:52Z</time>
      </trkpt>
      <trkpt lat="43.94858" lon="5.09121">
        <ele>182.7878418</ele>
        <time>2015-11-11T09:14:58Z</time>
      </trkpt>
      <trkpt lat="43.94833" lon="5.09106">
        <ele>186.1524658</ele>
        <time>2015-11-11T09:15:05Z</time>
      </trkpt>
      <trkpt lat="43.94819" lon="5.09114">
        <ele>184.7105713</ele>
        <time>2015-11-11T09:15:11Z</time>
      </trkpt>
      <trkpt lat="43.94821" lon="5.09117">
        <ele>184.7105713</ele>
        <time>2015-11-11T09:15:12Z</time>
      </trkpt>
      <trkpt lat="43.94828" lon="5.09128">
        <ele>184.7105713</ele>
        <time>2015-11-11T09:15:16Z</time>
      </trkpt>
      <trkpt lat="43.94829" lon="5.09147">
        <ele>187.5943604</ele>
        <time>2015-11-11T09:15:24Z</time>
      </trkpt>
      <trkpt lat="43.94826" lon="5.0918">
        <ele>189.9976807</ele>
        <time>2015-11-11T09:15:35Z</time>
      </trkpt>
      <trkpt lat="43.94812" lon="5.0922">
        <ele>189.5169678</ele>
        <time>2015-11-11T09:15:48Z</time>
      </trkpt>
      <trkpt lat="43.94786" lon="5.09238">
        <ele>189.5169678</ele>
        <time>2015-11-11T09:15:58Z</time>
      </trkpt>
      <trkpt lat="43.94739" lon="5.09256">
        <ele>188.5557861</ele>
        <time>2015-11-11T09:16:12Z</time>
      </trkpt>
      <trkpt lat="43.94696" lon="5.0927">
        <ele>187.1137695</ele>
        <time>2015-11-11T09:16:25Z</time>
      </trkpt>
      <trkpt lat="43.94652" lon="5.09273">
        <ele>187.1137695</ele>
        <time>2015-11-11T09:16:38Z</time>
      </trkpt>
      <trkpt lat="43.94597" lon="5.09263">
        <ele>185.6717529</ele>
        <time>2015-11-11T09:16:52Z</time>
      </trkpt>
      <trkpt lat="43.94543" lon="5.09234">
        <ele>182.3071289</ele>
        <time>2015-11-11T09:17:05Z</time>
      </trkpt>
      <trkpt lat="43.94496" lon="5.09239">
        <ele>179.9038086</ele>
        <time>2015-11-11T09:17:12Z</time>
      </trkpt>
      <trkpt lat="43.94491" lon="5.09243">
        <ele>179.9038086</ele>
        <time>2015-11-11T09:17:13Z</time>
      </trkpt>
      <trkpt lat="43.94476" lon="5.09254">
        <ele>179.9038086</ele>
        <time>2015-11-11T09:17:16Z</time>
      </trkpt>
      <trkpt lat="43.94454" lon="5.09292">
        <ele>180.8652344</ele>
        <time>2015-11-11T09:17:26Z</time>
      </trkpt>
      <trkpt lat="43.94452" lon="5.09296">
        <ele>180.8652344</ele>
        <time>2015-11-11T09:17:35Z</time>
      </trkpt>
      <trkpt lat="43.94451" lon="5.09297">
        <ele>180.8652344</ele>
        <time>2015-11-11T09:18:21Z</time>
      </trkpt>
      <trkpt lat="43.9445" lon="5.09297">
        <ele>180.8652344</ele>
        <time>2015-11-11T09:18:29Z</time>
      </trkpt>
      <trkpt lat="43.94437" lon="5.0929">
        <ele>179.9038086</ele>
        <time>2015-11-11T09:18:35Z</time>
      </trkpt>
      <trkpt lat="43.94415" lon="5.09283">
        <ele>179.9038086</ele>
        <time>2015-11-11T09:18:44Z</time>
      </trkpt>
      <trkpt lat="43.94412" lon="5.09279">
        <ele>179.9038086</ele>
        <time>2015-11-11T09:18:45Z</time>
      </trkpt>
      <trkpt lat="43.94387" lon="5.09271">
        <ele>180.3845215</ele>
        <time>2015-11-11T09:18:51Z</time>
      </trkpt>
      <trkpt lat="43.94372" lon="5.09264">
        <ele>178.942627</ele>
        <time>2015-11-11T09:18:54Z</time>
      </trkpt>
      <trkpt lat="43.9433" lon="5.09243">
        <ele>177.0200195</ele>
        <time>2015-11-11T09:19:02Z</time>
      </trkpt>
      <trkpt lat="43.94299" lon="5.09225">
        <ele>174.1358643</ele>
        <time>2015-11-11T09:19:09Z</time>
      </trkpt>
      <trkpt lat="43.9429" lon="5.09215">
        <ele>172.2132568</ele>
        <time>2015-11-11T09:19:13Z</time>
      </trkpt>
      <trkpt lat="43.94269" lon="5.09199">
        <ele>169.8100586</ele>
        <time>2015-11-11T09:19:19Z</time>
      </trkpt>
      <trkpt lat="43.9425" lon="5.09205">
        <ele>169.3294678</ele>
        <time>2015-11-11T09:19:28Z</time>
      </trkpt>
      <trkpt lat="43.94225" lon="5.09206">
        <ele>166.4453125</ele>
        <time>2015-11-11T09:19:38Z</time>
      </trkpt>
      <trkpt lat="43.94224" lon="5.09206">
        <ele>165.9647217</ele>
        <time>2015-11-11T09:19:39Z</time>
      </trkpt>
      <trkpt lat="43.94211" lon="5.09201">
        <ele>166.4453125</ele>
        <time>2015-11-11T09:19:44Z</time>
      </trkpt>
      <trkpt lat="43.94188" lon="5.09204">
        <ele>166.9260254</ele>
        <time>2015-11-11T09:19:49Z</time>
      </trkpt>
      <trkpt lat="43.94172" lon="5.09213">
        <ele>165.9647217</ele>
        <time>2015-11-11T09:19:52Z</time>
      </trkpt>
      <trkpt lat="43.94116" lon="5.09269">
        <ele>163.0808105</ele>
        <time>2015-11-11T09:20:06Z</time>
      </trkpt>
      <trkpt lat="43.94112" lon="5.09273">
        <ele>162.6000977</ele>
        <time>2015-11-11T09:20:07Z</time>
      </trkpt>
      <trkpt lat="43.94096" lon="5.0928">
        <ele>162.6000977</ele>
        <time>2015-11-11T09:20:11Z</time>
      </trkpt>
      <trkpt lat="43.94088" lon="5.09279">
        <ele>162.6000977</ele>
        <time>2015-11-11T09:20:13Z</time>
      </trkpt>
      <trkpt lat="43.94045" lon="5.09256">
        <ele>160.1968994</ele>
        <time>2015-11-11T09:20:24Z</time>
      </trkpt>
      <trkpt lat="43.94018" lon="5.09233">
        <ele>158.2741699</ele>
        <time>2015-11-11T09:20:31Z</time>
      </trkpt>
      <trkpt lat="43.94005" lon="5.09227">
        <ele>157.7935791</ele>
        <time>2015-11-11T09:20:34Z</time>
      </trkpt>
      <trkpt lat="43.93991" lon="5.09214">
        <ele>156.8321533</ele>
        <time>2015-11-11T09:20:38Z</time>
      </trkpt>
      <trkpt lat="43.93954" lon="5.09218">
        <ele>159.2354736</ele>
        <time>2015-11-11T09:20:47Z</time>
      </trkpt>
      <trkpt lat="43.93928" lon="5.09235">
        <ele>156.8321533</ele>
        <time>2015-11-11T09:20:55Z</time>
      </trkpt>
      <trkpt lat="43.93916" lon="5.09243">
        <ele>156.3515625</ele>
        <time>2015-11-11T09:20:58Z</time>
      </trkpt>
      <trkpt lat="43.93899" lon="5.09249">
        <ele>156.3515625</ele>
        <time>2015-11-11T09:21:02Z</time>
      </trkpt>
      <trkpt lat="43.93883" lon="5.09249">
        <ele>155.3902588</ele>
        <time>2015-11-11T09:21:05Z</time>
      </trkpt>
      <trkpt lat="43.93874" lon="5.09232">
        <ele>153.4676514</ele>
        <time>2015-11-11T09:21:10Z</time>
      </trkpt>
      <trkpt lat="43.9387" lon="5.09216">
        <ele>153.9483643</ele>
        <time>2015-11-11T09:21:14Z</time>
      </trkpt>
      <trkpt lat="43.93866" lon="5.09212">
        <ele>154.9095459</ele>
        <time>2015-11-11T09:21:17Z</time>
      </trkpt>
      <trkpt lat="43.93858" lon="5.09214">
        <ele>155.3902588</ele>
        <time>2015-11-11T09:21:28Z</time>
      </trkpt>
      <trkpt lat="43.93851" lon="5.09213">
        <ele>155.3902588</ele>
        <time>2015-11-11T09:21:32Z</time>
      </trkpt>
      <trkpt lat="43.93827" lon="5.09221">
        <ele>157.7935791</ele>
        <time>2015-11-11T09:21:43Z</time>
      </trkpt>
      <trkpt lat="43.93812" lon="5.09224">
        <ele>158.7547607</ele>
        <time>2015-11-11T09:21:51Z</time>
      </trkpt>
      <trkpt lat="43.93807" lon="5.09225">
        <ele>159.7161865</ele>
        <time>2015-11-11T09:21:54Z</time>
      </trkpt>
      <trkpt lat="43.938" lon="5.09229">
        <ele>160.6774902</ele>
        <time>2015-11-11T09:22:00Z</time>
      </trkpt>
      <trkpt lat="43.93798" lon="5.09232">
        <ele>161.638916</ele>
        <time>2015-11-11T09:22:11Z</time>
      </trkpt>
      <trkpt lat="43.938" lon="5.09229">
        <ele>161.1582031</ele>
        <time>2015-11-11T09:23:14Z</time>
      </trkpt>
      <trkpt lat="43.93811" lon="5.09226">
        <ele>160.6774902</ele>
        <time>2015-11-11T09:23:19Z</time>
      </trkpt>
      <trkpt lat="43.93817" lon="5.09223">
        <ele>159.7161865</ele>
        <time>2015-11-11T09:23:21Z</time>
      </trkpt>
      <trkpt lat="43.93846" lon="5.09213">
        <ele>155.8709717</ele>
        <time>2015-11-11T09:23:29Z</time>
      </trkpt>
      <trkpt lat="43.93849" lon="5.09212">
        <ele>155.3902588</ele>
        <time>2015-11-11T09:23:30Z</time>
      </trkpt>
      <trkpt lat="43.93859" lon="5.09211">
        <ele>153.9483643</ele>
        <time>2015-11-11T09:23:34Z</time>
      </trkpt>
      <trkpt lat="43.9387" lon="5.09216">
        <ele>152.0257568</ele>
        <time>2015-11-11T09:23:39Z</time>
      </trkpt>
      <trkpt lat="43.93873" lon="5.09224">
        <ele>151.064209</ele>
        <time>2015-11-11T09:23:42Z</time>
      </trkpt>
      <trkpt lat="43.93873" lon="5.09238">
        <ele>151.064209</ele>
        <time>2015-11-11T09:23:46Z</time>
      </trkpt>
      <trkpt lat="43.93879" lon="5.09247">
        <ele>150.5836182</ele>
        <time>2015-11-11T09:23:51Z</time>
      </trkpt>
      <trkpt lat="43.93909" lon="5.09244">
        <ele>154.4289551</ele>
        <time>2015-11-11T09:24:05Z</time>
      </trkpt>
      <trkpt lat="43.93913" lon="5.09243">
        <ele>155.3902588</ele>
        <time>2015-11-11T09:24:07Z</time>
      </trkpt>
      <trkpt lat="43.93942" lon="5.09225">
        <ele>156.8321533</ele>
        <time>2015-11-11T09:24:21Z</time>
      </trkpt>
      <trkpt lat="43.93946" lon="5.09222">
        <ele>154.9095459</ele>
        <time>2015-11-11T09:24:24Z</time>
      </trkpt>
      <trkpt lat="43.9395" lon="5.09223">
        <ele>155.3902588</ele>
        <time>2015-11-11T09:24:28Z</time>
      </trkpt>
      <trkpt lat="43.93948" lon="5.0923">
        <ele>156.3515625</ele>
        <time>2015-11-11T09:24:34Z</time>
      </trkpt>
      <trkpt lat="43.93941" lon="5.09255">
        <ele>153.4676514</ele>
        <time>2015-11-11T09:24:43Z</time>
      </trkpt>
      <trkpt lat="43.93926" lon="5.09292">
        <ele>153.9483643</ele>
        <time>2015-11-11T09:24:54Z</time>
      </trkpt>
      <trkpt lat="43.93904" lon="5.09326">
        <ele>156.8321533</ele>
        <time>2015-11-11T09:25:06Z</time>
      </trkpt>
      <trkpt lat="43.939" lon="5.09332">
        <ele>156.8321533</ele>
        <time>2015-11-11T09:25:09Z</time>
      </trkpt>
      <trkpt lat="43.93896" lon="5.09341">
        <ele>158.2741699</ele>
        <time>2015-11-11T09:25:18Z</time>
      </trkpt>
      <trkpt lat="43.93894" lon="5.09353">
        <ele>155.8709717</ele>
        <time>2015-11-11T09:25:28Z</time>
      </trkpt>
      <trkpt lat="43.9389" lon="5.09366">
        <ele>154.9095459</ele>
        <time>2015-11-11T09:25:39Z</time>
      </trkpt>
      <trkpt lat="43.93888" lon="5.09374">
        <ele>155.3902588</ele>
        <time>2015-11-11T09:25:48Z</time>
      </trkpt>
      <trkpt lat="43.93887" lon="5.09374">
        <ele>155.8709717</ele>
        <time>2015-11-11T09:26:03Z</time>
      </trkpt>
      <trkpt lat="43.93886" lon="5.09375">
        <ele>155.8709717</ele>
        <time>2015-11-11T09:26:21Z</time>
      </trkpt>
      <trkpt lat="43.93879" lon="5.09388">
        <ele>155.8709717</ele>
        <time>2015-11-11T09:26:34Z</time>
      </trkpt>
      <trkpt lat="43.9387" lon="5.09406">
        <ele>157.3128662</ele>
        <time>2015-11-11T09:26:42Z</time>
      </trkpt>
      <trkpt lat="43.93862" lon="5.09416">
        <ele>159.2354736</ele>
        <time>2015-11-11T09:26:52Z</time>
      </trkpt>
      <trkpt lat="43.93857" lon="5.09417">
        <ele>164.5227051</ele>
        <time>2015-11-11T09:27:01Z</time>
      </trkpt>
      <trkpt lat="43.93855" lon="5.09422">
        <ele>165.4841309</ele>
        <time>2015-11-11T09:27:12Z</time>
      </trkpt>
      <trkpt lat="43.9385" lon="5.09427">
        <ele>165.003418</ele>
        <time>2015-11-11T09:27:21Z</time>
      </trkpt>
      <trkpt lat="43.93827" lon="5.09437">
        <ele>166.4453125</ele>
        <time>2015-11-11T09:27:30Z</time>
      </trkpt>
      <trkpt lat="43.93819" lon="5.09442">
        <ele>167.8873291</ele>
        <time>2015-11-11T09:27:38Z</time>
      </trkpt>
      <trkpt lat="43.93819" lon="5.09442">
        <ele>167.8873291</ele>
        <time>2015-11-11T09:27:39Z</time>
      </trkpt>
      <trkpt lat="43.93812" lon="5.09445">
        <ele>167.4067383</ele>
        <time>2015-11-11T09:27:44Z</time>
      </trkpt>
      <trkpt lat="43.93799" lon="5.0945">
        <ele>168.368042</ele>
        <time>2015-11-11T09:27:52Z</time>
      </trkpt>
      <trkpt lat="43.93784" lon="5.09442">
        <ele>168.8487549</ele>
        <time>2015-11-11T09:28:00Z</time>
      </trkpt>
      <trkpt lat="43.93771" lon="5.09433">
        <ele>171.732666</ele>
        <time>2015-11-11T09:28:06Z</time>
      </trkpt>
      <trkpt lat="43.93764" lon="5.0944">
        <ele>173.6552734</ele>
        <time>2015-11-11T09:28:11Z</time>
      </trkpt>
      <trkpt lat="43.93762" lon="5.09447">
        <ele>175.09729</ele>
        <time>2015-11-11T09:28:19Z</time>
      </trkpt>
      <trkpt lat="43.93762" lon="5.09447">
        <ele>175.5778809</ele>
        <time>2015-11-11T09:28:20Z</time>
      </trkpt>
      <trkpt lat="43.93757" lon="5.09456">
        <ele>176.5393066</ele>
        <time>2015-11-11T09:28:32Z</time>
      </trkpt>
      <trkpt lat="43.9375" lon="5.09467">
        <ele>177.5006104</ele>
        <time>2015-11-11T09:28:47Z</time>
      </trkpt>
      <trkpt lat="43.93748" lon="5.09473">
        <ele>177.5006104</ele>
        <time>2015-11-11T09:28:55Z</time>
      </trkpt>
      <trkpt lat="43.93745" lon="5.09481">
        <ele>178.4619141</ele>
        <time>2015-11-11T09:29:05Z</time>
      </trkpt>
      <trkpt lat="43.93742" lon="5.09491">
        <ele>177.9812012</ele>
        <time>2015-11-11T09:29:15Z</time>
      </trkpt>
      <trkpt lat="43.93732" lon="5.09505">
        <ele>179.4232178</ele>
        <time>2015-11-11T09:29:25Z</time>
      </trkpt>
      <trkpt lat="43.9373" lon="5.09509">
        <ele>179.9038086</ele>
        <time>2015-11-11T09:29:27Z</time>
      </trkpt>
      <trkpt lat="43.93728" lon="5.09511">
        <ele>179.9038086</ele>
        <time>2015-11-11T09:29:29Z</time>
      </trkpt>
      <trkpt lat="43.9373" lon="5.09516">
        <ele>179.9038086</ele>
        <time>2015-11-11T09:29:34Z</time>
      </trkpt>
      <trkpt lat="43.9373" lon="5.09522">
        <ele>180.3845215</ele>
        <time>2015-11-11T09:29:38Z</time>
      </trkpt>
      <trkpt lat="43.93727" lon="5.09552">
        <ele>179.9038086</ele>
        <time>2015-11-11T09:29:54Z</time>
      </trkpt>
      <trkpt lat="43.93722" lon="5.09583">
        <ele>182.7878418</ele>
        <time>2015-11-11T09:30:07Z</time>
      </trkpt>
      <trkpt lat="43.93722" lon="5.09589">
        <ele>183.2684326</ele>
        <time>2015-11-11T09:30:09Z</time>
      </trkpt>
      <trkpt lat="43.93715" lon="5.09612">
        <ele>182.7878418</ele>
        <time>2015-11-11T09:30:18Z</time>
      </trkpt>
      <trkpt lat="43.93709" lon="5.09646">
        <ele>183.7490234</ele>
        <time>2015-11-11T09:30:29Z</time>
      </trkpt>
      <trkpt lat="43.93698" lon="5.09691">
        <ele>189.5169678</ele>
        <time>2015-11-11T09:30:42Z</time>
      </trkpt>
      <trkpt lat="43.93689" lon="5.09735">
        <ele>191.9202881</ele>
        <time>2015-11-11T09:30:55Z</time>
      </trkpt>
      <trkpt lat="43.93681" lon="5.09786">
        <ele>191.4395752</ele>
        <time>2015-11-11T09:31:09Z</time>
      </trkpt>
      <trkpt lat="43.93671" lon="5.0983">
        <ele>191.9202881</ele>
        <time>2015-11-11T09:31:23Z</time>
      </trkpt>
      <trkpt lat="43.93665" lon="5.09866">
        <ele>192.8817139</ele>
        <time>2015-11-11T09:31:34Z</time>
      </trkpt>
      <trkpt lat="43.93658" lon="5.09902">
        <ele>197.6882324</ele>
        <time>2015-11-11T09:31:46Z</time>
      </trkpt>
      <trkpt lat="43.9365" lon="5.09944">
        <ele>199.6108398</ele>
        <time>2015-11-11T09:32:00Z</time>
      </trkpt>
      <trkpt lat="43.93649" lon="5.09947">
        <ele>199.6108398</ele>
        <time>2015-11-11T09:32:01Z</time>
      </trkpt>
      <trkpt lat="43.93648" lon="5.09952">
        <ele>199.130127</ele>
        <time>2015-11-11T09:32:03Z</time>
      </trkpt>
      <trkpt lat="43.93636" lon="5.09991">
        <ele>202.494873</ele>
        <time>2015-11-11T09:32:18Z</time>
      </trkpt>
      <trkpt lat="43.93636" lon="5.1002">
        <ele>202.494873</ele>
        <time>2015-11-11T09:32:30Z</time>
      </trkpt>
      <trkpt lat="43.93636" lon="5.10022">
        <ele>202.494873</ele>
        <time>2015-11-11T09:32:31Z</time>
      </trkpt>
      <trkpt lat="43.93645" lon="5.10061">
        <ele>202.494873</ele>
        <time>2015-11-11T09:32:45Z</time>
      </trkpt>
      <trkpt lat="43.93652" lon="5.10099">
        <ele>205.8594971</ele>
        <time>2015-11-11T09:32:59Z</time>
      </trkpt>
      <trkpt lat="43.93657" lon="5.1012">
        <ele>206.3400879</ele>
        <time>2015-11-11T09:33:07Z</time>
      </trkpt>
      <trkpt lat="43.93664" lon="5.10125">
        <ele>205.8594971</ele>
        <time>2015-11-11T09:33:11Z</time>
      </trkpt>
      <trkpt lat="43.93691" lon="5.10123">
        <ele>209.704834</ele>
        <time>2015-11-11T09:33:24Z</time>
      </trkpt>
      <trkpt lat="43.9372" lon="5.10121">
        <ele>213.0693359</ele>
        <time>2015-11-11T09:33:38Z</time>
      </trkpt>
      <trkpt lat="43.93747" lon="5.10125">
        <ele>216.43396</ele>
        <time>2015-11-11T09:33:50Z</time>
      </trkpt>
      <trkpt lat="43.93775" lon="5.1013">
        <ele>218.3565674</ele>
        <time>2015-11-11T09:34:01Z</time>
      </trkpt>
      <trkpt lat="43.93804" lon="5.10145">
        <ele>221.2406006</ele>
        <time>2015-11-11T09:34:14Z</time>
      </trkpt>
      <trkpt lat="43.9383" lon="5.10149">
        <ele>222.2017822</ele>
        <time>2015-11-11T09:34:27Z</time>
      </trkpt>
      <trkpt lat="43.93852" lon="5.10141">
        <ele>222.6824951</ele>
        <time>2015-11-11T09:34:37Z</time>
      </trkpt>
      <trkpt lat="43.93872" lon="5.10142">
        <ele>225.0859375</ele>
        <time>2015-11-11T09:34:47Z</time>
      </trkpt>
      <trkpt lat="43.93893" lon="5.10141">
        <ele>227.4891357</ele>
        <time>2015-11-11T09:34:56Z</time>
      </trkpt>
      <trkpt lat="43.93913" lon="5.10141">
        <ele>229.4117432</ele>
        <time>2015-11-11T09:35:06Z</time>
      </trkpt>
      <trkpt lat="43.93934" lon="5.1014">
        <ele>230.3730469</ele>
        <time>2015-11-11T09:35:15Z</time>
      </trkpt>
      <trkpt lat="43.9396" lon="5.10139">
        <ele>233.2570801</ele>
        <time>2015-11-11T09:35:27Z</time>
      </trkpt>
      <trkpt lat="43.9399" lon="5.10136">
        <ele>238.0635986</ele>
        <time>2015-11-11T09:35:40Z</time>
      </trkpt>
      <trkpt lat="43.94015" lon="5.10131">
        <ele>241.4282227</ele>
        <time>2015-11-11T09:35:51Z</time>
      </trkpt>
      <trkpt lat="43.94026" lon="5.10121">
        <ele>242.3896484</ele>
        <time>2015-11-11T09:35:59Z</time>
      </trkpt>
      <trkpt lat="43.94026" lon="5.10119">
        <ele>242.3896484</ele>
        <time>2015-11-11T09:36:00Z</time>
      </trkpt>
      <trkpt lat="43.94022" lon="5.10096">
        <ele>239.0249023</ele>
        <time>2015-11-11T09:36:10Z</time>
      </trkpt>
      <trkpt lat="43.94021" lon="5.10059">
        <ele>236.6217041</ele>
        <time>2015-11-11T09:36:17Z</time>
      </trkpt>
      <trkpt lat="43.94042" lon="5.1002">
        <ele>235.1796875</ele>
        <time>2015-11-11T09:36:27Z</time>
      </trkpt>
      <trkpt lat="43.94066" lon="5.09968">
        <ele>231.3343506</ele>
        <time>2015-11-11T09:36:38Z</time>
      </trkpt>
      <trkpt lat="43.94073" lon="5.0994">
        <ele>229.892334</ele>
        <time>2015-11-11T09:36:43Z</time>
      </trkpt>
      <trkpt lat="43.94076" lon="5.09912">
        <ele>230.3730469</ele>
        <time>2015-11-11T09:36:47Z</time>
      </trkpt>
      <trkpt lat="43.94075" lon="5.09898">
        <ele>229.892334</ele>
        <time>2015-11-11T09:36:49Z</time>
      </trkpt>
      <trkpt lat="43.94077" lon="5.09883">
        <ele>229.4117432</ele>
        <time>2015-11-11T09:36:51Z</time>
      </trkpt>
      <trkpt lat="43.94082" lon="5.09849">
        <ele>227.4891357</ele>
        <time>2015-11-11T09:36:56Z</time>
      </trkpt>
      <trkpt lat="43.94076" lon="5.09784">
        <ele>224.1245117</ele>
        <time>2015-11-11T09:37:05Z</time>
      </trkpt>
      <trkpt lat="43.94065" lon="5.0975">
        <ele>221.2406006</ele>
        <time>2015-11-11T09:37:10Z</time>
      </trkpt>
      <trkpt lat="43.94059" lon="5.09724">
        <ele>217.3953857</ele>
        <time>2015-11-11T09:37:17Z</time>
      </trkpt>
      <trkpt lat="43.94064" lon="5.09708">
        <ele>216.9146729</ele>
        <time>2015-11-11T09:37:20Z</time>
      </trkpt>
      <trkpt lat="43.9408" lon="5.09689">
        <ele>214.9919434</ele>
        <time>2015-11-11T09:37:24Z</time>
      </trkpt>
      <trkpt lat="43.94108" lon="5.09663">
        <ele>211.1467285</ele>
        <time>2015-11-11T09:37:30Z</time>
      </trkpt>
      <trkpt lat="43.9414" lon="5.09644">
        <ele>204.8980713</ele>
        <time>2015-11-11T09:37:37Z</time>
      </trkpt>
      <trkpt lat="43.94154" lon="5.09635">
        <ele>202.9754639</ele>
        <time>2015-11-11T09:37:40Z</time>
      </trkpt>
      <trkpt lat="43.94192" lon="5.09626">
        <ele>199.6108398</ele>
        <time>2015-11-11T09:37:46Z</time>
      </trkpt>
      <trkpt lat="43.94216" lon="5.09636">
        <ele>195.765625</ele>
        <time>2015-11-11T09:37:50Z</time>
      </trkpt>
      <trkpt lat="43.94243" lon="5.0968">
        <ele>189.5169678</ele>
        <time>2015-11-11T09:37:56Z</time>
      </trkpt>
      <trkpt lat="43.9428" lon="5.09705">
        <ele>185.6717529</ele>
        <time>2015-11-11T09:38:02Z</time>
      </trkpt>
      <trkpt lat="43.94287" lon="5.09703">
        <ele>185.6717529</ele>
        <time>2015-11-11T09:38:03Z</time>
      </trkpt>
      <trkpt lat="43.94331" lon="5.09672">
        <ele>182.7878418</ele>
        <time>2015-11-11T09:38:09Z</time>
      </trkpt>
      <trkpt lat="43.94354" lon="5.09649">
        <ele>182.7878418</ele>
        <time>2015-11-11T09:38:12Z</time>
      </trkpt>
      <trkpt lat="43.94391" lon="5.09584">
        <ele>181.826416</ele>
        <time>2015-11-11T09:38:20Z</time>
      </trkpt>
      <trkpt lat="43.9441" lon="5.09517">
        <ele>182.7878418</ele>
        <time>2015-11-11T09:38:29Z</time>
      </trkpt>
      <trkpt lat="43.94424" lon="5.09429">
        <ele>181.826416</ele>
        <time>2015-11-11T09:38:38Z</time>
      </trkpt>
      <trkpt lat="43.94444" lon="5.09333">
        <ele>182.3071289</ele>
        <time>2015-11-11T09:38:48Z</time>
      </trkpt>
      <trkpt lat="43.94453" lon="5.09304">
        <ele>180.8652344</ele>
        <time>2015-11-11T09:38:51Z</time>
      </trkpt>
      <trkpt lat="43.9446" lon="5.09285">
        <ele>180.3845215</ele>
        <time>2015-11-11T09:38:53Z</time>
      </trkpt>
      <trkpt lat="43.94512" lon="5.09235">
        <ele>177.5006104</ele>
        <time>2015-11-11T09:39:01Z</time>
      </trkpt>
      <trkpt lat="43.94549" lon="5.09235">
        <ele>178.942627</ele>
        <time>2015-11-11T09:39:06Z</time>
      </trkpt>
      <trkpt lat="43.94564" lon="5.09243">
        <ele>180.3845215</ele>
        <time>2015-11-11T09:39:09Z</time>
      </trkpt>
      <trkpt lat="43.9461" lon="5.09266">
        <ele>180.3845215</ele>
        <time>2015-11-11T09:39:19Z</time>
      </trkpt>
      <trkpt lat="43.94627" lon="5.09273">
        <ele>179.4232178</ele>
        <time>2015-11-11T09:39:25Z</time>
      </trkpt>
      <trkpt lat="43.94633" lon="5.09277">
        <ele>178.4619141</ele>
        <time>2015-11-11T09:39:32Z</time>
      </trkpt>
      <trkpt lat="43.94627" lon="5.09274">
        <ele>177.0200195</ele>
        <time>2015-11-11T09:39:39Z</time>
      </trkpt>
      <trkpt lat="43.94626" lon="5.09274">
        <ele>177.0200195</ele>
        <time>2015-11-11T09:39:40Z</time>
      </trkpt>
      <trkpt lat="43.94627" lon="5.09278">
        <ele>176.0585938</ele>
        <time>2015-11-11T09:39:54Z</time>
      </trkpt>
      <trkpt lat="43.94627" lon="5.09278">
        <ele>176.0585938</ele>
        <time>2015-11-11T09:42:06Z</time>
      </trkpt>
      <trkpt lat="43.94627" lon="5.09278">
        <ele>176.0585938</ele>
        <time>2015-11-11T09:42:45Z</time>
      </trkpt>
      <trkpt lat="43.94654" lon="5.09281">
        <ele>176.5393066</ele>
        <time>2015-11-11T09:42:55Z</time>
      </trkpt>
      <trkpt lat="43.94678" lon="5.09281">
        <ele>176.5393066</ele>
        <time>2015-11-11T09:43:01Z</time>
      </trkpt>
      <trkpt lat="43.94738" lon="5.09266">
        <ele>177.0200195</ele>
        <time>2015-11-11T09:43:14Z</time>
      </trkpt>
      <trkpt lat="43.94792" lon="5.09247">
        <ele>177.5006104</ele>
        <time>2015-11-11T09:43:26Z</time>
      </trkpt>
      <trkpt lat="43.94805" lon="5.0924">
        <ele>177.5006104</ele>
        <time>2015-11-11T09:43:29Z</time>
      </trkpt>
      <trkpt lat="43.94829" lon="5.09197">
        <ele>175.09729</ele>
        <time>2015-11-11T09:43:37Z</time>
      </trkpt>
      <trkpt lat="43.9483" lon="5.09189">
        <ele>174.6165771</ele>
        <time>2015-11-11T09:43:38Z</time>
      </trkpt>
      <trkpt lat="43.94834" lon="5.09161">
        <ele>173.6552734</ele>
        <time>2015-11-11T09:43:41Z</time>
      </trkpt>
      <trkpt lat="43.94822" lon="5.09116">
        <ele>171.732666</ele>
        <time>2015-11-11T09:43:46Z</time>
      </trkpt>
      <trkpt lat="43.94814" lon="5.09108">
        <ele>171.732666</ele>
        <time>2015-11-11T09:43:48Z</time>
      </trkpt>
      <trkpt lat="43.94801" lon="5.09098">
        <ele>172.6939697</ele>
        <time>2015-11-11T09:43:56Z</time>
      </trkpt>
      <trkpt lat="43.94795" lon="5.09095">
        <ele>171.2520752</ele>
        <time>2015-11-11T09:44:08Z</time>
      </trkpt>
      <trkpt lat="43.94816" lon="5.09111">
        <ele>169.3294678</ele>
        <time>2015-11-11T09:44:22Z</time>
      </trkpt>
      <trkpt lat="43.94827" lon="5.09124">
        <ele>168.8487549</ele>
        <time>2015-11-11T09:44:29Z</time>
      </trkpt>
      <trkpt lat="43.9483" lon="5.09135">
        <ele>169.3294678</ele>
        <time>2015-11-11T09:44:39Z</time>
      </trkpt>
      <trkpt lat="43.94833" lon="5.09136">
        <ele>170.2906494</ele>
        <time>2015-11-11T09:44:57Z</time>
      </trkpt>
      <trkpt lat="43.94832" lon="5.09131">
        <ele>170.7713623</ele>
        <time>2015-11-11T09:45:06Z</time>
      </trkpt>
      <trkpt lat="43.94821" lon="5.09114">
        <ele>170.2906494</ele>
        <time>2015-11-11T09:45:13Z</time>
      </trkpt>
      <trkpt lat="43.94776" lon="5.09076">
        <ele>171.2520752</ele>
        <time>2015-11-11T09:45:27Z</time>
      </trkpt>
      <trkpt lat="43.94747" lon="5.09048">
        <ele>177.9812012</ele>
        <time>2015-11-11T09:45:40Z</time>
      </trkpt>
      <trkpt lat="43.9472" lon="5.09022">
        <ele>179.9038086</ele>
        <time>2015-11-11T09:45:53Z</time>
      </trkpt>
      <trkpt lat="43.94704" lon="5.09008">
        <ele>181.826416</ele>
        <time>2015-11-11T09:46:00Z</time>
      </trkpt>
      <trkpt lat="43.9468" lon="5.08988">
        <ele>183.2684326</ele>
        <time>2015-11-11T09:46:11Z</time>
      </trkpt>
      <trkpt lat="43.94649" lon="5.08957">
        <ele>186.6331787</ele>
        <time>2015-11-11T09:46:25Z</time>
      </trkpt>
      <trkpt lat="43.94611" lon="5.08905">
        <ele>186.1524658</ele>
        <time>2015-11-11T09:46:42Z</time>
      </trkpt>
      <trkpt lat="43.94584" lon="5.08841">
        <ele>184.7105713</ele>
        <time>2015-11-11T09:46:58Z</time>
      </trkpt>
      <trkpt lat="43.94559" lon="5.08785">
        <ele>185.1911621</ele>
        <time>2015-11-11T09:47:12Z</time>
      </trkpt>
      <trkpt lat="43.94522" lon="5.08757">
        <ele>188.5557861</ele>
        <time>2015-11-11T09:47:24Z</time>
      </trkpt>
      <trkpt lat="43.94482" lon="5.08734">
        <ele>188.0750732</ele>
        <time>2015-11-11T09:47:36Z</time>
      </trkpt>
      <trkpt lat="43.94445" lon="5.08706">
        <ele>187.1137695</ele>
        <time>2015-11-11T09:47:45Z</time>
      </trkpt>
      <trkpt lat="43.94431" lon="5.08676">
        <ele>184.7105713</ele>
        <time>2015-11-11T09:47:50Z</time>
      </trkpt>
      <trkpt lat="43.9443" lon="5.08649">
        <ele>185.1911621</ele>
        <time>2015-11-11T09:47:57Z</time>
      </trkpt>
      <trkpt lat="43.9442" lon="5.0863">
        <ele>183.2684326</ele>
        <time>2015-11-11T09:48:04Z</time>
      </trkpt>
      <trkpt lat="43.94427" lon="5.08591">
        <ele>182.7878418</ele>
        <time>2015-11-11T09:48:11Z</time>
      </trkpt>
      <trkpt lat="43.94451" lon="5.08555">
        <ele>185.6717529</ele>
        <time>2015-11-11T09:48:22Z</time>
      </trkpt>
      <trkpt lat="43.94487" lon="5.08481">
        <ele>185.6717529</ele>
        <time>2015-11-11T09:48:40Z</time>
      </trkpt>
      <trkpt lat="43.94511" lon="5.08441">
        <ele>187.1137695</ele>
        <time>2015-11-11T09:48:50Z</time>
      </trkpt>
      <trkpt lat="43.94541" lon="5.08362">
        <ele>188.5557861</ele>
        <time>2015-11-11T09:49:06Z</time>
      </trkpt>
      <trkpt lat="43.94561" lon="5.08314">
        <ele>189.036377</ele>
        <time>2015-11-11T09:49:16Z</time>
      </trkpt>
      <trkpt lat="43.94586" lon="5.08264">
        <ele>192.401123</ele>
        <time>2015-11-11T09:49:30Z</time>
      </trkpt>
      <trkpt lat="43.94594" lon="5.08254">
        <ele>193.8430176</ele>
        <time>2015-11-11T09:49:35Z</time>
      </trkpt>
      <trkpt lat="43.94602" lon="5.08259">
        <ele>193.3623047</ele>
        <time>2015-11-11T09:49:39Z</time>
      </trkpt>
      <trkpt lat="43.94604" lon="5.08261">
        <ele>193.8430176</ele>
        <time>2015-11-11T09:49:53Z</time>
      </trkpt>
      <trkpt lat="43.94606" lon="5.08265">
        <ele>193.8430176</ele>
        <time>2015-11-11T09:50:34Z</time>
      </trkpt>
      <trkpt lat="43.94616" lon="5.08272">
        <ele>194.3237305</ele>
        <time>2015-11-11T09:50:45Z</time>
      </trkpt>
      <trkpt lat="43.94613" lon="5.08273">
        <ele>193.3623047</ele>
        <time>2015-11-11T09:51:09Z</time>
      </trkpt>
      <trkpt lat="43.94613" lon="5.08271">
        <ele>192.8817139</ele>
        <time>2015-11-11T09:51:11Z</time>
      </trkpt>
      <trkpt lat="43.94613" lon="5.08266">
        <ele>192.8817139</ele>
        <time>2015-11-11T09:51:14Z</time>
      </trkpt>
      <trkpt lat="43.94627" lon="5.08251">
        <ele>192.401123</ele>
        <time>2015-11-11T09:51:23Z</time>
      </trkpt>
      <trkpt lat="43.94648" lon="5.08226">
        <ele>190.9589844</ele>
        <time>2015-11-11T09:51:30Z</time>
      </trkpt>
      <trkpt lat="43.94681" lon="5.08208">
        <ele>190.9589844</ele>
        <time>2015-11-11T09:51:40Z</time>
      </trkpt>
      <trkpt lat="43.94715" lon="5.08212">
        <ele>189.9976807</ele>
        <time>2015-11-11T09:51:48Z</time>
      </trkpt>
      <trkpt lat="43.94729" lon="5.08211">
        <ele>191.4395752</ele>
        <time>2015-11-11T09:51:51Z</time>
      </trkpt>
      <trkpt lat="43.94766" lon="5.0821">
        <ele>193.3623047</ele>
        <time>2015-11-11T09:52:00Z</time>
      </trkpt>
      <trkpt lat="43.94804" lon="5.08218">
        <ele>194.3237305</ele>
        <time>2015-11-11T09:52:10Z</time>
      </trkpt>
      <trkpt lat="43.94829" lon="5.08218">
        <ele>194.8043213</ele>
        <time>2015-11-11T09:52:17Z</time>
      </trkpt>
      <trkpt lat="43.94843" lon="5.08217">
        <ele>192.8817139</ele>
        <time>2015-11-11T09:52:22Z</time>
      </trkpt>
      <trkpt lat="43.94865" lon="5.08226">
        <ele>194.3237305</ele>
        <time>2015-11-11T09:52:32Z</time>
      </trkpt>
      <trkpt lat="43.94897" lon="5.08245">
        <ele>195.2849121</ele>
        <time>2015-11-11T09:52:49Z</time>
      </trkpt>
      <trkpt lat="43.94926" lon="5.08271">
        <ele>196.7269287</ele>
        <time>2015-11-11T09:53:07Z</time>
      </trkpt>
      <trkpt lat="43.94947" lon="5.08289">
        <ele>199.130127</ele>
        <time>2015-11-11T09:53:20Z</time>
      </trkpt>
      <trkpt lat="43.94966" lon="5.08279">
        <ele>197.6882324</ele>
        <time>2015-11-11T09:53:29Z</time>
      </trkpt>
      <trkpt lat="43.94992" lon="5.08243">
        <ele>197.2075195</ele>
        <time>2015-11-11T09:53:39Z</time>
      </trkpt>
      <trkpt lat="43.95" lon="5.08235">
        <ele>197.6882324</ele>
        <time>2015-11-11T09:53:43Z</time>
      </trkpt>
      <trkpt lat="43.95012" lon="5.08241">
        <ele>201.5335693</ele>
        <time>2015-11-11T09:53:50Z</time>
      </trkpt>
      <trkpt lat="43.95016" lon="5.08247">
        <ele>201.0528564</ele>
        <time>2015-11-11T09:53:53Z</time>
      </trkpt>
      <trkpt lat="43.95023" lon="5.08251">
        <ele>201.5335693</ele>
        <time>2015-11-11T09:53:58Z</time>
      </trkpt>
      <trkpt lat="43.95058" lon="5.08271">
        <ele>203.4561768</ele>
        <time>2015-11-11T09:54:19Z</time>
      </trkpt>
      <trkpt lat="43.95081" lon="5.08289">
        <ele>202.9754639</ele>
        <time>2015-11-11T09:54:29Z</time>
      </trkpt>
      <trkpt lat="43.95097" lon="5.08298">
        <ele>204.4174805</ele>
        <time>2015-11-11T09:54:36Z</time>
      </trkpt>
      <trkpt lat="43.95105" lon="5.08299">
        <ele>205.8594971</ele>
        <time>2015-11-11T09:54:40Z</time>
      </trkpt>
      <trkpt lat="43.95111" lon="5.08302">
        <ele>206.3400879</ele>
        <time>2015-11-11T09:54:43Z</time>
      </trkpt>
      <trkpt lat="43.95121" lon="5.08303">
        <ele>207.7821045</ele>
        <time>2015-11-11T09:54:48Z</time>
      </trkpt>
      <trkpt lat="43.95136" lon="5.08301">
        <ele>208.2628174</ele>
        <time>2015-11-11T09:54:54Z</time>
      </trkpt>
      <trkpt lat="43.95161" lon="5.08309">
        <ele>208.2628174</ele>
        <time>2015-11-11T09:55:02Z</time>
      </trkpt>
      <trkpt lat="43.95192" lon="5.08311">
        <ele>205.8594971</ele>
        <time>2015-11-11T09:55:10Z</time>
      </trkpt>
      <trkpt lat="43.95215" lon="5.08298">
        <ele>206.3400879</ele>
        <time>2015-11-11T09:55:16Z</time>
      </trkpt>
      <trkpt lat="43.95224" lon="5.08286">
        <ele>203.9368896</ele>
        <time>2015-11-11T09:55:21Z</time>
      </trkpt>
      <trkpt lat="43.95226" lon="5.08267">
        <ele>201.0528564</ele>
        <time>2015-11-11T09:55:25Z</time>
      </trkpt>
      <trkpt lat="43.95244" lon="5.08259">
        <ele>200.0916748</ele>
        <time>2015-11-11T09:55:31Z</time>
      </trkpt>
      <trkpt lat="43.95277" lon="5.08278">
        <ele>194.3237305</ele>
        <time>2015-11-11T09:55:39Z</time>
      </trkpt>
      <trkpt lat="43.95292" lon="5.08282">
        <ele>193.8430176</ele>
        <time>2015-11-11T09:55:47Z</time>
      </trkpt>
      <trkpt lat="43.95301" lon="5.0828">
        <ele>192.401123</ele>
        <time>2015-11-11T09:55:54Z</time>
      </trkpt>
      <trkpt lat="43.95305" lon="5.08282">
        <ele>192.401123</ele>
        <time>2015-11-11T09:56:04Z</time>
      </trkpt>
      <trkpt lat="43.95325" lon="5.08294">
        <ele>191.4395752</ele>
        <time>2015-11-11T09:56:12Z</time>
      </trkpt>
      <trkpt lat="43.95338" lon="5.08295">
        <ele>189.9976807</ele>
        <time>2015-11-11T09:56:18Z</time>
      </trkpt>
      <trkpt lat="43.95346" lon="5.08295">
        <ele>188.5557861</ele>
        <time>2015-11-11T09:56:25Z</time>
      </trkpt>
      <trkpt lat="43.95355" lon="5.08299">
        <ele>188.5557861</ele>
        <time>2015-11-11T09:56:29Z</time>
      </trkpt>
      <trkpt lat="43.95358" lon="5.08295">
        <ele>189.9976807</ele>
        <time>2015-11-11T09:56:31Z</time>
      </trkpt>
      <trkpt lat="43.95366" lon="5.08294">
        <ele>190.4783936</ele>
        <time>2015-11-11T09:56:34Z</time>
      </trkpt>
      <trkpt lat="43.95397" lon="5.08277">
        <ele>190.4783936</ele>
        <time>2015-11-11T09:56:44Z</time>
      </trkpt>
      <trkpt lat="43.95414" lon="5.08265">
        <ele>191.9202881</ele>
        <time>2015-11-11T09:56:52Z</time>
      </trkpt>
      <trkpt lat="43.95421" lon="5.08262">
        <ele>192.8817139</ele>
        <time>2015-11-11T09:56:55Z</time>
      </trkpt>
      <trkpt lat="43.95435" lon="5.08237">
        <ele>190.9589844</ele>
        <time>2015-11-11T09:57:05Z</time>
      </trkpt>
      <trkpt lat="43.95452" lon="5.08212">
        <ele>186.6331787</ele>
        <time>2015-11-11T09:57:13Z</time>
      </trkpt>
      <trkpt lat="43.9546" lon="5.0821">
        <ele>185.6717529</ele>
        <time>2015-11-11T09:57:15Z</time>
      </trkpt>
      <trkpt lat="43.95479" lon="5.08203">
        <ele>184.2298584</ele>
        <time>2015-11-11T09:57:19Z</time>
      </trkpt>
      <trkpt lat="43.95495" lon="5.08208">
        <ele>183.2684326</ele>
        <time>2015-11-11T09:57:22Z</time>
      </trkpt>
      <trkpt lat="43.95515" lon="5.08205">
        <ele>180.8652344</ele>
        <time>2015-11-11T09:57:26Z</time>
      </trkpt>
      <trkpt lat="43.95524" lon="5.08216">
        <ele>179.4232178</ele>
        <time>2015-11-11T09:57:29Z</time>
      </trkpt>
      <trkpt lat="43.95538" lon="5.08235">
        <ele>177.0200195</ele>
        <time>2015-11-11T09:57:33Z</time>
      </trkpt>
      <trkpt lat="43.95556" lon="5.08248">
        <ele>177.0200195</ele>
        <time>2015-11-11T09:57:37Z</time>
      </trkpt>
      <trkpt lat="43.9557" lon="5.08248">
        <ele>176.0585938</ele>
        <time>2015-11-11T09:57:40Z</time>
      </trkpt>
      <trkpt lat="43.95595" lon="5.08236">
        <ele>172.2132568</ele>
        <time>2015-11-11T09:57:47Z</time>
      </trkpt>
      <trkpt lat="43.95607" lon="5.08235">
        <ele>167.8873291</ele>
        <time>2015-11-11T09:57:49Z</time>
      </trkpt>
      <trkpt lat="43.95625" lon="5.08226">
        <ele>165.003418</ele>
        <time>2015-11-11T09:57:52Z</time>
      </trkpt>
      <trkpt lat="43.95647" lon="5.0821">
        <ele>164.0421143</ele>
        <time>2015-11-11T09:57:56Z</time>
      </trkpt>
      <trkpt lat="43.95665" lon="5.08208">
        <ele>164.0421143</ele>
        <time>2015-11-11T09:57:59Z</time>
      </trkpt>
      <trkpt lat="43.95698" lon="5.08208">
        <ele>164.5227051</ele>
        <time>2015-11-11T09:58:06Z</time>
      </trkpt>
      <trkpt lat="43.957" lon="5.08209">
        <ele>164.5227051</ele>
        <time>2015-11-11T09:58:12Z</time>
      </trkpt>
      <trkpt lat="43.95724" lon="5.08222">
        <ele>164.0421143</ele>
        <time>2015-11-11T09:58:21Z</time>
      </trkpt>
      <trkpt lat="43.9575" lon="5.08208">
        <ele>165.003418</ele>
        <time>2015-11-11T09:58:29Z</time>
      </trkpt>
      <trkpt lat="43.95788" lon="5.08191">
        <ele>165.9647217</ele>
        <time>2015-11-11T09:58:40Z</time>
      </trkpt>
      <trkpt lat="43.95823" lon="5.08177">
        <ele>168.8487549</ele>
        <time>2015-11-11T09:58:51Z</time>
      </trkpt>
      <trkpt lat="43.9585" lon="5.08169">
        <ele>169.8100586</ele>
        <time>2015-11-11T09:59:01Z</time>
      </trkpt>
      <trkpt lat="43.95878" lon="5.0816">
        <ele>168.8487549</ele>
        <time>2015-11-11T09:59:11Z</time>
      </trkpt>
      <trkpt lat="43.95919" lon="5.0815">
        <ele>171.2520752</ele>
        <time>2015-11-11T09:59:24Z</time>
      </trkpt>
      <trkpt lat="43.95937" lon="5.08147">
        <ele>172.2132568</ele>
        <time>2015-11-11T09:59:31Z</time>
      </trkpt>
      <trkpt lat="43.95943" lon="5.08142">
        <ele>170.7713623</ele>
        <time>2015-11-11T09:59:36Z</time>
      </trkpt>
      <trkpt lat="43.95941" lon="5.08138">
        <ele>170.7713623</ele>
        <time>2015-11-11T09:59:39Z</time>
      </trkpt>
      <trkpt lat="43.95938" lon="5.08128">
        <ele>171.2520752</ele>
        <time>2015-11-11T09:59:44Z</time>
      </trkpt>
      <trkpt lat="43.95946" lon="5.08125">
        <ele>171.2520752</ele>
        <time>2015-11-11T09:59:49Z</time>
      </trkpt>
      <trkpt lat="43.95956" lon="5.08111">
        <ele>170.7713623</ele>
        <time>2015-11-11T09:59:53Z</time>
      </trkpt>
      <trkpt lat="43.95978" lon="5.08106">
        <ele>169.3294678</ele>
        <time>2015-11-11T10:00:00Z</time>
      </trkpt>
      <trkpt lat="43.95997" lon="5.08098">
        <ele>171.2520752</ele>
        <time>2015-11-11T10:00:08Z</time>
      </trkpt>
      <trkpt lat="43.96013" lon="5.08089">
        <ele>172.6939697</ele>
        <time>2015-11-11T10:00:18Z</time>
      </trkpt>
      <trkpt lat="43.96019" lon="5.08085">
        <ele>173.1746826</ele>
        <time>2015-11-11T10:00:22Z</time>
      </trkpt>
      <trkpt lat="43.96036" lon="5.08091">
        <ele>173.6552734</ele>
        <time>2015-11-11T10:00:30Z</time>
      </trkpt>
      <trkpt lat="43.9605" lon="5.08114">
        <ele>172.6939697</ele>
        <time>2015-11-11T10:00:41Z</time>
      </trkpt>
      <trkpt lat="43.96052" lon="5.0812">
        <ele>172.2132568</ele>
        <time>2015-11-11T10:00:44Z</time>
      </trkpt>
      <trkpt lat="43.96054" lon="5.0812">
        <ele>172.2132568</ele>
        <time>2015-11-11T10:00:46Z</time>
      </trkpt>
      <trkpt lat="43.96056" lon="5.08114">
        <ele>170.7713623</ele>
        <time>2015-11-11T10:00:50Z</time>
      </trkpt>
      <trkpt lat="43.96056" lon="5.08094">
        <ele>171.732666</ele>
        <time>2015-11-11T10:00:59Z</time>
      </trkpt>
      <trkpt lat="43.96064" lon="5.08073">
        <ele>173.6552734</ele>
        <time>2015-11-11T10:01:10Z</time>
      </trkpt>
      <trkpt lat="43.96067" lon="5.08063">
        <ele>174.6165771</ele>
        <time>2015-11-11T10:01:15Z</time>
      </trkpt>
      <trkpt lat="43.96069" lon="5.08055">
        <ele>175.5778809</ele>
        <time>2015-11-11T10:01:19Z</time>
      </trkpt>
      <trkpt lat="43.96073" lon="5.08045">
        <ele>177.5006104</ele>
        <time>2015-11-11T10:01:30Z</time>
      </trkpt>
      <trkpt lat="43.96075" lon="5.08044">
        <ele>177.9812012</ele>
        <time>2015-11-11T10:01:34Z</time>
      </trkpt>
      <trkpt lat="43.96078" lon="5.08044">
        <ele>179.4232178</ele>
        <time>2015-11-11T10:01:44Z</time>
      </trkpt>
      <trkpt lat="43.96082" lon="5.08038">
        <ele>180.8652344</ele>
        <time>2015-11-11T10:01:58Z</time>
      </trkpt>
      <trkpt lat="43.96084" lon="5.08032">
        <ele>180.3845215</ele>
        <time>2015-11-11T10:02:09Z</time>
      </trkpt>
      <trkpt lat="43.96098" lon="5.08013">
        <ele>182.7878418</ele>
        <time>2015-11-11T10:02:22Z</time>
      </trkpt>
      <trkpt lat="43.96118" lon="5.07985">
        <ele>183.7490234</ele>
        <time>2015-11-11T10:02:38Z</time>
      </trkpt>
      <trkpt lat="43.96131" lon="5.07963">
        <ele>186.1524658</ele>
        <time>2015-11-11T10:02:50Z</time>
      </trkpt>
      <trkpt lat="43.9612" lon="5.07947">
        <ele>187.1137695</ele>
        <time>2015-11-11T10:03:01Z</time>
      </trkpt>
      <trkpt lat="43.96108" lon="5.07936">
        <ele>188.0750732</ele>
        <time>2015-11-11T10:03:10Z</time>
      </trkpt>
      <trkpt lat="43.96076" lon="5.07937">
        <ele>190.9589844</ele>
        <time>2015-11-11T10:03:27Z</time>
      </trkpt>
      <trkpt lat="43.96035" lon="5.07919">
        <ele>190.9589844</ele>
        <time>2015-11-11T10:03:43Z</time>
      </trkpt>
      <trkpt lat="43.95997" lon="5.07889">
        <ele>189.036377</ele>
        <time>2015-11-11T10:03:55Z</time>
      </trkpt>
      <trkpt lat="43.95991" lon="5.07882">
        <ele>188.5557861</ele>
        <time>2015-11-11T10:03:57Z</time>
      </trkpt>
      <trkpt lat="43.95944" lon="5.07836">
        <ele>189.9976807</ele>
        <time>2015-11-11T10:04:11Z</time>
      </trkpt>
      <trkpt lat="43.95939" lon="5.0781">
        <ele>189.5169678</ele>
        <time>2015-11-11T10:04:18Z</time>
      </trkpt>
      <trkpt lat="43.95933" lon="5.0778">
        <ele>189.5169678</ele>
        <time>2015-11-11T10:04:27Z</time>
      </trkpt>
      <trkpt lat="43.95938" lon="5.07743">
        <ele>187.5943604</ele>
        <time>2015-11-11T10:04:33Z</time>
      </trkpt>
      <trkpt lat="43.95946" lon="5.07715">
        <ele>186.6331787</ele>
        <time>2015-11-11T10:04:37Z</time>
      </trkpt>
      <trkpt lat="43.95948" lon="5.07696">
        <ele>185.6717529</ele>
        <time>2015-11-11T10:04:40Z</time>
      </trkpt>
      <trkpt lat="43.95964" lon="5.07676">
        <ele>183.7490234</ele>
        <time>2015-11-11T10:04:45Z</time>
      </trkpt>
      <trkpt lat="43.95984" lon="5.07642">
        <ele>181.3458252</ele>
        <time>2015-11-11T10:04:51Z</time>
      </trkpt>
      <trkpt lat="43.96004" lon="5.07614">
        <ele>178.4619141</ele>
        <time>2015-11-11T10:04:55Z</time>
      </trkpt>
      <trkpt lat="43.96017" lon="5.0758">
        <ele>176.5393066</ele>
        <time>2015-11-11T10:04:59Z</time>
      </trkpt>
      <trkpt lat="43.96038" lon="5.07547">
        <ele>173.6552734</ele>
        <time>2015-11-11T10:05:04Z</time>
      </trkpt>
      <trkpt lat="43.96048" lon="5.07525">
        <ele>171.732666</ele>
        <time>2015-11-11T10:05:07Z</time>
      </trkpt>
      <trkpt lat="43.96062" lon="5.07471">
        <ele>167.8873291</ele>
        <time>2015-11-11T10:05:11Z</time>
      </trkpt>
      <trkpt lat="43.96057" lon="5.07412">
        <ele>163.5615234</ele>
        <time>2015-11-11T10:05:21Z</time>
      </trkpt>
      <trkpt lat="43.96057" lon="5.07412">
        <ele>163.0808105</ele>
        <time>2015-11-11T10:05:22Z</time>
      </trkpt>
      <trkpt lat="43.96046" lon="5.07405">
        <ele>161.1582031</ele>
        <time>2015-11-11T10:05:26Z</time>
      </trkpt>
      <trkpt lat="43.96029" lon="5.0739">
        <ele>160.6774902</ele>
        <time>2015-11-11T10:05:31Z</time>
      </trkpt>
      <trkpt lat="43.96007" lon="5.07369">
        <ele>160.6774902</ele>
        <time>2015-11-11T10:05:36Z</time>
      </trkpt>
      <trkpt lat="43.95967" lon="5.07329">
        <ele>161.638916</ele>
        <time>2015-11-11T10:05:46Z</time>
      </trkpt>
      <trkpt lat="43.95957" lon="5.07322">
        <ele>162.6000977</ele>
        <time>2015-11-11T10:05:49Z</time>
      </trkpt>
      <trkpt lat="43.95958" lon="5.07308">
        <ele>161.1582031</ele>
        <time>2015-11-11T10:05:53Z</time>
      </trkpt>
      <trkpt lat="43.95986" lon="5.07278">
        <ele>161.638916</ele>
        <time>2015-11-11T10:06:00Z</time>
      </trkpt>
      <trkpt lat="43.95999" lon="5.07271">
        <ele>160.6774902</ele>
        <time>2015-11-11T10:06:03Z</time>
      </trkpt>
      <trkpt lat="43.96014" lon="5.07246">
        <ele>158.7547607</ele>
        <time>2015-11-11T10:06:07Z</time>
      </trkpt>
      <trkpt lat="43.96022" lon="5.07221">
        <ele>156.3515625</ele>
        <time>2015-11-11T10:06:11Z</time>
      </trkpt>
      <trkpt lat="43.96027" lon="5.07184">
        <ele>152.5063477</ele>
        <time>2015-11-11T10:06:16Z</time>
      </trkpt>
      <trkpt lat="43.96033" lon="5.07147">
        <ele>150.5836182</ele>
        <time>2015-11-11T10:06:21Z</time>
      </trkpt>
      <trkpt lat="43.96035" lon="5.07134">
        <ele>150.1030273</ele>
        <time>2015-11-11T10:06:23Z</time>
      </trkpt>
      <trkpt lat="43.96025" lon="5.07098">
        <ele>151.064209</ele>
        <time>2015-11-11T10:06:30Z</time>
      </trkpt>
      <trkpt lat="43.96026" lon="5.07091">
        <ele>151.064209</ele>
        <time>2015-11-11T10:06:31Z</time>
      </trkpt>
      <trkpt lat="43.96042" lon="5.06993">
        <ele>147.2189941</ele>
        <time>2015-11-11T10:06:45Z</time>
      </trkpt>
      <trkpt lat="43.96056" lon="5.06938">
        <ele>143.8543701</ele>
        <time>2015-11-11T10:06:54Z</time>
      </trkpt>
      <trkpt lat="43.96085" lon="5.06951">
        <ele>142.8930664</ele>
        <time>2015-11-11T10:07:01Z</time>
      </trkpt>
      <trkpt lat="43.96107" lon="5.06953">
        <ele>141.9317627</ele>
        <time>2015-11-11T10:07:05Z</time>
      </trkpt>
      <trkpt lat="43.96129" lon="5.0693">
        <ele>140.4898682</ele>
        <time>2015-11-11T10:07:12Z</time>
      </trkpt>
      <trkpt lat="43.96128" lon="5.06926">
        <ele>140.4898682</ele>
        <time>2015-11-11T10:07:13Z</time>
      </trkpt>
      <trkpt lat="43.96127" lon="5.06917">
        <ele>139.5284424</ele>
        <time>2015-11-11T10:07:15Z</time>
      </trkpt>
      <trkpt lat="43.96126" lon="5.06883">
        <ele>138.5672607</ele>
        <time>2015-11-11T10:07:23Z</time>
      </trkpt>
      <trkpt lat="43.96126" lon="5.06833">
        <ele>136.1639404</ele>
        <time>2015-11-11T10:07:32Z</time>
      </trkpt>
      <trkpt lat="43.96126" lon="5.06787">
        <ele>133.760498</ele>
        <time>2015-11-11T10:07:40Z</time>
      </trkpt>
      <trkpt lat="43.96121" lon="5.06751">
        <ele>133.760498</ele>
        <time>2015-11-11T10:07:51Z</time>
      </trkpt>
      <trkpt lat="43.9612" lon="5.06747">
        <ele>133.2799072</ele>
        <time>2015-11-11T10:08:00Z</time>
      </trkpt>
      <trkpt lat="43.96119" lon="5.06731">
        <ele>132.7993164</ele>
        <time>2015-11-11T10:08:08Z</time>
      </trkpt>
      <trkpt lat="43.96122" lon="5.06701">
        <ele>133.760498</ele>
        <time>2015-11-11T10:08:21Z</time>
      </trkpt>
      <trkpt lat="43.96125" lon="5.06697">
        <ele>134.7219238</ele>
        <time>2015-11-11T10:08:24Z</time>
      </trkpt>
      <trkpt lat="43.96134" lon="5.06681">
        <ele>135.2025146</ele>
        <time>2015-11-11T10:08:40Z</time>
      </trkpt>
      <trkpt lat="43.96135" lon="5.06677">
        <ele>134.7219238</ele>
        <time>2015-11-11T10:08:55Z</time>
      </trkpt>
      <trkpt lat="43.96138" lon="5.06667">
        <ele>133.760498</ele>
        <time>2015-11-11T10:09:03Z</time>
      </trkpt>
      <trkpt lat="43.96141" lon="5.06658">
        <ele>132.3186035</ele>
        <time>2015-11-11T10:09:17Z</time>
      </trkpt>
      <trkpt lat="43.96141" lon="5.06658">
        <ele>132.3186035</ele>
        <time>2015-11-11T10:09:28Z</time>
      </trkpt>
      <trkpt lat="43.96143" lon="5.06633">
        <ele>137.605835</ele>
        <time>2015-11-11T10:09:39Z</time>
      </trkpt>
      <trkpt lat="43.96144" lon="5.06624">
        <ele>139.5284424</ele>
        <time>2015-11-11T10:09:51Z</time>
      </trkpt>
      <trkpt lat="43.96145" lon="5.06622">
        <ele>139.5284424</ele>
        <time>2015-11-11T10:10:01Z</time>
      </trkpt>
      <trkpt lat="43.96146" lon="5.06609">
        <ele>140.970459</ele>
        <time>2015-11-11T10:10:08Z</time>
      </trkpt>
      <trkpt lat="43.96153" lon="5.06585">
        <ele>140.4898682</ele>
        <time>2015-11-11T10:10:17Z</time>
      </trkpt>
      <trkpt lat="43.96156" lon="5.06576">
        <ele>140.0091553</ele>
        <time>2015-11-11T10:10:23Z</time>
      </trkpt>
      <trkpt lat="43.96162" lon="5.06562">
        <ele>141.4510498</ele>
        <time>2015-11-11T10:10:35Z</time>
      </trkpt>
      <trkpt lat="43.96164" lon="5.06557">
        <ele>140.970459</ele>
        <time>2015-11-11T10:10:39Z</time>
      </trkpt>
      <trkpt lat="43.96168" lon="5.0655">
        <ele>141.9317627</ele>
        <time>2015-11-11T10:10:45Z</time>
      </trkpt>
      <trkpt lat="43.96174" lon="5.06543">
        <ele>143.3736572</ele>
        <time>2015-11-11T10:10:53Z</time>
      </trkpt>
      <trkpt lat="43.96179" lon="5.06531">
        <ele>143.3736572</ele>
        <time>2015-11-11T10:10:58Z</time>
      </trkpt>
      <trkpt lat="43.96179" lon="5.06509">
        <ele>145.2963867</ele>
        <time>2015-11-11T10:11:07Z</time>
      </trkpt>
      <trkpt lat="43.96179" lon="5.06503">
        <ele>144.8157959</ele>
        <time>2015-11-11T10:11:10Z</time>
      </trkpt>
      <trkpt lat="43.96181" lon="5.06472">
        <ele>144.8157959</ele>
        <time>2015-11-11T10:11:20Z</time>
      </trkpt>
      <trkpt lat="43.9618" lon="5.06459">
        <ele>144.8157959</ele>
        <time>2015-11-11T10:11:24Z</time>
      </trkpt>
      <trkpt lat="43.9618" lon="5.06413">
        <ele>145.2963867</ele>
        <time>2015-11-11T10:11:34Z</time>
      </trkpt>
      <trkpt lat="43.96183" lon="5.06349">
        <ele>144.3352051</ele>
        <time>2015-11-11T10:11:45Z</time>
      </trkpt>
      <trkpt lat="43.96193" lon="5.06334">
        <ele>144.3352051</ele>
        <time>2015-11-11T10:11:50Z</time>
      </trkpt>
      <trkpt lat="43.96198" lon="5.06328">
        <ele>144.8157959</ele>
        <time>2015-11-11T10:11:52Z</time>
      </trkpt>
      <trkpt lat="43.96206" lon="5.06311">
        <ele>141.4510498</ele>
        <time>2015-11-11T10:11:55Z</time>
      </trkpt>
      <trkpt lat="43.96219" lon="5.06303">
        <ele>140.970459</ele>
        <time>2015-11-11T10:11:58Z</time>
      </trkpt>
      <trkpt lat="43.96227" lon="5.06285">
        <ele>138.5672607</ele>
        <time>2015-11-11T10:12:02Z</time>
      </trkpt>
      <trkpt lat="43.96251" lon="5.06234">
        <ele>139.5284424</ele>
        <time>2015-11-11T10:12:13Z</time>
      </trkpt>
      <trkpt lat="43.96252" lon="5.06211">
        <ele>138.0865479</ele>
        <time>2015-11-11T10:12:18Z</time>
      </trkpt>
      <trkpt lat="43.96231" lon="5.06181">
        <ele>134.7219238</ele>
        <time>2015-11-11T10:12:25Z</time>
      </trkpt>
      <trkpt lat="43.96233" lon="5.06163">
        <ele>134.7219238</ele>
        <time>2015-11-11T10:12:29Z</time>
      </trkpt>
      <trkpt lat="43.96233" lon="5.06153">
        <ele>134.2412109</ele>
        <time>2015-11-11T10:12:31Z</time>
      </trkpt>
      <trkpt lat="43.96217" lon="5.06144">
        <ele>131.8378906</ele>
        <time>2015-11-11T10:12:36Z</time>
      </trkpt>
      <trkpt lat="43.96214" lon="5.06141">
        <ele>131.3572998</ele>
        <time>2015-11-11T10:12:37Z</time>
      </trkpt>
      <trkpt lat="43.96209" lon="5.06128">
        <ele>129.4346924</ele>
        <time>2015-11-11T10:12:40Z</time>
      </trkpt>
      <trkpt lat="43.96202" lon="5.0612">
        <ele>127.0313721</ele>
        <time>2015-11-11T10:12:43Z</time>
      </trkpt>
      <trkpt lat="43.96182" lon="5.06091">
        <ele>122.7054443</ele>
        <time>2015-11-11T10:12:49Z</time>
      </trkpt>
      <trkpt lat="43.9616" lon="5.06086">
        <ele>121.7441406</ele>
        <time>2015-11-11T10:12:53Z</time>
      </trkpt>
      <trkpt lat="43.96141" lon="5.06071">
        <ele>119.8214111</ele>
        <time>2015-11-11T10:12:57Z</time>
      </trkpt>
      <trkpt lat="43.96137" lon="5.06045">
        <ele>118.8601074</ele>
        <time>2015-11-11T10:13:02Z</time>
      </trkpt>
      <trkpt lat="43.96134" lon="5.06043">
        <ele>118.8601074</ele>
        <time>2015-11-11T10:13:03Z</time>
      </trkpt>
      <trkpt lat="43.96117" lon="5.06024">
        <ele>115.4956055</ele>
        <time>2015-11-11T10:13:08Z</time>
      </trkpt>
      <trkpt lat="43.96103" lon="5.05991">
        <ele>113.572998</ele>
        <time>2015-11-11T10:13:14Z</time>
      </trkpt>
      <trkpt lat="43.96102" lon="5.05986">
        <ele>113.572998</ele>
        <time>2015-11-11T10:13:15Z</time>
      </trkpt>
      <trkpt lat="43.9608" lon="5.0595">
        <ele>110.6888428</ele>
        <time>2015-11-11T10:13:25Z</time>
      </trkpt>
      <trkpt lat="43.96077" lon="5.05944">
        <ele>110.208252</ele>
        <time>2015-11-11T10:13:26Z</time>
      </trkpt>
      <trkpt lat="43.9608" lon="5.05904">
        <ele>107.3243408</ele>
        <time>2015-11-11T10:13:32Z</time>
      </trkpt>
      <trkpt lat="43.96081" lon="5.05881">
        <ele>105.8824463</ele>
        <time>2015-11-11T10:13:35Z</time>
      </trkpt>
      <trkpt lat="43.96087" lon="5.05856">
        <ele>102.998291</ele>
        <time>2015-11-11T10:13:41Z</time>
      </trkpt>
      <trkpt lat="43.96078" lon="5.0583">
        <ele>100.114502</ele>
        <time>2015-11-11T10:13:47Z</time>
      </trkpt>
      <trkpt lat="43.96056" lon="5.05801">
        <ele>95.3077393</ele>
        <time>2015-11-11T10:13:53Z</time>
      </trkpt>
      <trkpt lat="43.96042" lon="5.05748">
        <ele>92.904541</ele>
        <time>2015-11-11T10:13:59Z</time>
      </trkpt>
      <trkpt lat="43.96045" lon="5.05651">
        <ele>90.9819336</ele>
        <time>2015-11-11T10:14:11Z</time>
      </trkpt>
      <trkpt lat="43.96053" lon="5.05596">
        <ele>89.0593262</ele>
        <time>2015-11-11T10:14:20Z</time>
      </trkpt>
      <trkpt lat="43.96065" lon="5.05579">
        <ele>90.5013428</ele>
        <time>2015-11-11T10:14:27Z</time>
      </trkpt>
      <trkpt lat="43.96066" lon="5.05577">
        <ele>90.5013428</ele>
        <time>2015-11-11T10:14:28Z</time>
      </trkpt>
      <trkpt lat="43.96068" lon="5.05567">
        <ele>91.4625244</ele>
        <time>2015-11-11T10:14:34Z</time>
      </trkpt>
      <trkpt lat="43.96063" lon="5.05559">
        <ele>90.0206299</ele>
        <time>2015-11-11T10:14:46Z</time>
      </trkpt>
      <trkpt lat="43.96062" lon="5.05558">
        <ele>90.0206299</ele>
        <time>2015-11-11T10:15:07Z</time>
      </trkpt>
      <trkpt lat="43.96061" lon="5.05557">
        <ele>90.5013428</ele>
        <time>2015-11-11T10:18:03Z</time>
      </trkpt>
      <trkpt lat="43.96063" lon="5.0554">
        <ele>89.539917</ele>
        <time>2015-11-11T10:18:07Z</time>
      </trkpt>
      <trkpt lat="43.96069" lon="5.05524">
        <ele>89.539917</ele>
        <time>2015-11-11T10:18:10Z</time>
      </trkpt>
      <trkpt lat="43.96094" lon="5.05469">
        <ele>88.5787354</ele>
        <time>2015-11-11T10:18:22Z</time>
      </trkpt>
      <trkpt lat="43.96131" lon="5.05402">
        <ele>87.6171875</ele>
        <time>2015-11-11T10:18:37Z</time>
      </trkpt>
      <trkpt lat="43.96137" lon="5.0538">
        <ele>87.6171875</ele>
        <time>2015-11-11T10:18:41Z</time>
      </trkpt>
      <trkpt lat="43.96139" lon="5.05357">
        <ele>88.0980225</ele>
        <time>2015-11-11T10:18:45Z</time>
      </trkpt>
      <trkpt lat="43.96134" lon="5.05316">
        <ele>88.0980225</ele>
        <time>2015-11-11T10:18:52Z</time>
      </trkpt>
      <trkpt lat="43.96132" lon="5.05298">
        <ele>87.6171875</ele>
        <time>2015-11-11T10:18:55Z</time>
      </trkpt>
      <trkpt lat="43.96136" lon="5.05274">
        <ele>88.0980225</ele>
        <time>2015-11-11T10:18:59Z</time>
      </trkpt>
      <trkpt lat="43.96158" lon="5.0521">
        <ele>87.6171875</ele>
        <time>2015-11-11T10:19:11Z</time>
      </trkpt>
      <trkpt lat="43.96163" lon="5.05201">
        <ele>88.5787354</ele>
        <time>2015-11-11T10:19:13Z</time>
      </trkpt>
      <trkpt lat="43.96216" lon="5.05121">
        <ele>89.0593262</ele>
        <time>2015-11-11T10:19:31Z</time>
      </trkpt>
      <trkpt lat="43.96248" lon="5.05057">
        <ele>88.5787354</ele>
        <time>2015-11-11T10:19:45Z</time>
      </trkpt>
      <trkpt lat="43.96255" lon="5.0504">
        <ele>88.0980225</ele>
        <time>2015-11-11T10:19:49Z</time>
      </trkpt>
      <trkpt lat="43.96279" lon="5.04984">
        <ele>88.0980225</ele>
        <time>2015-11-11T10:20:00Z</time>
      </trkpt>
      <trkpt lat="43.96303" lon="5.04957">
        <ele>87.6171875</ele>
        <time>2015-11-11T10:20:08Z</time>
      </trkpt>
      <trkpt lat="43.96353" lon="5.04929">
        <ele>89.539917</ele>
        <time>2015-11-11T10:20:21Z</time>
      </trkpt>
      <trkpt lat="43.96384" lon="5.04909">
        <ele>89.539917</ele>
        <time>2015-11-11T10:20:29Z</time>
      </trkpt>
      <trkpt lat="43.96397" lon="5.04886">
        <ele>89.539917</ele>
        <time>2015-11-11T10:20:34Z</time>
      </trkpt>
      <trkpt lat="43.96416" lon="5.0482">
        <ele>90.5013428</ele>
        <time>2015-11-11T10:20:46Z</time>
      </trkpt>
      <trkpt lat="43.96416" lon="5.04802">
        <ele>90.0206299</ele>
        <time>2015-11-11T10:20:49Z</time>
      </trkpt>
      <trkpt lat="43.96401" lon="5.04737">
        <ele>89.0593262</ele>
        <time>2015-11-11T10:21:00Z</time>
      </trkpt>
      <trkpt lat="43.9639" lon="5.04704">
        <ele>89.0593262</ele>
        <time>2015-11-11T10:21:06Z</time>
      </trkpt>
      <trkpt lat="43.96395" lon="5.04659">
        <ele>87.6171875</ele>
        <time>2015-11-11T10:21:14Z</time>
      </trkpt>
      <trkpt lat="43.96409" lon="5.04651">
        <ele>87.6171875</ele>
        <time>2015-11-11T10:21:17Z</time>
      </trkpt>
      <trkpt lat="43.96476" lon="5.04634">
        <ele>89.0593262</ele>
        <time>2015-11-11T10:21:31Z</time>
      </trkpt>
      <trkpt lat="43.965" lon="5.04626">
        <ele>91.4625244</ele>
        <time>2015-11-11T10:21:39Z</time>
      </trkpt>
      <trkpt lat="43.96503" lon="5.04628">
        <ele>91.9432373</ele>
        <time>2015-11-11T10:21:43Z</time>
      </trkpt>
      <trkpt lat="43.96504" lon="5.0464">
        <ele>91.4625244</ele>
        <time>2015-11-11T10:21:48Z</time>
      </trkpt>
      <trkpt lat="43.96504" lon="5.04644">
        <ele>90.9819336</ele>
        <time>2015-11-11T10:21:50Z</time>
      </trkpt>
      <trkpt lat="43.96492" lon="5.04666">
        <ele>92.4239502</ele>
        <time>2015-11-11T10:22:01Z</time>
      </trkpt>
      <trkpt lat="43.96489" lon="5.04683">
        <ele>95.7884521</ele>
        <time>2015-11-11T10:22:09Z</time>
      </trkpt>
      <trkpt lat="43.96491" lon="5.04689">
        <ele>95.3077393</ele>
        <time>2015-11-11T10:22:22Z</time>
      </trkpt>
      <trkpt lat="43.96489" lon="5.04698">
        <ele>98.1918945</ele>
        <time>2015-11-11T10:22:35Z</time>
      </trkpt>
      <trkpt lat="43.96488" lon="5.047">
        <ele>98.6724854</ele>
        <time>2015-11-11T10:22:38Z</time>
      </trkpt>
      <trkpt lat="43.96485" lon="5.04713">
        <ele>99.6337891</ele>
        <time>2015-11-11T10:22:43Z</time>
      </trkpt>
      <trkpt lat="43.96482" lon="5.04745">
        <ele>101.0756836</ele>
        <time>2015-11-11T10:22:55Z</time>
      </trkpt>
      <trkpt lat="43.96482" lon="5.04754">
        <ele>102.0371094</ele>
        <time>2015-11-11T10:23:00Z</time>
      </trkpt>
      <trkpt lat="43.96486" lon="5.04778">
        <ele>102.998291</ele>
        <time>2015-11-11T10:23:12Z</time>
      </trkpt>
      <trkpt lat="43.96489" lon="5.04787">
        <ele>102.998291</ele>
        <time>2015-11-11T10:23:17Z</time>
      </trkpt>
      <trkpt lat="43.96494" lon="5.04802">
        <ele>103.9597168</ele>
        <time>2015-11-11T10:23:22Z</time>
      </trkpt>
      <trkpt lat="43.96494" lon="5.04808">
        <ele>104.4404297</ele>
        <time>2015-11-11T10:23:25Z</time>
      </trkpt>
      <trkpt lat="43.96493" lon="5.04813">
        <ele>104.9210205</ele>
        <time>2015-11-11T10:23:27Z</time>
      </trkpt>
      <trkpt lat="43.96498" lon="5.0483">
        <ele>104.9210205</ele>
        <time>2015-11-11T10:23:36Z</time>
      </trkpt>
      <trkpt lat="43.96497" lon="5.04838">
        <ele>104.9210205</ele>
        <time>2015-11-11T10:23:39Z</time>
      </trkpt>
      <trkpt lat="43.96502" lon="5.04861">
        <ele>105.4017334</ele>
        <time>2015-11-11T10:23:47Z</time>
      </trkpt>
      <trkpt lat="43.96509" lon="5.04866">
        <ele>105.4017334</ele>
        <time>2015-11-11T10:23:50Z</time>
      </trkpt>
      <trkpt lat="43.96523" lon="5.04895">
        <ele>105.8824463</ele>
        <time>2015-11-11T10:23:59Z</time>
      </trkpt>
      <trkpt lat="43.9653" lon="5.04921">
        <ele>103.4790039</ele>
        <time>2015-11-11T10:24:07Z</time>
      </trkpt>
      <trkpt lat="43.96534" lon="5.04924">
        <ele>102.998291</ele>
        <time>2015-11-11T10:24:12Z</time>
      </trkpt>
      <trkpt lat="43.96549" lon="5.04917">
        <ele>101.5563965</ele>
        <time>2015-11-11T10:24:17Z</time>
      </trkpt>
      <trkpt lat="43.96569" lon="5.04915">
        <ele>100.114502</ele>
        <time>2015-11-11T10:24:22Z</time>
      </trkpt>
      <trkpt lat="43.96593" lon="5.04912">
        <ele>94.3465576</ele>
        <time>2015-11-11T10:24:31Z</time>
      </trkpt>
      <trkpt lat="43.96609" lon="5.04893">
        <ele>92.904541</ele>
        <time>2015-11-11T10:24:38Z</time>
      </trkpt>
      <trkpt lat="43.96611" lon="5.04889">
        <ele>92.4239502</ele>
        <time>2015-11-11T10:24:40Z</time>
      </trkpt>
      <trkpt lat="43.96631" lon="5.04887">
        <ele>93.3851318</ele>
        <time>2015-11-11T10:24:48Z</time>
      </trkpt>
      <trkpt lat="43.96646" lon="5.04901">
        <ele>94.3465576</ele>
        <time>2015-11-11T10:24:54Z</time>
      </trkpt>
      <trkpt lat="43.96652" lon="5.04909">
        <ele>94.8271484</ele>
        <time>2015-11-11T10:25:02Z</time>
      </trkpt>
      <trkpt lat="43.96654" lon="5.04907">
        <ele>95.7884521</ele>
        <time>2015-11-11T10:25:18Z</time>
      </trkpt>
      <trkpt lat="43.96663" lon="5.04903">
        <ele>96.2692871</ele>
        <time>2015-11-11T10:25:26Z</time>
      </trkpt>
      <trkpt lat="43.96667" lon="5.049">
        <ele>96.7498779</ele>
        <time>2015-11-11T10:25:28Z</time>
      </trkpt>
      <trkpt lat="43.96674" lon="5.04899">
        <ele>96.2692871</ele>
        <time>2015-11-11T10:25:31Z</time>
      </trkpt>
      <trkpt lat="43.96691" lon="5.04903">
        <ele>97.7111816</ele>
        <time>2015-11-11T10:25:40Z</time>
      </trkpt>
      <trkpt lat="43.96705" lon="5.04914">
        <ele>97.7111816</ele>
        <time>2015-11-11T10:25:46Z</time>
      </trkpt>
      <trkpt lat="43.96706" lon="5.04915">
        <ele>97.7111816</ele>
        <time>2015-11-11T10:25:47Z</time>
      </trkpt>
      <trkpt lat="43.96713" lon="5.04919">
        <ele>97.2304688</ele>
        <time>2015-11-11T10:25:51Z</time>
      </trkpt>
      <trkpt lat="43.96741" lon="5.04915">
        <ele>97.7111816</ele>
        <time>2015-11-11T10:26:03Z</time>
      </trkpt>
      <trkpt lat="43.96754" lon="5.04916">
        <ele>101.0756836</ele>
        <time>2015-11-11T10:26:11Z</time>
      </trkpt>
      <trkpt lat="43.96767" lon="5.04921">
        <ele>102.5177002</ele>
        <time>2015-11-11T10:26:16Z</time>
      </trkpt>
      <trkpt lat="43.96783" lon="5.04923">
        <ele>102.998291</ele>
        <time>2015-11-11T10:26:24Z</time>
      </trkpt>
      <trkpt lat="43.96785" lon="5.04924">
        <ele>102.998291</ele>
        <time>2015-11-11T10:26:51Z</time>
      </trkpt>
      <trkpt lat="43.9679" lon="5.04926">
        <ele>102.998291</ele>
        <time>2015-11-11T10:27:00Z</time>
      </trkpt>
      <trkpt lat="43.96794" lon="5.04927">
        <ele>105.4017334</ele>
        <time>2015-11-11T10:27:18Z</time>
      </trkpt>
      <trkpt lat="43.96796" lon="5.04927">
        <ele>105.4017334</ele>
        <time>2015-11-11T10:27:20Z</time>
      </trkpt>
      <trkpt lat="43.96798" lon="5.04927">
        <ele>105.8824463</ele>
        <time>2015-11-11T10:27:22Z</time>
      </trkpt>
      <trkpt lat="43.96809" lon="5.04937">
        <ele>105.8824463</ele>
        <time>2015-11-11T10:27:28Z</time>
      </trkpt>
      <trkpt lat="43.96823" lon="5.04942">
        <ele>106.8436279</ele>
        <time>2015-11-11T10:27:34Z</time>
      </trkpt>
      <trkpt lat="43.96834" lon="5.04954">
        <ele>107.3243408</ele>
        <time>2015-11-11T10:27:40Z</time>
      </trkpt>
      <trkpt lat="43.96848" lon="5.04953">
        <ele>107.8050537</ele>
        <time>2015-11-11T10:27:46Z</time>
      </trkpt>
      <trkpt lat="43.96873" lon="5.04943">
        <ele>105.4017334</ele>
        <time>2015-11-11T10:27:53Z</time>
      </trkpt>
      <trkpt lat="43.96893" lon="5.04914">
        <ele>102.998291</ele>
        <time>2015-11-11T10:27:59Z</time>
      </trkpt>
      <trkpt lat="43.96895" lon="5.04896">
        <ele>102.5177002</ele>
        <time>2015-11-11T10:28:02Z</time>
      </trkpt>
      <trkpt lat="43.96897" lon="5.04866">
        <ele>100.5950928</ele>
        <time>2015-11-11T10:28:07Z</time>
      </trkpt>
      <trkpt lat="43.96909" lon="5.04852">
        <ele>98.1918945</ele>
        <time>2015-11-11T10:28:12Z</time>
      </trkpt>
      <trkpt lat="43.96946" lon="5.04819">
        <ele>94.3465576</ele>
        <time>2015-11-11T10:28:22Z</time>
      </trkpt>
      <trkpt lat="43.96946" lon="5.04815">
        <ele>93.8658447</ele>
        <time>2015-11-11T10:28:23Z</time>
      </trkpt>
      <trkpt lat="43.96945" lon="5.04809">
        <ele>93.8658447</ele>
        <time>2015-11-11T10:28:28Z</time>
      </trkpt>
      <trkpt lat="43.96948" lon="5.04813">
        <ele>93.8658447</ele>
        <time>2015-11-11T10:28:34Z</time>
      </trkpt>
      <trkpt lat="43.96947" lon="5.04841">
        <ele>94.8271484</ele>
        <time>2015-11-11T10:28:44Z</time>
      </trkpt>
      <trkpt lat="43.9695" lon="5.04873">
        <ele>96.7498779</ele>
        <time>2015-11-11T10:28:55Z</time>
      </trkpt>
      <trkpt lat="43.96951" lon="5.04882">
        <ele>97.7111816</ele>
        <time>2015-11-11T10:28:58Z</time>
      </trkpt>
      <trkpt lat="43.96955" lon="5.04911">
        <ele>99.6337891</ele>
        <time>2015-11-11T10:29:10Z</time>
      </trkpt>
      <trkpt lat="43.96962" lon="5.0494">
        <ele>102.0371094</ele>
        <time>2015-11-11T10:29:24Z</time>
      </trkpt>
      <trkpt lat="43.96973" lon="5.04963">
        <ele>104.9210205</ele>
        <time>2015-11-11T10:29:36Z</time>
      </trkpt>
      <trkpt lat="43.96986" lon="5.04993">
        <ele>106.3630371</ele>
        <time>2015-11-11T10:29:53Z</time>
      </trkpt>
      <trkpt lat="43.96995" lon="5.05011">
        <ele>105.8824463</ele>
        <time>2015-11-11T10:30:04Z</time>
      </trkpt>
      <trkpt lat="43.97004" lon="5.05011">
        <ele>104.9210205</ele>
        <time>2015-11-11T10:30:09Z</time>
      </trkpt>
      <trkpt lat="43.97011" lon="5.0498">
        <ele>102.0371094</ele>
        <time>2015-11-11T10:30:16Z</time>
      </trkpt>
      <trkpt lat="43.97014" lon="5.04968">
        <ele>101.5563965</ele>
        <time>2015-11-11T10:30:19Z</time>
      </trkpt>
      <trkpt lat="43.97034" lon="5.04955">
        <ele>101.5563965</ele>
        <time>2015-11-11T10:30:26Z</time>
      </trkpt>
      <trkpt lat="43.97049" lon="5.04946">
        <ele>99.1530762</ele>
        <time>2015-11-11T10:30:29Z</time>
      </trkpt>
      <trkpt lat="43.97073" lon="5.04937">
        <ele>98.6724854</ele>
        <time>2015-11-11T10:30:34Z</time>
      </trkpt>
      <trkpt lat="43.97095" lon="5.04944">
        <ele>98.6724854</ele>
        <time>2015-11-11T10:30:39Z</time>
      </trkpt>
      <trkpt lat="43.97124" lon="5.04973">
        <ele>99.1530762</ele>
        <time>2015-11-11T10:30:50Z</time>
      </trkpt>
      <trkpt lat="43.97137" lon="5.04977">
        <ele>99.1530762</ele>
        <time>2015-11-11T10:30:54Z</time>
      </trkpt>
      <trkpt lat="43.97156" lon="5.04971">
        <ele>98.6724854</ele>
        <time>2015-11-11T10:30:58Z</time>
      </trkpt>
      <trkpt lat="43.97216" lon="5.04924">
        <ele>96.2692871</ele>
        <time>2015-11-11T10:31:11Z</time>
      </trkpt>
      <trkpt lat="43.97234" lon="5.04904">
        <ele>96.2692871</ele>
        <time>2015-11-11T10:31:16Z</time>
      </trkpt>
      <trkpt lat="43.97251" lon="5.04908">
        <ele>95.7884521</ele>
        <time>2015-11-11T10:31:21Z</time>
      </trkpt>
      <trkpt lat="43.97279" lon="5.04961">
        <ele>95.7884521</ele>
        <time>2015-11-11T10:31:32Z</time>
      </trkpt>
      <trkpt lat="43.973" lon="5.04968">
        <ele>95.3077393</ele>
        <time>2015-11-11T10:31:37Z</time>
      </trkpt>
      <trkpt lat="43.97303" lon="5.04964">
        <ele>95.3077393</ele>
        <time>2015-11-11T10:31:38Z</time>
      </trkpt>
      <trkpt lat="43.97315" lon="5.04977">
        <ele>93.8658447</ele>
        <time>2015-11-11T10:31:45Z</time>
      </trkpt>
      <trkpt lat="43.97313" lon="5.04989">
        <ele>93.3851318</ele>
        <time>2015-11-11T10:31:47Z</time>
      </trkpt>
      <trkpt lat="43.9731" lon="5.05002">
        <ele>93.3851318</ele>
        <time>2015-11-11T10:31:49Z</time>
      </trkpt>
      <trkpt lat="43.97316" lon="5.05026">
        <ele>92.4239502</ele>
        <time>2015-11-11T10:31:53Z</time>
      </trkpt>
      <trkpt lat="43.97338" lon="5.05056">
        <ele>94.3465576</ele>
        <time>2015-11-11T10:32:01Z</time>
      </trkpt>
      <trkpt lat="43.97341" lon="5.05063">
        <ele>94.8271484</ele>
        <time>2015-11-11T10:32:03Z</time>
      </trkpt>
      <trkpt lat="43.97344" lon="5.05074">
        <ele>95.7884521</ele>
        <time>2015-11-11T10:32:07Z</time>
      </trkpt>
      <trkpt lat="43.9734" lon="5.05091">
        <ele>96.2692871</ele>
        <time>2015-11-11T10:32:15Z</time>
      </trkpt>
      <trkpt lat="43.9735" lon="5.05096">
        <ele>98.6724854</ele>
        <time>2015-11-11T10:32:24Z</time>
      </trkpt>
      <trkpt lat="43.97351" lon="5.05095">
        <ele>98.6724854</ele>
        <time>2015-11-11T10:32:25Z</time>
      </trkpt>
      <trkpt lat="43.97369" lon="5.05089">
        <ele>100.5950928</ele>
        <time>2015-11-11T10:32:37Z</time>
      </trkpt>
      <trkpt lat="43.97372" lon="5.05091">
        <ele>101.0756836</ele>
        <time>2015-11-11T10:32:39Z</time>
      </trkpt>
      <trkpt lat="43.97378" lon="5.05094">
        <ele>101.5563965</ele>
        <time>2015-11-11T10:32:43Z</time>
      </trkpt>
      <trkpt lat="43.9741" lon="5.05104">
        <ele>102.998291</ele>
        <time>2015-11-11T10:32:59Z</time>
      </trkpt>
      <trkpt lat="43.97441" lon="5.05121">
        <ele>102.5177002</ele>
        <time>2015-11-11T10:33:10Z</time>
      </trkpt>
      <trkpt lat="43.97469" lon="5.05152">
        <ele>101.5563965</ele>
        <time>2015-11-11T10:33:20Z</time>
      </trkpt>
      <trkpt lat="43.97471" lon="5.05192">
        <ele>100.5950928</ele>
        <time>2015-11-11T10:33:28Z</time>
      </trkpt>
      <trkpt lat="43.9747" lon="5.05217">
        <ele>100.5950928</ele>
        <time>2015-11-11T10:33:32Z</time>
      </trkpt>
      <trkpt lat="43.97482" lon="5.0523">
        <ele>99.6337891</ele>
        <time>2015-11-11T10:33:36Z</time>
      </trkpt>
      <trkpt lat="43.97509" lon="5.05236">
        <ele>97.7111816</ele>
        <time>2015-11-11T10:33:41Z</time>
      </trkpt>
      <trkpt lat="43.97531" lon="5.05226">
        <ele>97.7111816</ele>
        <time>2015-11-11T10:33:46Z</time>
      </trkpt>
      <trkpt lat="43.97559" lon="5.05209">
        <ele>99.1530762</ele>
        <time>2015-11-11T10:33:54Z</time>
      </trkpt>
      <trkpt lat="43.97588" lon="5.05203">
        <ele>101.0756836</ele>
        <time>2015-11-11T10:34:05Z</time>
      </trkpt>
      <trkpt lat="43.97599" lon="5.05199">
        <ele>102.998291</ele>
        <time>2015-11-11T10:34:10Z</time>
      </trkpt>
      <trkpt lat="43.97602" lon="5.05155">
        <ele>101.0756836</ele>
        <time>2015-11-11T10:34:18Z</time>
      </trkpt>
      <trkpt lat="43.97603" lon="5.05101">
        <ele>100.114502</ele>
        <time>2015-11-11T10:34:24Z</time>
      </trkpt>
      <trkpt lat="43.97614" lon="5.05045">
        <ele>97.2304688</ele>
        <time>2015-11-11T10:34:30Z</time>
      </trkpt>
      <trkpt lat="43.97641" lon="5.05009">
        <ele>94.3465576</ele>
        <time>2015-11-11T10:34:36Z</time>
      </trkpt>
      <trkpt lat="43.97642" lon="5.05012">
        <ele>94.3465576</ele>
        <time>2015-11-11T10:34:37Z</time>
      </trkpt>
      <trkpt lat="43.97681" lon="5.05024">
        <ele>93.3851318</ele>
        <time>2015-11-11T10:34:49Z</time>
      </trkpt>
      <trkpt lat="43.97715" lon="5.05029">
        <ele>94.8271484</ele>
        <time>2015-11-11T10:34:58Z</time>
      </trkpt>
      <trkpt lat="43.97748" lon="5.05034">
        <ele>95.7884521</ele>
        <time>2015-11-11T10:35:08Z</time>
      </trkpt>
      <trkpt lat="43.97782" lon="5.0504">
        <ele>95.7884521</ele>
        <time>2015-11-11T10:35:18Z</time>
      </trkpt>
      <trkpt lat="43.97835" lon="5.05046">
        <ele>92.904541</ele>
        <time>2015-11-11T10:35:29Z</time>
      </trkpt>
      <trkpt lat="43.97854" lon="5.05051">
        <ele>91.9432373</ele>
        <time>2015-11-11T10:35:33Z</time>
      </trkpt>
      <trkpt lat="43.97916" lon="5.05062">
        <ele>90.9819336</ele>
        <time>2015-11-11T10:35:46Z</time>
      </trkpt>
      <trkpt lat="43.97979" lon="5.05066">
        <ele>90.9819336</ele>
        <time>2015-11-11T10:36:01Z</time>
      </trkpt>
      <trkpt lat="43.97983" lon="5.05067">
        <ele>90.9819336</ele>
        <time>2015-11-11T10:36:02Z</time>
      </trkpt>
      <trkpt lat="43.98019" lon="5.05072">
        <ele>91.9432373</ele>
        <time>2015-11-11T10:36:10Z</time>
      </trkpt>
      <trkpt lat="43.98074" lon="5.05084">
        <ele>94.8271484</ele>
        <time>2015-11-11T10:36:23Z</time>
      </trkpt>
      <trkpt lat="43.9809" lon="5.0509">
        <ele>92.4239502</ele>
        <time>2015-11-11T10:36:27Z</time>
      </trkpt>
      <trkpt lat="43.98109" lon="5.05108">
        <ele>89.539917</ele>
        <time>2015-11-11T10:36:31Z</time>
      </trkpt>
      <trkpt lat="43.9812" lon="5.05121">
        <ele>89.0593262</ele>
        <time>2015-11-11T10:36:33Z</time>
      </trkpt>
      <trkpt lat="43.98154" lon="5.05133">
        <ele>88.5787354</ele>
        <time>2015-11-11T10:36:39Z</time>
      </trkpt>
      <trkpt lat="43.98179" lon="5.05113">
        <ele>89.539917</ele>
        <time>2015-11-11T10:36:44Z</time>
      </trkpt>
      <trkpt lat="43.98203" lon="5.05083">
        <ele>90.9819336</ele>
        <time>2015-11-11T10:36:50Z</time>
      </trkpt>
      <trkpt lat="43.98234" lon="5.05019">
        <ele>93.3851318</ele>
        <time>2015-11-11T10:37:00Z</time>
      </trkpt>
      <trkpt lat="43.98242" lon="5.05007">
        <ele>93.8658447</ele>
        <time>2015-11-11T10:37:03Z</time>
      </trkpt>
      <trkpt lat="43.98256" lon="5.05025">
        <ele>93.3851318</ele>
        <time>2015-11-11T10:37:10Z</time>
      </trkpt>
      <trkpt lat="43.983" lon="5.05092">
        <ele>94.3465576</ele>
        <time>2015-11-11T10:37:29Z</time>
      </trkpt>
      <trkpt lat="43.98337" lon="5.05143">
        <ele>99.6337891</ele>
        <time>2015-11-11T10:37:46Z</time>
      </trkpt>
      <trkpt lat="43.98362" lon="5.05182">
        <ele>102.998291</ele>
        <time>2015-11-11T10:38:00Z</time>
      </trkpt>
      <trkpt lat="43.98354" lon="5.05211">
        <ele>104.4404297</ele>
        <time>2015-11-11T10:38:09Z</time>
      </trkpt>
      <trkpt lat="43.98347" lon="5.0524">
        <ele>105.8824463</ele>
        <time>2015-11-11T10:38:20Z</time>
      </trkpt>
      <trkpt lat="43.98336" lon="5.05281">
        <ele>108.2856445</ele>
        <time>2015-11-11T10:38:37Z</time>
      </trkpt>
      <trkpt lat="43.98335" lon="5.05287">
        <ele>108.2856445</ele>
        <time>2015-11-11T10:38:40Z</time>
      </trkpt>
      <trkpt lat="43.98338" lon="5.05319">
        <ele>107.3243408</ele>
        <time>2015-11-11T10:38:47Z</time>
      </trkpt>
      <trkpt lat="43.98344" lon="5.05345">
        <ele>106.8436279</ele>
        <time>2015-11-11T10:38:53Z</time>
      </trkpt>
      <trkpt lat="43.98343" lon="5.05353">
        <ele>106.8436279</ele>
        <time>2015-11-11T10:38:55Z</time>
      </trkpt>
      <trkpt lat="43.98352" lon="5.05372">
        <ele>105.8824463</ele>
        <time>2015-11-11T10:39:00Z</time>
      </trkpt>
      <trkpt lat="43.98353" lon="5.05383">
        <ele>104.4404297</ele>
        <time>2015-11-11T10:39:02Z</time>
      </trkpt>
      <trkpt lat="43.98359" lon="5.05399">
        <ele>100.5950928</ele>
        <time>2015-11-11T10:39:06Z</time>
      </trkpt>
      <trkpt lat="43.98381" lon="5.05421">
        <ele>100.5950928</ele>
        <time>2015-11-11T10:39:11Z</time>
      </trkpt>
      <trkpt lat="43.98411" lon="5.05424">
        <ele>102.998291</ele>
        <time>2015-11-11T10:39:19Z</time>
      </trkpt>
      <trkpt lat="43.98439" lon="5.05453">
        <ele>104.4404297</ele>
        <time>2015-11-11T10:39:28Z</time>
      </trkpt>
      <trkpt lat="43.98441" lon="5.05455">
        <ele>104.9210205</ele>
        <time>2015-11-11T10:39:29Z</time>
      </trkpt>
      <trkpt lat="43.98445" lon="5.05473">
        <ele>105.8824463</ele>
        <time>2015-11-11T10:39:35Z</time>
      </trkpt>
      <trkpt lat="43.9845" lon="5.05499">
        <ele>106.3630371</ele>
        <time>2015-11-11T10:39:43Z</time>
      </trkpt>
      <trkpt lat="43.98457" lon="5.05526">
        <ele>104.9210205</ele>
        <time>2015-11-11T10:39:47Z</time>
      </trkpt>
      <trkpt lat="43.9846" lon="5.05549">
        <ele>104.4404297</ele>
        <time>2015-11-11T10:39:50Z</time>
      </trkpt>
      <trkpt lat="43.9847" lon="5.05599">
        <ele>102.0371094</ele>
        <time>2015-11-11T10:39:56Z</time>
      </trkpt>
      <trkpt lat="43.98473" lon="5.05619">
        <ele>101.5563965</ele>
        <time>2015-11-11T10:39:58Z</time>
      </trkpt>
      <trkpt lat="43.98478" lon="5.05675">
        <ele>101.0756836</ele>
        <time>2015-11-11T10:40:04Z</time>
      </trkpt>
      <trkpt lat="43.98479" lon="5.05694">
        <ele>101.0756836</ele>
        <time>2015-11-11T10:40:07Z</time>
      </trkpt>
      <trkpt lat="43.98478" lon="5.05703">
        <ele>100.114502</ele>
        <time>2015-11-11T10:40:09Z</time>
      </trkpt>
      <trkpt lat="43.98481" lon="5.05721">
        <ele>95.3077393</ele>
        <time>2015-11-11T10:40:15Z</time>
      </trkpt>
      <trkpt lat="43.98492" lon="5.05728">
        <ele>93.8658447</ele>
        <time>2015-11-11T10:40:19Z</time>
      </trkpt>
      <trkpt lat="43.98524" lon="5.05742">
        <ele>92.904541</ele>
        <time>2015-11-11T10:40:28Z</time>
      </trkpt>
      <trkpt lat="43.98528" lon="5.05745">
        <ele>92.904541</ele>
        <time>2015-11-11T10:40:29Z</time>
      </trkpt>
      <trkpt lat="43.98558" lon="5.05739">
        <ele>92.904541</ele>
        <time>2015-11-11T10:40:37Z</time>
      </trkpt>
      <trkpt lat="43.98572" lon="5.05711">
        <ele>92.904541</ele>
        <time>2015-11-11T10:40:43Z</time>
      </trkpt>
      <trkpt lat="43.98579" lon="5.05696">
        <ele>92.4239502</ele>
        <time>2015-11-11T10:40:46Z</time>
      </trkpt>
      <trkpt lat="43.98608" lon="5.05659">
        <ele>90.5013428</ele>
        <time>2015-11-11T10:40:54Z</time>
      </trkpt>
      <trkpt lat="43.98626" lon="5.05649">
        <ele>91.4625244</ele>
        <time>2015-11-11T10:40:58Z</time>
      </trkpt>
      <trkpt lat="43.98694" lon="5.0565">
        <ele>94.3465576</ele>
        <time>2015-11-11T10:41:13Z</time>
      </trkpt>
      <trkpt lat="43.98731" lon="5.0565">
        <ele>95.7884521</ele>
        <time>2015-11-11T10:41:25Z</time>
      </trkpt>
      <trkpt lat="43.98761" lon="5.05631">
        <ele>99.6337891</ele>
        <time>2015-11-11T10:41:37Z</time>
      </trkpt>
      <trkpt lat="43.98793" lon="5.0559">
        <ele>101.5563965</ele>
        <time>2015-11-11T10:41:51Z</time>
      </trkpt>
      <trkpt lat="43.98836" lon="5.05526">
        <ele>100.5950928</ele>
        <time>2015-11-11T10:42:10Z</time>
      </trkpt>
      <trkpt lat="43.98865" lon="5.05524">
        <ele>102.5177002</ele>
        <time>2015-11-11T10:42:19Z</time>
      </trkpt>
      <trkpt lat="43.98913" lon="5.05558">
        <ele>104.9210205</ele>
        <time>2015-11-11T10:42:34Z</time>
      </trkpt>
      <trkpt lat="43.98966" lon="5.05579">
        <ele>105.4017334</ele>
        <time>2015-11-11T10:42:49Z</time>
      </trkpt>
      <trkpt lat="43.99015" lon="5.05589">
        <ele>107.3243408</ele>
        <time>2015-11-11T10:43:03Z</time>
      </trkpt>
      <trkpt lat="43.99018" lon="5.05619">
        <ele>106.3630371</ele>
        <time>2015-11-11T10:43:09Z</time>
      </trkpt>
      <trkpt lat="43.9902" lon="5.05628">
        <ele>105.8824463</ele>
        <time>2015-11-11T10:43:16Z</time>
      </trkpt>
      <trkpt lat="43.9902" lon="5.05636">
        <ele>105.4017334</ele>
        <time>2015-11-11T10:43:45Z</time>
      </trkpt>
      <trkpt lat="43.99022" lon="5.0564">
        <ele>105.4017334</ele>
        <time>2015-11-11T10:43:56Z</time>
      </trkpt>
      <trkpt lat="43.99019" lon="5.05636">
        <ele>105.4017334</ele>
        <time>2015-11-11T10:45:25Z</time>
      </trkpt>
      <trkpt lat="43.99019" lon="5.05636">
        <ele>105.4017334</ele>
        <time>2015-11-11T10:45:38Z</time>
      </trkpt>
    </trkseg>
  </trk>
</gpx>